Darstellungsparameter: Aktuell verwendete Einstellungen:
Skalierung der Graphiken ... ?
xyx+y,   Skalierungsfaktor:      Skalierung: Modus: x, Faktor: 1
Darstellungszeitraum ... ?
Vom - - bis: - -   Zeitraum: 16.01.2010 - 15.04.2010
Min/Max/Avg-Anzeige ... ?
Zeige MMA aktuell
Zeige MMA Monat
Zeige MMA alles
Zeige --A aktuell
Zeige --A Monat
Zeige --A alles
Keine MMA-Anzeige
MMA:
Average (ber die Originaldaten)
MMA-Basis: 23.02.2003 - 23.04.2020
Quicknavigation für Darstellung... ?
Tage:      1T, 2T, 3T, 5T -1T -2T -3T -5T +1T +2T +3T +5T
Wochen: 1W, 2W, 3W -1W -2W -3W +1W +2W +3W
Monate: 1M, 3M, 6M -1M -3M -6M +1M +3M +6M
Jahre:    1J, 3J, 5J, 10J -1J -3J -5J -10J +1J +3J +5J +10J
Nutze für die Darstellung ... ?
Originaldaten oder Mittelwerte auf ...
Stundenbasis Tagesbasis Wochenbasis
Monatsbasis Jahresbasis      Datenbasis: Original-Daten
Darstellen als:
Statistik (Auto) Statistik J:M      Darstellung:
Zur Graphik,    zurück zur Übersicht aller Sensoren.
 
Tabellarische Datenbersicht: ?
 
Sensor: Nr:Datum:Temp:Abs-Feuchte:Windchill:Wind:
Aussen-T/F 1 16-01-2010 00:08:03 0.4 C 3.93 g/m*3 0.4 C 0 km/h
2 16-01-2010 00:20:03 0.4 C 3.93 g/m*3 0.4 C 0 km/h
3 16-01-2010 00:32:03 0.5 C 3.96 g/m*3 0.5 C 0 km/h
4 16-01-2010 00:44:03 0.4 C 3.93 g/m*3 0.4 C 0 km/h
5 16-01-2010 00:56:03 0.3 C 3.91 g/m*3 0.3 C 0 km/h
6 16-01-2010 01:08:03 0.3 C 3.91 g/m*3 0.3 C 0 km/h
7 16-01-2010 01:20:03 0.2 C 3.88 g/m*3 0.2 C 0 km/h
8 16-01-2010 01:32:04 0.2 C 3.88 g/m*3 0.2 C 0 km/h
9 16-01-2010 01:44:04 0.2 C 3.88 g/m*3 0.2 C 0 km/h
10 16-01-2010 01:56:04 0.2 C 3.88 g/m*3 0.2 C 0 km/h
11 16-01-2010 02:08:04 0.1 C 3.85 g/m*3 0.1 C 0 km/h
12 16-01-2010 02:20:04 0.1 C 3.85 g/m*3 0.1 C 0 km/h
13 16-01-2010 02:32:04 0.1 C 3.85 g/m*3 0.1 C 0 km/h
14 16-01-2010 02:44:04 0.1 C 3.85 g/m*3 0.1 C 0 km/h
15 16-01-2010 02:56:04 0.1 C 3.85 g/m*3 0.1 C 0 km/h
16 16-01-2010 03:08:04 0.1 C 3.85 g/m*3 0.1 C 0 km/h
17 16-01-2010 03:20:04 0.1 C 3.85 g/m*3 0.1 C 0 km/h
18 16-01-2010 03:32:04 0.2 C 3.88 g/m*3 0.2 C 0 km/h
19 16-01-2010 03:44:04 0.2 C 3.88 g/m*3 0.2 C 0 km/h
20 16-01-2010 03:56:04 0.2 C 3.83 g/m*3 0.2 C 0 km/h
21 16-01-2010 04:08:04 0.2 C 3.83 g/m*3 0.2 C 0 km/h
22 16-01-2010 04:20:04 0.2 C 3.83 g/m*3 0.2 C 0 km/h
23 16-01-2010 04:32:04 0.2 C 3.83 g/m*3 0.2 C 0 km/h
24 16-01-2010 04:44:04 0.2 C 3.83 g/m*3 0.2 C 0 km/h
25 16-01-2010 04:56:04 0.1 C 3.81 g/m*3 0.1 C 0 km/h
Sensor: Nr:Datum:Temp:Abs-Feuchte:Windchill:Wind:
Aussen-T/F 26 16-01-2010 05:08:04 0.1 C 3.81 g/m*3 0.1 C 0 km/h
27 16-01-2010 05:20:04 0 C 3.78 g/m*3 0 C 0 km/h
28 16-01-2010 05:32:04 -0.1 C 3.8 g/m*3 -0.1 C 0 km/h
29 16-01-2010 05:44:04 -0.2 C 3.78 g/m*3 -0.2 C 0 km/h
30 16-01-2010 05:56:05 -0.2 C 3.82 g/m*3 -0.2 C 0 km/h
31 16-01-2010 06:08:05 -0.3 C 3.8 g/m*3 -0.3 C 0 km/h
32 16-01-2010 06:20:05 -0.3 C 3.8 g/m*3 -0.3 C 0 km/h
33 16-01-2010 06:32:05 -0.4 C 3.77 g/m*3 -0.4 C 0 km/h
34 16-01-2010 06:44:05 -0.4 C 3.82 g/m*3 -0.4 C 0 km/h
35 16-01-2010 06:56:05 -0.4 C 3.82 g/m*3 -0.4 C 0 km/h
36 16-01-2010 07:08:05 -0.4 C 3.82 g/m*3 -0.4 C 0 km/h
37 16-01-2010 07:20:05 -0.5 C 3.79 g/m*3 -0.5 C 0 km/h
38 16-01-2010 07:32:05 -0.6 C 3.72 g/m*3 -0.6 C 0 km/h
39 16-01-2010 07:44:05 -0.7 C 3.69 g/m*3 -0.7 C 0 km/h
40 16-01-2010 07:56:05 -0.7 C 3.74 g/m*3 -0.7 C 0 km/h
41 16-01-2010 08:08:05 -0.7 C 3.69 g/m*3 -0.7 C 0 km/h
42 16-01-2010 08:20:03 -0.7 C 3.69 g/m*3 -0.7 C 0 km/h
43 16-01-2010 08:32:02 -0.7 C 3.69 g/m*3 -0.7 C 0 km/h
44 16-01-2010 08:44:02 -0.6 C 3.72 g/m*3 -0.6 C 0 km/h
45 16-01-2010 08:56:01 -0.5 C 3.74 g/m*3 -0.5 C 0 km/h
46 16-01-2010 09:08:02 -0.5 C 3.74 g/m*3 -0.5 C 0 km/h
47 16-01-2010 09:20:02 -0.4 C 3.77 g/m*3 -0.4 C 0 km/h
48 16-01-2010 09:32:01 -0.4 C 3.77 g/m*3 -0.4 C 0 km/h
49 16-01-2010 09:44:01 -0.4 C 3.72 g/m*3 -0.4 C 0 km/h
50 16-01-2010 09:56:02 -0.3 C 3.75 g/m*3 -0.3 C 0 km/h
Sensor: Nr:Datum:Temp:Abs-Feuchte:Windchill:Wind:
Aussen-T/F 51 16-01-2010 10:08:01 -0.5 C 3.6 g/m*3 -0.5 C 0 km/h
52 16-01-2010 10:20:01 -0.5 C 3.6 g/m*3 -0.5 C 0 km/h
53 16-01-2010 10:32:02 -0.3 C 3.65 g/m*3 -0.3 C 0 km/h
54 16-01-2010 10:44:02 -0.7 C 3.51 g/m*3 -0.7 C 0 km/h
55 16-01-2010 10:56:02 -0.5 C 3.56 g/m*3 -0.5 C 0 km/h
56 16-01-2010 11:08:01 -0.5 C 3.51 g/m*3 -0.5 C 0 km/h
57 16-01-2010 11:20:02 -0.3 C 3.56 g/m*3 -0.3 C 0 km/h
58 16-01-2010 11:32:02 -0.2 C 3.58 g/m*3 -0.2 C 0 km/h
59 16-01-2010 11:44:02 -0.1 C 3.56 g/m*3 -0.1 C 0 km/h
60 16-01-2010 11:56:01 -0.2 C 3.49 g/m*3 -0.2 C 0 km/h
61 16-01-2010 12:08:02 -0.2 C 3.49 g/m*3 -0.2 C 0 km/h
62 16-01-2010 12:20:01 -0.1 C 3.51 g/m*3 -0.1 C 0 km/h
63 16-01-2010 12:32:01 -0.3 C 3.46 g/m*3 -0.3 C 0 km/h
64 16-01-2010 12:44:02 -0.2 C 3.49 g/m*3 -0.2 C 0 km/h
65 16-01-2010 12:56:02 0 C 3.54 g/m*3 0 C 0 km/h
66 16-01-2010 13:08:02 -0.1 C 3.51 g/m*3 -0.1 C 0 km/h
67 16-01-2010 13:20:01 0.1 C 3.56 g/m*3 0.1 C 0 km/h
68 16-01-2010 13:32:02 0 C 3.54 g/m*3 0 C 0 km/h
69 16-01-2010 13:44:02 -0.2 C 3.44 g/m*3 -0.2 C 0 km/h
70 16-01-2010 13:56:01 -0.5 C 3.42 g/m*3 -0.5 C 0 km/h
71 16-01-2010 14:08:02 -0.4 C 3.49 g/m*3 -0.4 C 0 km/h
72 16-01-2010 14:20:01 -0.5 C 3.46 g/m*3 -0.5 C 0 km/h
73 16-01-2010 14:32:02 -0.4 C 3.53 g/m*3 -0.4 C 0 km/h
74 16-01-2010 14:44:02 -0.3 C 3.56 g/m*3 -0.3 C 0 km/h
75 16-01-2010 14:56:01 -0.2 C 3.58 g/m*3 -0.2 C 0 km/h
Sensor: Nr:Datum:Temp:Abs-Feuchte:Windchill:Wind:
Aussen-T/F 76 16-01-2010 15:08:02 -0.2 C 3.58 g/m*3 -0.2 C 0 km/h
77 16-01-2010 15:20:02 -0.2 C 3.58 g/m*3 -0.2 C 0 km/h
78 16-01-2010 15:32:01 -0.2 C 3.58 g/m*3 -0.2 C 0 km/h
79 16-01-2010 15:44:01 0 C 3.63 g/m*3 0 C 0 km/h
80 16-01-2010 15:56:01 0 C 3.63 g/m*3 0 C 0 km/h
81 16-01-2010 16:08:02 -0.2 C 3.63 g/m*3 -0.2 C 0 km/h
82 16-01-2010 16:20:02 -0.2 C 3.63 g/m*3 -0.2 C 0 km/h
83 16-01-2010 16:32:01 -0.2 C 3.63 g/m*3 -0.2 C 0 km/h
84 16-01-2010 16:44:01 -0.2 C 3.68 g/m*3 -0.2 C 0 km/h
85 16-01-2010 16:56:02 -0.2 C 3.68 g/m*3 -0.2 C 0 km/h
86 16-01-2010 17:08:01 -0.2 C 3.68 g/m*3 -0.2 C 0 km/h
87 16-01-2010 17:20:02 -0.1 C 3.71 g/m*3 -0.1 C 0 km/h
88 16-01-2010 17:32:01 -0.1 C 3.71 g/m*3 -0.1 C 0 km/h
89 16-01-2010 17:44:01 -0.1 C 3.71 g/m*3 -0.1 C 0 km/h
90 16-01-2010 17:56:02 0 C 3.73 g/m*3 0 C 0 km/h
91 16-01-2010 18:08:01 0 C 3.73 g/m*3 0 C 0 km/h
92 16-01-2010 18:20:02 0 C 3.73 g/m*3 0 C 0 km/h
93 16-01-2010 18:32:01 0 C 3.73 g/m*3 0 C 0 km/h
94 16-01-2010 18:44:01 0.1 C 3.71 g/m*3 0.1 C 0 km/h
95 16-01-2010 18:56:02 0.1 C 3.76 g/m*3 0.1 C 0 km/h
96 16-01-2010 19:08:02 0.2 C 3.73 g/m*3 0.2 C 0 km/h
97 16-01-2010 19:20:02 0.2 C 3.73 g/m*3 0.2 C 0 km/h
98 16-01-2010 19:32:02 0.2 C 3.73 g/m*3 0.2 C 0 km/h
99 16-01-2010 19:44:02 0.2 C 3.73 g/m*3 0.2 C 0 km/h
100 16-01-2010 19:56:02 0.2 C 3.78 g/m*3 0.2 C 0 km/h
Sensor: Nr:Datum:Temp:Abs-Feuchte:Windchill:Wind:
Aussen-T/F 101 16-01-2010 20:08:01 0.2 C 3.78 g/m*3 0.2 C 0 km/h
102 16-01-2010 20:20:02 0.1 C 3.71 g/m*3 0.1 C 0 km/h
103 16-01-2010 20:32:02 0.1 C 3.71 g/m*3 0.1 C 0 km/h
104 16-01-2010 20:44:02 0.1 C 3.71 g/m*3 0.1 C 0 km/h
105 16-01-2010 20:56:02 0.1 C 3.76 g/m*3 0.1 C 0 km/h
106 16-01-2010 21:08:03 0.1 C 3.71 g/m*3 0.1 C 0 km/h
107 16-01-2010 21:20:02 0 C 3.78 g/m*3 0 C 0 km/h
108 16-01-2010 21:32:02 -0.1 C 3.85 g/m*3 -0.1 C 0 km/h
109 16-01-2010 21:44:02 -0.3 C 3.94 g/m*3 -0.3 C 0 km/h
110 16-01-2010 21:56:01 -0.3 C 3.99 g/m*3 -0.3 C 0 km/h
111 16-01-2010 22:08:02 -0.3 C 3.99 g/m*3 -0.3 C 0 km/h
112 16-01-2010 22:20:01 -0.2 C 4.01 g/m*3 -0.2 C 0 km/h
113 16-01-2010 22:32:33 -0.2 C 4.01 g/m*3 -0.2 C 0 km/h
114 16-01-2010 22:44:33 -0.1 C 4.04 g/m*3 -0.1 C 0 km/h
115 16-01-2010 22:56:33 -0.1 C 4.09 g/m*3 -0.1 C 0 km/h
116 16-01-2010 23:08:34 -0.1 C 4.09 g/m*3 -0.1 C 0 km/h
117 16-01-2010 23:20:34 -0.1 C 4.09 g/m*3 -0.1 C 0 km/h
118 16-01-2010 23:32:34 -0.1 C 4.09 g/m*3 -0.1 C 0 km/h
119 16-01-2010 23:44:34 0 C 4.12 g/m*3 0 C 0 km/h
120 16-01-2010 23:56:34 0 C 4.17 g/m*3 0 C 0 km/h
121 17-01-2010 00:08:34 0 C 4.17 g/m*3 0 C 0 km/h
122 17-01-2010 00:20:34 0 C 4.17 g/m*3 0 C 0 km/h
123 17-01-2010 00:32:34 0.2 C 4.27 g/m*3 0.2 C 0 km/h
124 17-01-2010 00:44:34 0.2 C 4.32 g/m*3 0.2 C 0 km/h
125 17-01-2010 00:56:34 0.2 C 4.32 g/m*3 0.2 C 0 km/h
Sensor: Nr:Datum:Temp:Abs-Feuchte:Windchill:Wind:
Aussen-T/F 126 17-01-2010 01:08:34 0.3 C 4.4 g/m*3 0.3 C 0 km/h
127 17-01-2010 01:20:34 0.3 C 4.4 g/m*3 0.3 C 0 km/h
128 17-01-2010 01:32:34 0.3 C 4.45 g/m*3 0.3 C 0 km/h
129 17-01-2010 01:44:34 0.4 C 4.48 g/m*3 0.4 C 0 km/h
130 17-01-2010 01:56:34 0.4 C 4.53 g/m*3 0.4 C 0 km/h
131 17-01-2010 02:08:34 0.4 C 4.53 g/m*3 0.4 C 0 km/h
132 17-01-2010 02:20:34 0.5 C 4.56 g/m*3 0.5 C 0 km/h
133 17-01-2010 02:32:34 0.5 C 4.56 g/m*3 0.5 C 0 km/h
134 17-01-2010 02:44:34 0.6 C 4.65 g/m*3 0.6 C 0 km/h
135 17-01-2010 02:56:34 0.6 C 4.65 g/m*3 0.6 C 0 km/h
136 17-01-2010 03:08:34 0.6 C 4.65 g/m*3 0.6 C 0 km/h
137 17-01-2010 03:20:35 0.5 C 4.61 g/m*3 0.5 C 0 km/h
138 17-01-2010 03:32:35 0.6 C 4.7 g/m*3 0.6 C 0 km/h
139 17-01-2010 03:44:35 0.7 C 4.73 g/m*3 0.7 C 0 km/h
140 17-01-2010 03:56:35 0.7 C 4.73 g/m*3 0.7 C 0 km/h
141 17-01-2010 04:08:35 0.9 C 4.79 g/m*3 0.9 C 0 km/h
142 17-01-2010 04:20:35 0.9 C 4.85 g/m*3 0.9 C 0 km/h
143 17-01-2010 04:32:35 0.9 C 4.85 g/m*3 0.9 C 0 km/h
144 17-01-2010 04:44:35 1 C 4.83 g/m*3 1 C 0 km/h
145 17-01-2010 04:56:35 1.1 C 4.91 g/m*3 1.1 C 0 km/h
146 17-01-2010 05:08:35 1.2 C 4.95 g/m*3 1.2 C 0 km/h
147 17-01-2010 05:20:35 1.2 C 4.95 g/m*3 1.2 C 0 km/h
148 17-01-2010 05:32:35 1.1 C 4.91 g/m*3 1.1 C 0 km/h
149 17-01-2010 05:44:35 1.1 C 4.91 g/m*3 1.1 C 0 km/h
150 17-01-2010 05:56:35 1.1 C 4.91 g/m*3 1.1 C 0 km/h
Sensor: Nr:Datum:Temp:Abs-Feuchte:Windchill:Wind:
Aussen-T/F 151 17-01-2010 06:08:35 1.1 C 4.91 g/m*3 1.1 C 0 km/h
152 17-01-2010 06:20:35 1.1 C 4.91 g/m*3 1.1 C 0 km/h
153 17-01-2010 06:32:35 1.1 C 4.91 g/m*3 1.1 C 0 km/h
154 17-01-2010 06:44:35 1 C 4.93 g/m*3 1 C 0 km/h
155 17-01-2010 06:56:35 1.1 C 4.96 g/m*3 1.1 C 0 km/h
156 17-01-2010 07:08:35 1.1 C 4.96 g/m*3 1.1 C 0 km/h
157 17-01-2010 07:20:35 1.2 C 5 g/m*3 1.2 C 0 km/h
158 17-01-2010 07:32:36 1.2 C 5 g/m*3 1.2 C 0 km/h
159 17-01-2010 07:44:36 1.2 C 5 g/m*3 1.2 C 0 km/h
160 17-01-2010 07:56:01 1.2 C 5 g/m*3 1.2 C 0 km/h
161 17-01-2010 08:08:01 1.3 C 5.03 g/m*3 1.3 C 0 km/h
162 17-01-2010 08:20:01 1.2 C 5 g/m*3 1.2 C 0 km/h
163 17-01-2010 08:32:02 1.2 C 5 g/m*3 1.2 C 0 km/h
164 17-01-2010 08:44:02 1.4 C 5.07 g/m*3 1.4 C 0 km/h
165 17-01-2010 08:56:01 1.4 C 5.07 g/m*3 1.4 C 0 km/h
166 17-01-2010 09:08:02 1.4 C 5.07 g/m*3 1.4 C 0 km/h
167 17-01-2010 09:20:01 1.4 C 5.07 g/m*3 1.4 C 0 km/h
168 17-01-2010 09:32:01 1.5 C 5.1 g/m*3 1.5 C 0 km/h
169 17-01-2010 09:44:02 1.5 C 5.1 g/m*3 1.5 C 0 km/h
170 17-01-2010 09:56:01 1.6 C 5.14 g/m*3 1.6 C 0 km/h
171 17-01-2010 10:08:01 1.7 C 5.17 g/m*3 1.7 C 0 km/h
172 17-01-2010 10:20:01 1.8 C 5.21 g/m*3 1.8 C 0 km/h
173 17-01-2010 10:32:02 2 C 5.28 g/m*3 2 C 0 km/h
174 17-01-2010 10:44:02 2.1 C 5.31 g/m*3 2.1 C 0 km/h
175 17-01-2010 10:56:01 2.1 C 5.31 g/m*3 2.1 C 0 km/h
Sensor: Nr:Datum:Temp:Abs-Feuchte:Windchill:Wind:
Aussen-T/F 176 17-01-2010 11:08:02 2 C 5.28 g/m*3 2 C 0 km/h
177 17-01-2010 11:20:01 2.1 C 5.31 g/m*3 2.1 C 0 km/h
178 17-01-2010 11:32:01 2.3 C 5.39 g/m*3 2.3 C 0 km/h
179 17-01-2010 11:44:02 2.4 C 5.42 g/m*3 2.4 C 0 km/h
180 17-01-2010 11:56:01 2.4 C 5.42 g/m*3 2.4 C 0 km/h
181 17-01-2010 12:08:02 2.5 C 5.46 g/m*3 2.5 C 0 km/h
182 17-01-2010 12:20:01 3.2 C 5.72 g/m*3 3.2 C 0 km/h
183 17-01-2010 12:32:01 3.5 C 5.84 g/m*3 3.5 C 0 km/h
184 17-01-2010 12:44:01 3.5 C 5.84 g/m*3 3.5 C 0 km/h
185 17-01-2010 12:56:01 3.6 C 5.88 g/m*3 3.6 C 0 km/h
186 17-01-2010 13:08:01 3.5 C 5.84 g/m*3 3.5 C 0 km/h
187 17-01-2010 13:20:01 3.3 C 5.76 g/m*3 3.3 C 0 km/h
188 17-01-2010 13:32:01 3.2 C 5.72 g/m*3 3.2 C 0 km/h
189 17-01-2010 13:44:01 3.3 C 5.76 g/m*3 3.3 C 0 km/h
190 17-01-2010 13:56:01 3.3 C 5.76 g/m*3 3.3 C 0 km/h
191 17-01-2010 14:08:01 3.3 C 5.76 g/m*3 3.3 C 0 km/h
192 17-01-2010 14:20:02 3.6 C 5.88 g/m*3 3.6 C 0 km/h
193 17-01-2010 14:32:01 4.2 C 6.12 g/m*3 4.2 C 0 km/h
194 17-01-2010 14:44:01 4.2 C 6.12 g/m*3 4.2 C 0 km/h
195 17-01-2010 14:56:01 4.2 C 6.12 g/m*3 4.2 C 0 km/h
196 17-01-2010 15:08:01 4.3 C 6.16 g/m*3 4.3 C 0 km/h
197 17-01-2010 15:20:02 4.3 C 6.1 g/m*3 4.3 C 0 km/h
198 17-01-2010 15:32:01 4.8 C 6.04 g/m*3 4.8 C 0 km/h
199 17-01-2010 15:44:01 4.8 C 5.7 g/m*3 4.8 C 0 km/h
200 17-01-2010 15:56:02 4.7 C 5.46 g/m*3 4.7 C 0 km/h
Sensor: Nr:Datum:Temp:Abs-Feuchte:Windchill:Wind:
Aussen-T/F 201 17-01-2010 16:08:01 4.3 C 5.32 g/m*3 4.3 C 0 km/h
202 17-01-2010 16:20:02 4.2 C 5.35 g/m*3 4.2 C 0 km/h
203 17-01-2010 16:32:01 4 C 5.28 g/m*3 4 C 0 km/h
204 17-01-2010 16:44:01 3.4 C 5.13 g/m*3 3.4 C 0 km/h
205 17-01-2010 16:56:02 3 C 5.05 g/m*3 3 C 0 km/h
206 17-01-2010 17:08:01 2.8 C 5.1 g/m*3 2.8 C 0 km/h
207 17-01-2010 17:20:01 2.8 C 5.22 g/m*3 2.8 C 0 km/h
208 17-01-2010 17:32:02 3 C 5.23 g/m*3 3 C 0 km/h
209 17-01-2010 17:44:02 3.1 C 5.27 g/m*3 3.1 C 0 km/h
210 17-01-2010 17:56:02 3.1 C 5.21 g/m*3 3.1 C 0 km/h
211 17-01-2010 18:08:01 2.9 C 5.14 g/m*3 2.9 C 0 km/h
212 17-01-2010 18:20:01 2.7 C 5.07 g/m*3 2.7 C 0 km/h
213 17-01-2010 18:32:02 2.9 C 5.14 g/m*3 2.9 C 0 km/h
214 17-01-2010 18:44:02 3 C 5.05 g/m*3 3 C 0 km/h
215 17-01-2010 18:56:01 2.8 C 4.99 g/m*3 2.8 C 0 km/h
216 17-01-2010 19:08:02 2.6 C 4.98 g/m*3 2.6 C 0 km/h
217 17-01-2010 19:20:01 2.7 C 5.07 g/m*3 2.7 C 0 km/h
218 17-01-2010 19:32:02 2.6 C 4.98 g/m*3 2.6 C 0 km/h
219 17-01-2010 19:44:02 2.6 C 5.03 g/m*3 2.6 C 0 km/h
220 17-01-2010 19:56:01 2.5 C 5 g/m*3 2.5 C 0 km/h
221 17-01-2010 20:08:02 2.4 C 5.02 g/m*3 2.4 C 0 km/h
222 17-01-2010 20:20:02 2.2 C 4.96 g/m*3 2.2 C 0 km/h
223 17-01-2010 20:32:01 2.1 C 4.92 g/m*3 2.1 C 0 km/h
224 17-01-2010 20:44:01 2.1 C 4.98 g/m*3 2.1 C 0 km/h
225 17-01-2010 20:56:01 2.1 C 4.98 g/m*3 2.1 C 0 km/h
Sensor: Nr:Datum:Temp:Abs-Feuchte:Windchill:Wind:
Aussen-T/F 226 17-01-2010 21:08:02 2.2 C 5.07 g/m*3 2.2 C 0 km/h
227 17-01-2010 21:20:01 2.2 C 5.01 g/m*3 2.2 C 0 km/h
228 17-01-2010 21:32:01 2.3 C 5.05 g/m*3 2.3 C 0 km/h
229 17-01-2010 21:44:02 2.2 C 5.01 g/m*3 2.2 C 0 km/h
230 17-01-2010 21:56:01 2.2 C 5.01 g/m*3 2.2 C 0 km/h
231 17-01-2010 22:09:05 2.2 C 5.01 g/m*3 2.2 C 0 km/h
232 17-01-2010 22:21:05 2.4 C 5.08 g/m*3 2.4 C 0 km/h
233 17-01-2010 22:33:05 2.5 C 5.12 g/m*3 2.5 C 0 km/h
234 17-01-2010 22:45:05 2.8 C 5.22 g/m*3 2.8 C 0 km/h
235 17-01-2010 22:57:06 3.1 C 5.21 g/m*3 3.1 C 0 km/h
236 17-01-2010 23:09:06 3.2 C 5.24 g/m*3 3.2 C 0 km/h
237 17-01-2010 23:21:06 3.2 C 5.12 g/m*3 3.2 C 0 km/h
238 17-01-2010 23:33:06 3.2 C 5.12 g/m*3 3.2 C 0 km/h
239 17-01-2010 23:45:06 3.1 C 5.09 g/m*3 3.1 C 0 km/h
240 17-01-2010 23:57:06 3 C 5.05 g/m*3 3 C 0 km/h
241 18-01-2010 00:09:06 3.1 C 5.15 g/m*3 3.1 C 0 km/h
242 18-01-2010 00:21:06 3.1 C 5.15 g/m*3 3.1 C 0 km/h
243 18-01-2010 00:33:06 3.1 C 5.09 g/m*3 3.1 C 0 km/h
244 18-01-2010 00:45:06 3 C 5.11 g/m*3 3 C 0 km/h
245 18-01-2010 00:57:06 2.9 C 5.2 g/m*3 2.9 C 0 km/h
246 18-01-2010 01:09:06 2.7 C 5.19 g/m*3 2.7 C 0 km/h
247 18-01-2010 01:21:06 2.7 C 5.24 g/m*3 2.7 C 0 km/h
248 18-01-2010 01:33:06 2.7 C 5.3 g/m*3 2.7 C 0 km/h
249 18-01-2010 01:45:06 2.7 C 5.36 g/m*3 2.7 C 0 km/h
250 18-01-2010 01:57:06 2.7 C 5.36 g/m*3 2.7 C 0 km/h
Sensor: Nr:Datum:Temp:Abs-Feuchte:Windchill:Wind:
Aussen-T/F 251 18-01-2010 02:09:06 2.7 C 5.36 g/m*3 2.7 C 0 km/h
252 18-01-2010 02:21:06 2.6 C 5.32 g/m*3 2.6 C 0 km/h
253 18-01-2010 02:33:06 2.6 C 5.32 g/m*3 2.6 C 0 km/h
254 18-01-2010 02:45:06 2.5 C 5.35 g/m*3 2.5 C 0 km/h
255 18-01-2010 02:57:06 2.4 C 5.31 g/m*3 2.4 C 0 km/h
256 18-01-2010 03:09:07 2.4 C 5.31 g/m*3 2.4 C 0 km/h
257 18-01-2010 03:21:07 2.5 C 5.35 g/m*3 2.5 C 0 km/h
258 18-01-2010 03:33:07 2.6 C 5.38 g/m*3 2.6 C 0 km/h
259 18-01-2010 03:45:07 2.6 C 5.38 g/m*3 2.6 C 0 km/h
260 18-01-2010 03:57:07 2.8 C 5.46 g/m*3 2.8 C 0 km/h
261 18-01-2010 04:09:07 2.8 C 5.46 g/m*3 2.8 C 0 km/h
262 18-01-2010 04:21:07 2.8 C 5.46 g/m*3 2.8 C 0 km/h
263 18-01-2010 04:33:07 2.8 C 5.4 g/m*3 2.8 C 0 km/h
264 18-01-2010 04:45:07 2.9 C 5.43 g/m*3 2.9 C 0 km/h
265 18-01-2010 04:57:07 2.8 C 5.34 g/m*3 2.8 C 0 km/h
266 18-01-2010 05:09:07 3 C 5.35 g/m*3 3 C 0 km/h
267 18-01-2010 05:21:07 3 C 5.29 g/m*3 3 C 0 km/h
268 18-01-2010 05:33:07 3.1 C 5.33 g/m*3 3.1 C 0 km/h
269 18-01-2010 05:45:07 3.1 C 5.27 g/m*3 3.1 C 0 km/h
270 18-01-2010 05:57:07 3.1 C 5.21 g/m*3 3.1 C 0 km/h
271 18-01-2010 06:09:07 3.2 C 5.24 g/m*3 3.2 C 0 km/h
272 18-01-2010 06:21:07 3.1 C 5.21 g/m*3 3.1 C 0 km/h
273 18-01-2010 06:33:07 3.2 C 5.24 g/m*3 3.2 C 0 km/h
274 18-01-2010 06:45:07 3.1 C 5.21 g/m*3 3.1 C 0 km/h
275 18-01-2010 06:57:07 3 C 5.17 g/m*3 3 C 0 km/h
Sensor: Nr:Datum:Temp:Abs-Feuchte:Windchill:Wind:
Aussen-T/F 276 18-01-2010 07:09:07 3 C 5.17 g/m*3 3 C 0 km/h
277 18-01-2010 07:21:05 2.8 C 5.16 g/m*3 2.8 C 0 km/h
278 18-01-2010 07:33:05 3 C 5.23 g/m*3 3 C 0 km/h
279 18-01-2010 07:45:02 3 C 5.23 g/m*3 3 C 0 km/h
280 18-01-2010 07:57:02 3 C 5.23 g/m*3 3 C 0 km/h
281 18-01-2010 08:09:02 3.1 C 5.27 g/m*3 3.1 C 0 km/h
282 18-01-2010 08:21:02 3 C 5.17 g/m*3 3 C 0 km/h
283 18-01-2010 08:33:02 3 C 5.17 g/m*3 3 C 0 km/h
284 18-01-2010 08:45:02 3.1 C 5.21 g/m*3 3.1 C 0 km/h
285 18-01-2010 08:57:02 3.2 C 5.24 g/m*3 3.2 C 0 km/h
286 18-01-2010 09:09:02 3.2 C 5.18 g/m*3 3.2 C 0 km/h
287 18-01-2010 09:21:01 3.2 C 5.18 g/m*3 3.2 C 0 km/h
288 18-01-2010 09:33:02 3.4 C 5.25 g/m*3 3.4 C 0 km/h
289 18-01-2010 09:45:02 3.5 C 5.29 g/m*3 3.5 C 0 km/h
290 18-01-2010 09:57:02 3.7 C 5.3 g/m*3 3.7 C 0 km/h
291 18-01-2010 10:09:02 4 C 5.34 g/m*3 4 C 0 km/h
292 18-01-2010 10:21:02 4.1 C 5.31 g/m*3 4.1 C 0 km/h
293 18-01-2010 10:33:02 4.2 C 5.28 g/m*3 4.2 C 0 km/h
294 18-01-2010 10:45:02 4.2 C 5.22 g/m*3 4.2 C 0 km/h
295 18-01-2010 10:57:02 4.1 C 5.18 g/m*3 4.1 C 0 km/h
296 18-01-2010 11:09:02 4 C 5.15 g/m*3 4 C 0 km/h
297 18-01-2010 11:21:02 3.9 C 5.24 g/m*3 3.9 C 0 km/h
298 18-01-2010 11:33:02 3.9 C 5.24 g/m*3 3.9 C 0 km/h
299 18-01-2010 11:45:01 4 C 5.21 g/m*3 4 C 0 km/h
300 18-01-2010 11:57:01 4 C 5.21 g/m*3 4 C 0 km/h
Sensor: Nr:Datum:Temp:Abs-Feuchte:Windchill:Wind:
Aussen-T/F 301 18-01-2010 12:09:01 4.3 C 5.25 g/m*3 4.3 C 0 km/h
302 18-01-2010 12:21:02 4.4 C 5.16 g/m*3 4.4 C 0 km/h
303 18-01-2010 12:33:01 4.6 C 5.23 g/m*3 4.6 C 0 km/h
304 18-01-2010 12:45:02 4.6 C 5.16 g/m*3 4.6 C 0 km/h
305 18-01-2010 12:57:02 4.6 C 5.16 g/m*3 4.6 C 0 km/h
306 18-01-2010 13:09:01 4.5 C 5.06 g/m*3 4.5 C 0 km/h
307 18-01-2010 13:21:02 4.6 C 5.1 g/m*3 4.6 C 0 km/h
308 18-01-2010 13:33:01 4.6 C 4.96 g/m*3 4.6 C 0 km/h
309 18-01-2010 13:45:02 4.9 C 5 g/m*3 4.9 C 0 km/h
310 18-01-2010 13:57:02 5.2 C 4.96 g/m*3 5.2 C 0 km/h
311 18-01-2010 14:09:02 5 C 4.82 g/m*3 5 C 0 km/h
312 18-01-2010 14:21:02 5 C 4.82 g/m*3 5 C 0 km/h
313 18-01-2010 14:33:02 5 C 4.76 g/m*3 5 C 0 km/h
314 18-01-2010 14:45:02 4.7 C 4.8 g/m*3 4.7 C 0 km/h
315 18-01-2010 14:57:02 4.6 C 4.76 g/m*3 4.6 C 0 km/h
316 18-01-2010 15:09:01 4.5 C 4.8 g/m*3 4.5 C 0 km/h
317 18-01-2010 15:21:02 4.6 C 4.83 g/m*3 4.6 C 0 km/h
318 18-01-2010 15:33:02 4.8 C 4.83 g/m*3 4.8 C 0 km/h
319 18-01-2010 15:45:02 4.7 C 4.8 g/m*3 4.7 C 0 km/h
320 18-01-2010 15:57:03 4.6 C 4.83 g/m*3 4.6 C 0 km/h
321 18-01-2010 16:09:01 4.3 C 4.8 g/m*3 4.3 C 0 km/h
322 18-01-2010 16:21:01 4.2 C 4.77 g/m*3 4.2 C 0 km/h
323 18-01-2010 16:33:02 4.1 C 4.8 g/m*3 4.1 C 0 km/h
324 18-01-2010 16:45:02 4 C 4.77 g/m*3 4 C 0 km/h
325 18-01-2010 16:57:02 3.7 C 4.74 g/m*3 3.7 C 0 km/h
Sensor: Nr:Datum:Temp:Abs-Feuchte:Windchill:Wind:
Aussen-T/F 326 18-01-2010 17:09:02 3.5 C 4.73 g/m*3 3.5 C 0 km/h
327 18-01-2010 17:21:02 3.5 C 4.8 g/m*3 3.5 C 0 km/h
328 18-01-2010 17:33:02 3.4 C 4.76 g/m*3 3.4 C 0 km/h
329 18-01-2010 17:45:02 3.4 C 4.76 g/m*3 3.4 C 0 km/h
330 18-01-2010 17:57:02 3.4 C 4.83 g/m*3 3.4 C 0 km/h
331 18-01-2010 18:09:03 3.3 C 4.79 g/m*3 3.3 C 0 km/h
332 18-01-2010 18:21:02 3.3 C 4.85 g/m*3 3.3 C 0 km/h
333 18-01-2010 18:33:02 3.3 C 4.85 g/m*3 3.3 C 0 km/h
334 18-01-2010 18:45:01 3.1 C 4.79 g/m*3 3.1 C 0 km/h
335 18-01-2010 18:57:01 3.1 C 4.85 g/m*3 3.1 C 0 km/h
336 18-01-2010 19:09:02 3 C 4.82 g/m*3 3 C 0 km/h
337 18-01-2010 19:21:01 3.1 C 4.85 g/m*3 3.1 C 0 km/h
338 18-01-2010 19:33:02 3 C 4.82 g/m*3 3 C 0 km/h
339 18-01-2010 19:45:01 3 C 4.82 g/m*3 3 C 0 km/h
340 18-01-2010 19:57:01 3 C 4.82 g/m*3 3 C 0 km/h
341 18-01-2010 20:09:02 2.9 C 4.84 g/m*3 2.9 C 0 km/h
342 18-01-2010 20:21:01 2.8 C 4.87 g/m*3 2.8 C 0 km/h
343 18-01-2010 20:33:02 2.9 C 4.9 g/m*3 2.9 C 0 km/h
344 18-01-2010 20:45:01 3 C 4.88 g/m*3 3 C 0 km/h
345 18-01-2010 20:57:01 3 C 4.82 g/m*3 3 C 0 km/h
346 18-01-2010 21:09:02 3 C 4.82 g/m*3 3 C 0 km/h
347 18-01-2010 21:21:01 2.9 C 4.84 g/m*3 2.9 C 0 km/h
348 18-01-2010 21:33:02 2.9 C 4.84 g/m*3 2.9 C 0 km/h
349 18-01-2010 21:46:02 2.9 C 4.84 g/m*3 2.9 C 0 km/h
350 18-01-2010 21:58:02 2.8 C 4.81 g/m*3 2.8 C 0 km/h
Sensor: Nr:Datum:Temp:Abs-Feuchte:Windchill:Wind:
Aussen-T/F 351 18-01-2010 22:10:02 2.7 C 4.84 g/m*3 2.7 C 0 km/h
352 18-01-2010 22:22:02 2.7 C 4.84 g/m*3 2.7 C 0 km/h
353 18-01-2010 22:34:02 2.6 C 4.8 g/m*3 2.6 C 0 km/h
354 18-01-2010 22:46:02 2.7 C 4.84 g/m*3 2.7 C 0 km/h
355 18-01-2010 22:58:02 2.7 C 4.84 g/m*3 2.7 C 0 km/h
356 18-01-2010 23:10:02 2.8 C 4.81 g/m*3 2.8 C 0 km/h
357 18-01-2010 23:22:02 2.8 C 4.81 g/m*3 2.8 C 0 km/h
358 18-01-2010 23:34:03 2.8 C 4.81 g/m*3 2.8 C 0 km/h
359 18-01-2010 23:46:03 2.8 C 4.75 g/m*3 2.8 C 0 km/h
360 18-01-2010 23:58:03 2.8 C 4.75 g/m*3 2.8 C 0 km/h
361 19-01-2010 00:10:03 2.7 C 4.72 g/m*3 2.7 C 0 km/h
362 19-01-2010 00:22:03 2.7 C 4.78 g/m*3 2.7 C 0 km/h
363 19-01-2010 00:34:03 2.5 C 4.77 g/m*3 2.5 C 0 km/h
364 19-01-2010 00:46:03 2.4 C 4.85 g/m*3 2.4 C 0 km/h
365 19-01-2010 00:58:03 2.3 C 4.88 g/m*3 2.3 C 0 km/h
366 19-01-2010 01:10:03 2.2 C 4.96 g/m*3 2.2 C 0 km/h
367 19-01-2010 01:22:03 2.2 C 5.01 g/m*3 2.2 C 0 km/h
368 19-01-2010 01:34:03 2.2 C 5.07 g/m*3 2.2 C 0 km/h
369 19-01-2010 01:46:03 2.2 C 5.07 g/m*3 2.2 C 0 km/h
370 19-01-2010 01:58:03 2.2 C 5.07 g/m*3 2.2 C 0 km/h
371 19-01-2010 02:10:03 2.2 C 5.07 g/m*3 2.2 C 0 km/h
372 19-01-2010 02:22:03 2.2 C 5.07 g/m*3 2.2 C 0 km/h
373 19-01-2010 02:34:03 2.1 C 4.98 g/m*3 2.1 C 0 km/h
374 19-01-2010 02:46:03 1.7 C 4.85 g/m*3 1.7 C 0 km/h
375 19-01-2010 02:58:03 1.5 C 4.83 g/m*3 1.5 C 0 km/h
Sensor: Nr:Datum:Temp:Abs-Feuchte:Windchill:Wind:
Aussen-T/F 376 19-01-2010 03:10:03 1.6 C 4.87 g/m*3 1.6 C 0 km/h
377 19-01-2010 03:22:03 1.4 C 4.85 g/m*3 1.4 C 0 km/h
378 19-01-2010 03:34:03 1.3 C 4.82 g/m*3 1.3 C 0 km/h
379 19-01-2010 03:46:04 1.4 C 4.85 g/m*3 1.4 C 0 km/h
380 19-01-2010 03:58:04 1.3 C 4.82 g/m*3 1.3 C 0 km/h
381 19-01-2010 04:10:04 1.3 C 4.82 g/m*3 1.3 C 0 km/h
382 19-01-2010 04:22:04 1.4 C 4.91 g/m*3 1.4 C 0 km/h
383 19-01-2010 04:34:04 1.5 C 4.94 g/m*3 1.5 C 0 km/h
384 19-01-2010 04:46:04 1.6 C 4.97 g/m*3 1.6 C 0 km/h
385 19-01-2010 04:58:04 1.7 C 5.01 g/m*3 1.7 C 0 km/h
386 19-01-2010 05:10:04 1.8 C 5.04 g/m*3 1.8 C 0 km/h
387 19-01-2010 05:22:04 1.8 C 5.04 g/m*3 1.8 C 0 km/h
388 19-01-2010 05:34:04 1.6 C 4.92 g/m*3 1.6 C 0 km/h
389 19-01-2010 05:46:04 1.5 C 4.89 g/m*3 1.5 C 0 km/h
390 19-01-2010 05:58:04 1.3 C 4.82 g/m*3 1.3 C 0 km/h
391 19-01-2010 06:10:04 1.3 C 4.82 g/m*3 1.3 C 0 km/h
392 19-01-2010 06:22:04 1.4 C 4.91 g/m*3 1.4 C 0 km/h
393 19-01-2010 06:34:04 1.6 C 4.97 g/m*3 1.6 C 0 km/h
394 19-01-2010 06:46:04 1.6 C 4.97 g/m*3 1.6 C 0 km/h
395 19-01-2010 06:58:04 1.6 C 4.97 g/m*3 1.6 C 0 km/h
396 19-01-2010 07:10:02 1.7 C 5.06 g/m*3 1.7 C 0 km/h
397 19-01-2010 07:22:03 1.7 C 5.06 g/m*3 1.7 C 0 km/h
398 19-01-2010 07:34:03 1.7 C 5.06 g/m*3 1.7 C 0 km/h
399 19-01-2010 07:46:02 1.7 C 5.06 g/m*3 1.7 C 0 km/h
400 19-01-2010 07:58:02 1.8 C 5.1 g/m*3 1.8 C 0 km/h
Sensor: Nr:Datum:Temp:Abs-Feuchte:Windchill:Wind:
Aussen-T/F 401 19-01-2010 08:10:02 1.8 C 5.1 g/m*3 1.8 C 0 km/h
402 19-01-2010 08:22:02 1.8 C 5.1 g/m*3 1.8 C 0 km/h
403 19-01-2010 08:34:02 1.8 C 5.1 g/m*3 1.8 C 0 km/h
404 19-01-2010 08:46:01 1.8 C 5.1 g/m*3 1.8 C 0 km/h
405 19-01-2010 08:58:01 2.3 C 5.22 g/m*3 2.3 C 0 km/h
406 19-01-2010 09:10:02 1.9 C 5.08 g/m*3 1.9 C 0 km/h
407 19-01-2010 09:22:01 1.9 C 5.08 g/m*3 1.9 C 0 km/h
408 19-01-2010 09:34:01 2 C 5.06 g/m*3 2 C 0 km/h
409 19-01-2010 09:46:01 2.1 C 5.09 g/m*3 2.1 C 0 km/h
410 19-01-2010 09:58:01 2.2 C 5.13 g/m*3 2.2 C 0 km/h
411 19-01-2010 10:10:02 2.2 C 5.07 g/m*3 2.2 C 0 km/h
412 19-01-2010 10:22:01 2.3 C 5.1 g/m*3 2.3 C 0 km/h
413 19-01-2010 10:34:02 2.3 C 5.1 g/m*3 2.3 C 0 km/h
414 19-01-2010 10:46:01 2.4 C 5.14 g/m*3 2.4 C 0 km/h
415 19-01-2010 10:58:01 2.5 C 5.17 g/m*3 2.5 C 0 km/h
416 19-01-2010 11:10:02 2.7 C 5.24 g/m*3 2.7 C 0 km/h
417 19-01-2010 11:22:02 2.8 C 5.22 g/m*3 2.8 C 0 km/h
418 19-01-2010 11:34:01 2.8 C 5.16 g/m*3 2.8 C 0 km/h
419 19-01-2010 11:46:02 2.7 C 5.13 g/m*3 2.7 C 0 km/h
420 19-01-2010 11:58:02 2.8 C 5.16 g/m*3 2.8 C 0 km/h
421 19-01-2010 12:10:01 2.9 C 5.2 g/m*3 2.9 C 0 km/h
422 19-01-2010 12:22:02 3 C 5.17 g/m*3 3 C 0 km/h
423 19-01-2010 12:34:01 3.1 C 5.21 g/m*3 3.1 C 0 km/h
424 19-01-2010 12:46:03 3.2 C 5.24 g/m*3 3.2 C 0 km/h
425 19-01-2010 12:58:03 3.2 C 5.24 g/m*3 3.2 C 0 km/h
Sensor: Nr:Datum:Temp:Abs-Feuchte:Windchill:Wind:
Aussen-T/F 426 19-01-2010 13:10:02 3.2 C 5.24 g/m*3 3.2 C 0 km/h
427 19-01-2010 13:22:02 3.1 C 5.21 g/m*3 3.1 C 0 km/h
428 19-01-2010 13:34:02 2.9 C 5.2 g/m*3 2.9 C 0 km/h
429 19-01-2010 13:46:02 2.9 C 5.2 g/m*3 2.9 C 0 km/h
430 19-01-2010 13:58:02 2.8 C 5.22 g/m*3 2.8 C 0 km/h
431 19-01-2010 14:10:02 2.9 C 5.26 g/m*3 2.9 C 0 km/h
432 19-01-2010 14:22:02 2.9 C 5.32 g/m*3 2.9 C 0 km/h
433 19-01-2010 14:34:02 2.9 C 5.32 g/m*3 2.9 C 0 km/h
434 19-01-2010 14:46:02 3 C 5.35 g/m*3 3 C 0 km/h
435 19-01-2010 14:58:03 3.2 C 5.42 g/m*3 3.2 C 0 km/h
436 19-01-2010 15:10:01 3.4 C 5.5 g/m*3 3.4 C 0 km/h
437 19-01-2010 15:22:01 3.4 C 5.5 g/m*3 3.4 C 0 km/h
438 19-01-2010 15:34:02 3.3 C 5.4 g/m*3 3.3 C 0 km/h
439 19-01-2010 15:46:02 3.3 C 5.4 g/m*3 3.3 C 0 km/h
440 19-01-2010 15:58:02 3.3 C 5.4 g/m*3 3.3 C 0 km/h
441 19-01-2010 16:10:02 3.2 C 5.36 g/m*3 3.2 C 0 km/h
442 19-01-2010 16:22:02 3.2 C 5.36 g/m*3 3.2 C 0 km/h
443 19-01-2010 16:34:02 3.1 C 5.33 g/m*3 3.1 C 0 km/h
444 19-01-2010 16:46:02 3.1 C 5.33 g/m*3 3.1 C 0 km/h
445 19-01-2010 16:58:02 2.9 C 5.32 g/m*3 2.9 C 0 km/h
446 19-01-2010 17:10:01 2.8 C 5.28 g/m*3 2.8 C 0 km/h
447 19-01-2010 17:22:02 2.7 C 5.24 g/m*3 2.7 C 0 km/h
448 19-01-2010 17:34:01 2.7 C 5.24 g/m*3 2.7 C 0 km/h
449 19-01-2010 17:46:02 2.7 C 5.24 g/m*3 2.7 C 0 km/h
450 19-01-2010 17:58:02 2.7 C 5.24 g/m*3 2.7 C 0 km/h
Sensor: Nr:Datum:Temp:Abs-Feuchte:Windchill:Wind:
Aussen-T/F 451 19-01-2010 18:10:02 2.6 C 5.21 g/m*3 2.6 C 0 km/h
452 19-01-2010 18:22:02 2.5 C 5.17 g/m*3 2.5 C 0 km/h
453 19-01-2010 18:34:03 2.4 C 5.14 g/m*3 2.4 C 0 km/h
454 19-01-2010 18:46:02 2.3 C 5.16 g/m*3 2.3 C 0 km/h
455 19-01-2010 18:58:02 2.2 C 5.13 g/m*3 2.2 C 0 km/h
456 19-01-2010 19:10:01 2 C 5.06 g/m*3 2 C 0 km/h
457 19-01-2010 19:22:02 2 C 5.06 g/m*3 2 C 0 km/h
458 19-01-2010 19:34:02 2 C 5.06 g/m*3 2 C 0 km/h
459 19-01-2010 19:46:02 2 C 5.06 g/m*3 2 C 0 km/h
460 19-01-2010 19:58:02 2 C 5.06 g/m*3 2 C 0 km/h
461 19-01-2010 20:10:02 2 C 5.06 g/m*3 2 C 0 km/h
462 19-01-2010 20:22:02 2 C 5.06 g/m*3 2 C 0 km/h
463 19-01-2010 20:34:02 2 C 5.11 g/m*3 2 C 0 km/h
464 19-01-2010 20:46:01 2 C 5.11 g/m*3 2 C 0 km/h
465 19-01-2010 20:58:01 2 C 5.11 g/m*3 2 C 0 km/h
466 19-01-2010 21:10:02 2.2 C 5.18 g/m*3 2.2 C 0 km/h
467 19-01-2010 21:22:01 2 C 5.11 g/m*3 2 C 0 km/h
468 19-01-2010 21:34:01 2 C 5.11 g/m*3 2 C 0 km/h
469 19-01-2010 21:46:01 2 C 5.11 g/m*3 2 C 0 km/h
470 19-01-2010 21:58:01 2 C 5.11 g/m*3 2 C 0 km/h
471 19-01-2010 22:11:02 2 C 5.11 g/m*3 2 C 0 km/h
472 19-01-2010 22:23:02 2 C 5.11 g/m*3 2 C 0 km/h
473 19-01-2010 22:35:02 1.9 C 5.08 g/m*3 1.9 C 0 km/h
474 19-01-2010 22:47:02 1.8 C 5.04 g/m*3 1.8 C 0 km/h
475 19-01-2010 22:59:02 1.8 C 5.04 g/m*3 1.8 C 0 km/h
Sensor: Nr:Datum:Temp:Abs-Feuchte:Windchill:Wind:
Aussen-T/F 476 19-01-2010 23:11:02 1.9 C 5.13 g/m*3 1.9 C 0 km/h
477 19-01-2010 23:23:02 1.9 C 5.13 g/m*3 1.9 C 0 km/h
478 19-01-2010 23:35:02 2 C 5.11 g/m*3 2 C 0 km/h
479 19-01-2010 23:47:03 2 C 5.11 g/m*3 2 C 0 km/h
480 19-01-2010 23:59:03 2 C 5.11 g/m*3 2 C 0 km/h
481 20-01-2010 00:11:03 2 C 5.11 g/m*3 2 C 0 km/h
482 20-01-2010 00:23:03 2 C 5.11 g/m*3 2 C 0 km/h
483 20-01-2010 00:35:03 2 C 5.11 g/m*3 2 C 0 km/h
484 20-01-2010 00:47:03 2 C 5.11 g/m*3 2 C 0 km/h
485 20-01-2010 00:59:03 2.1 C 5.15 g/m*3 2.1 C 0 km/h
486 20-01-2010 01:11:03 2.1 C 5.15 g/m*3 2.1 C 0 km/h
487 20-01-2010 01:23:03 2.1 C 5.15 g/m*3 2.1 C 0 km/h
488 20-01-2010 01:35:03 2.2 C 5.18 g/m*3 2.2 C 0 km/h
489 20-01-2010 01:47:03 2.2 C 5.18 g/m*3 2.2 C 0 km/h
490 20-01-2010 01:59:03 2.2 C 5.18 g/m*3 2.2 C 0 km/h
491 20-01-2010 02:11:03 2.2 C 5.18 g/m*3 2.2 C 0 km/h
492 20-01-2010 02:23:03 2 C 5.11 g/m*3 2 C 0 km/h
493 20-01-2010 02:35:03 2 C 5.11 g/m*3 2 C 0 km/h
494 20-01-2010 02:47:03 2.1 C 5.15 g/m*3 2.1 C 0 km/h
495 20-01-2010 02:59:03 2 C 5.11 g/m*3 2 C 0 km/h
496 20-01-2010 03:11:03 2 C 5.11 g/m*3 2 C 0 km/h
497 20-01-2010 03:23:03 2 C 5.11 g/m*3 2 C 0 km/h
498 20-01-2010 03:35:03 1.9 C 5.08 g/m*3 1.9 C 0 km/h
499 20-01-2010 03:47:04 1.9 C 5.08 g/m*3 1.9 C 0 km/h
500 20-01-2010 03:59:04 1.8 C 5.04 g/m*3 1.8 C 0 km/h
Sensor: Nr:Datum:Temp:Abs-Feuchte:Windchill:Wind:
Aussen-T/F 501 20-01-2010 04:11:04 1.8 C 5.04 g/m*3 1.8 C 0 km/h
502 20-01-2010 04:23:04 1.8 C 5.04 g/m*3 1.8 C 0 km/h
503 20-01-2010 04:35:04 1.8 C 5.04 g/m*3 1.8 C 0 km/h
504 20-01-2010 04:47:04 1.8 C 5.04 g/m*3 1.8 C 0 km/h
505 20-01-2010 04:59:04 1.8 C 5.04 g/m*3 1.8 C 0 km/h
506 20-01-2010 05:11:04 1.8 C 5.04 g/m*3 1.8 C 0 km/h
507 20-01-2010 05:23:04 1.8 C 5.04 g/m*3 1.8 C 0 km/h
508 20-01-2010 05:35:04 1.7 C 5.01 g/m*3 1.7 C 0 km/h
509 20-01-2010 05:47:04 1.7 C 5.01 g/m*3 1.7 C 0 km/h
510 20-01-2010 05:59:04 1.6 C 4.97 g/m*3 1.6 C 0 km/h
511 20-01-2010 06:11:04 1.3 C 4.82 g/m*3 1.3 C 0 km/h
512 20-01-2010 06:23:04 0.6 C 4.6 g/m*3 0.6 C 0 km/h
513 20-01-2010 06:35:04 0.4 C 4.53 g/m*3 0.4 C 0 km/h
514 20-01-2010 06:47:04 0.3 C 4.5 g/m*3 0.3 C 0 km/h
515 20-01-2010 06:59:04 0.4 C 4.58 g/m*3 0.4 C 0 km/h
516 20-01-2010 07:11:02 0.5 C 4.61 g/m*3 0.5 C 0 km/h
517 20-01-2010 07:23:02 0.2 C 4.52 g/m*3 0.2 C 0 km/h
518 20-01-2010 07:35:03 -0.2 C 4.4 g/m*3 -0.2 C 0 km/h
519 20-01-2010 07:47:02 -0.4 C 4.34 g/m*3 -0.4 C 0 km/h
520 20-01-2010 07:59:02 -0.4 C 4.34 g/m*3 -0.4 C 0 km/h
521 20-01-2010 08:11:02 -0.6 C 4.28 g/m*3 -0.6 C 0 km/h
522 20-01-2010 08:23:02 -0.7 C 4.25 g/m*3 -0.7 C 0 km/h
523 20-01-2010 08:35:02 -0.8 C 4.22 g/m*3 -0.8 C 0 km/h
524 20-01-2010 08:47:02 -0.9 C 4.19 g/m*3 -0.9 C 0 km/h
525 20-01-2010 08:59:02 -0.9 C 4.19 g/m*3 -0.9 C 0 km/h
Sensor: Nr:Datum:Temp:Abs-Feuchte:Windchill:Wind:
Aussen-T/F 526 20-01-2010 09:11:02 -0.9 C 4.23 g/m*3 -0.9 C 0 km/h
527 20-01-2010 09:23:02 -0.8 C 4.26 g/m*3 -0.8 C 0 km/h
528 20-01-2010 09:35:02 -0.8 C 4.26 g/m*3 -0.8 C 0 km/h
529 20-01-2010 09:47:02 -0.6 C 4.32 g/m*3 -0.6 C 0 km/h
530 20-01-2010 09:59:02 0 C 4.55 g/m*3 0 C 0 km/h
531 20-01-2010 10:11:02 0.5 C 4.71 g/m*3 0.5 C 0 km/h
532 20-01-2010 10:23:02 0.9 C 4.9 g/m*3 0.9 C 0 km/h
533 20-01-2010 10:35:02 1.3 C 5.03 g/m*3 1.3 C 0 km/h
534 20-01-2010 10:47:02 1.7 C 5.17 g/m*3 1.7 C 0 km/h
535 20-01-2010 10:59:02 2 C 5.28 g/m*3 2 C 0 km/h
536 20-01-2010 11:11:01 2.3 C 5.33 g/m*3 2.3 C 0 km/h
537 20-01-2010 11:23:01 2.5 C 5.4 g/m*3 2.5 C 0 km/h
538 20-01-2010 11:35:02 2.7 C 5.42 g/m*3 2.7 C 0 km/h
539 20-01-2010 11:47:02 3 C 5.41 g/m*3 3 C 0 km/h
540 20-01-2010 11:59:02 3.2 C 5.3 g/m*3 3.2 C 0 km/h
541 20-01-2010 12:11:02 3.1 C 4.91 g/m*3 3.1 C 0 km/h
542 20-01-2010 12:23:02 3.2 C 4.7 g/m*3 3.2 C 0 km/h
543 20-01-2010 12:35:02 3.3 C 4.67 g/m*3 3.3 C 0 km/h
544 20-01-2010 12:47:02 3.4 C 4.64 g/m*3 3.4 C 0 km/h
545 20-01-2010 12:59:02 3.5 C 4.61 g/m*3 3.5 C 0 km/h
546 20-01-2010 13:11:02 3.6 C 4.52 g/m*3 3.6 C 0 km/h
547 20-01-2010 13:23:02 3.8 C 4.52 g/m*3 3.8 C 0 km/h
548 20-01-2010 13:35:02 3.8 C 4.45 g/m*3 3.8 C 0 km/h
549 20-01-2010 13:47:02 3.8 C 4.45 g/m*3 3.8 C 0 km/h
550 20-01-2010 13:59:02 3.8 C 4.39 g/m*3 3.8 C 0 km/h
Sensor: Nr:Datum:Temp:Abs-Feuchte:Windchill:Wind:
Aussen-T/F 551 20-01-2010 14:11:02 4 C 4.39 g/m*3 4 C 0 km/h
552 20-01-2010 14:23:02 4.1 C 4.35 g/m*3 4.1 C 0 km/h
553 20-01-2010 14:35:02 4.1 C 4.35 g/m*3 4.1 C 0 km/h
554 20-01-2010 14:47:02 4.2 C 4.38 g/m*3 4.2 C 0 km/h
555 20-01-2010 14:59:02 3.9 C 4.36 g/m*3 3.9 C 0 km/h
556 20-01-2010 15:11:02 3.9 C 4.42 g/m*3 3.9 C 0 km/h
557 20-01-2010 15:23:03 3.8 C 4.45 g/m*3 3.8 C 0 km/h
558 20-01-2010 15:35:02 3.8 C 4.39 g/m*3 3.8 C 0 km/h
559 20-01-2010 15:47:02 3.7 C 4.49 g/m*3 3.7 C 0 km/h
560 20-01-2010 15:59:02 3.6 C 4.39 g/m*3 3.6 C 0 km/h
561 20-01-2010 16:11:02 3.6 C 4.39 g/m*3 3.6 C 0 km/h
562 20-01-2010 16:23:02 3.5 C 4.43 g/m*3 3.5 C 0 km/h
563 20-01-2010 16:35:02 3.4 C 4.4 g/m*3 3.4 C 0 km/h
564 20-01-2010 16:47:02 3.2 C 4.4 g/m*3 3.2 C 0 km/h
565 20-01-2010 16:59:02 3 C 4.4 g/m*3 3 C 0 km/h
566 20-01-2010 17:11:02 2.8 C 4.46 g/m*3 2.8 C 0 km/h
567 20-01-2010 17:23:02 2.8 C 4.52 g/m*3 2.8 C 0 km/h
568 20-01-2010 17:35:01 2.6 C 4.46 g/m*3 2.6 C 0 km/h
569 20-01-2010 17:47:02 2.4 C 4.45 g/m*3 2.4 C 0 km/h
570 20-01-2010 17:59:02 2.3 C 4.48 g/m*3 2.3 C 0 km/h
571 20-01-2010 18:11:01 2.2 C 4.45 g/m*3 2.2 C 0 km/h
572 20-01-2010 18:23:01 2.2 C 4.51 g/m*3 2.2 C 0 km/h
573 20-01-2010 18:35:01 2 C 4.45 g/m*3 2 C 0 km/h
574 20-01-2010 18:47:02 1.7 C 4.41 g/m*3 1.7 C 0 km/h
575 20-01-2010 18:59:02 1.7 C 4.46 g/m*3 1.7 C 0 km/h
Sensor: Nr:Datum:Temp:Abs-Feuchte:Windchill:Wind:
Aussen-T/F 576 20-01-2010 19:11:01 1.7 C 4.52 g/m*3 1.7 C 0 km/h
577 20-01-2010 19:23:02 1.8 C 4.55 g/m*3 1.8 C 0 km/h
578 20-01-2010 19:35:02 2 C 4.56 g/m*3 2 C 0 km/h
579 20-01-2010 19:47:02 2.2 C 4.62 g/m*3 2.2 C 0 km/h
580 20-01-2010 19:59:02 2.3 C 4.65 g/m*3 2.3 C 0 km/h
581 20-01-2010 20:11:01 2.4 C 4.62 g/m*3 2.4 C 0 km/h
582 20-01-2010 20:23:01 2.6 C 4.51 g/m*3 2.6 C 0 km/h
583 20-01-2010 20:35:01 2.6 C 4.46 g/m*3 2.6 C 0 km/h
584 20-01-2010 20:47:02 2.5 C 4.31 g/m*3 2.5 C 0 km/h
585 20-01-2010 20:59:02 2.1 C 4.2 g/m*3 2.1 C 0 km/h
586 20-01-2010 21:11:02 1.6 C 4.11 g/m*3 1.6 C 0 km/h
587 20-01-2010 21:23:02 1.4 C 4.16 g/m*3 1.4 C 0 km/h
588 20-01-2010 21:35:02 1.7 C 4.25 g/m*3 1.7 C 0 km/h
589 20-01-2010 21:47:01 1.7 C 4.25 g/m*3 1.7 C 0 km/h
590 20-01-2010 21:59:01 1.7 C 4.25 g/m*3 1.7 C 0 km/h
591 20-01-2010 22:11:02 1.8 C 4.28 g/m*3 1.8 C 0 km/h
592 20-01-2010 22:23:02 1.8 C 4.22 g/m*3 1.8 C 0 km/h
593 20-01-2010 22:35:01 1.9 C 4.19 g/m*3 1.9 C 0 km/h
594 20-01-2010 22:47:02 2 C 4.11 g/m*3 2 C 0 km/h
595 20-01-2010 22:59:02 1.9 C 4.14 g/m*3 1.9 C 0 km/h
596 20-01-2010 23:11:01 1.9 C 4.19 g/m*3 1.9 C 0 km/h
597 20-01-2010 23:23:02 1.9 C 4.19 g/m*3 1.9 C 0 km/h
598 20-01-2010 23:35:01 1.8 C 4.17 g/m*3 1.8 C 0 km/h
599 20-01-2010 23:47:02 1.8 C 4.11 g/m*3 1.8 C 0 km/h
600 20-01-2010 23:59:02 1.8 C 4.17 g/m*3 1.8 C 0 km/h
Sensor: Nr:Datum:Temp:Abs-Feuchte:Windchill:Wind:
Aussen-T/F 601 21-01-2010 00:11:02 1.8 C 4.11 g/m*3 1.8 C 0 km/h
602 21-01-2010 00:23:02 1.8 C 4.11 g/m*3 1.8 C 0 km/h
603 21-01-2010 00:35:03 1.9 C 4.03 g/m*3 1.9 C 0 km/h
604 21-01-2010 00:47:02 1.8 C 4 g/m*3 1.8 C 0 km/h
605 21-01-2010 00:59:02 1.8 C 3.95 g/m*3 1.8 C 0 km/h
606 21-01-2010 01:11:02 1.8 C 3.84 g/m*3 1.8 C 0 km/h
607 21-01-2010 01:23:02 1.7 C 3.81 g/m*3 1.7 C 0 km/h
608 21-01-2010 01:35:02 1.7 C 3.81 g/m*3 1.7 C 0 km/h
609 21-01-2010 01:47:02 1.8 C 3.84 g/m*3 1.8 C 0 km/h
610 21-01-2010 01:59:02 1.8 C 3.78 g/m*3 1.8 C 0 km/h
611 21-01-2010 02:11:03 1.8 C 3.84 g/m*3 1.8 C 0 km/h
612 21-01-2010 02:23:02 1.7 C 3.87 g/m*3 1.7 C 0 km/h
613 21-01-2010 02:35:02 1.7 C 3.92 g/m*3 1.7 C 0 km/h
614 21-01-2010 02:47:01 1.7 C 3.92 g/m*3 1.7 C 0 km/h
615 21-01-2010 02:59:01 1.7 C 3.92 g/m*3 1.7 C 0 km/h
616 21-01-2010 03:11:02 1.7 C 3.92 g/m*3 1.7 C 0 km/h
617 21-01-2010 03:23:02 1.7 C 3.97 g/m*3 1.7 C 0 km/h
618 21-01-2010 03:35:01 1.7 C 4.03 g/m*3 1.7 C 0 km/h
619 21-01-2010 03:47:01 1.7 C 4.03 g/m*3 1.7 C 0 km/h
620 21-01-2010 03:59:01 1.8 C 4 g/m*3 1.8 C 0 km/h
621 21-01-2010 04:11:02 1.7 C 3.97 g/m*3 1.7 C 0 km/h
622 21-01-2010 04:23:01 1.7 C 4.03 g/m*3 1.7 C 0 km/h
623 21-01-2010 04:35:02 1.8 C 4 g/m*3 1.8 C 0 km/h
624 21-01-2010 04:47:01 1.8 C 3.89 g/m*3 1.8 C 0 km/h
625 21-01-2010 04:59:01 1.8 C 3.89 g/m*3 1.8 C 0 km/h
Sensor: Nr:Datum:Temp:Abs-Feuchte:Windchill:Wind:
Aussen-T/F 626 21-01-2010 05:11:02 1.8 C 3.95 g/m*3 1.8 C 0 km/h
627 21-01-2010 05:23:01 1.7 C 3.97 g/m*3 1.7 C 0 km/h
628 21-01-2010 05:35:01 1.7 C 4.03 g/m*3 1.7 C 0 km/h
629 21-01-2010 05:47:01 1.7 C 4.03 g/m*3 1.7 C 0 km/h
630 21-01-2010 05:59:01 1.6 C 3.95 g/m*3 1.6 C 0 km/h
631 21-01-2010 06:11:01 1.6 C 4 g/m*3 1.6 C 0 km/h
632 21-01-2010 06:23:01 1.6 C 4.06 g/m*3 1.6 C 0 km/h
633 21-01-2010 06:35:01 1.5 C 4.03 g/m*3 1.5 C 0 km/h
634 21-01-2010 06:47:01 1.5 C 4.08 g/m*3 1.5 C 0 km/h
635 21-01-2010 06:59:01 1.4 C 4.11 g/m*3 1.4 C 0 km/h
636 21-01-2010 07:11:01 1.4 C 4.16 g/m*3 1.4 C 0 km/h
637 21-01-2010 07:23:02 1.4 C 4.21 g/m*3 1.4 C 0 km/h
638 21-01-2010 07:35:01 1.3 C 4.19 g/m*3 1.3 C 0 km/h
639 21-01-2010 07:47:02 1.4 C 4.21 g/m*3 1.4 C 0 km/h
640 21-01-2010 07:59:02 1.4 C 4.21 g/m*3 1.4 C 0 km/h
641 21-01-2010 08:11:01 1.3 C 4.24 g/m*3 1.3 C 0 km/h
642 21-01-2010 08:23:02 1.3 C 4.24 g/m*3 1.3 C 0 km/h
643 21-01-2010 08:35:01 1.4 C 4.27 g/m*3 1.4 C 0 km/h
644 21-01-2010 08:47:02 1.3 C 4.24 g/m*3 1.3 C 0 km/h
645 21-01-2010 08:59:02 1.5 C 4.3 g/m*3 1.5 C 0 km/h
646 21-01-2010 09:11:01 1.6 C 4.33 g/m*3 1.6 C 0 km/h
647 21-01-2010 09:23:01 1.8 C 4.33 g/m*3 1.8 C 0 km/h
648 21-01-2010 09:35:01 2 C 4.33 g/m*3 2 C 0 km/h
649 21-01-2010 09:47:01 2.1 C 4.25 g/m*3 2.1 C 0 km/h
650 21-01-2010 09:59:02 2.1 C 3.97 g/m*3 2.1 C 0 km/h
Sensor: Nr:Datum:Temp:Abs-Feuchte:Windchill:Wind:
Aussen-T/F 651 21-01-2010 10:11:01 2.3 C 3.97 g/m*3 2.3 C 0 km/h
652 21-01-2010 10:23:01 2.5 C 3.97 g/m*3 2.5 C 0 km/h
653 21-01-2010 10:35:02 2.6 C 3.88 g/m*3 2.6 C 0 km/h
654 21-01-2010 10:47:01 2.9 C 4.02 g/m*3 2.9 C 0 km/h
655 21-01-2010 10:59:01 3.1 C 3.95 g/m*3 3.1 C 0 km/h
656 21-01-2010 11:11:02 3.2 C 3.86 g/m*3 3.2 C 0 km/h
657 21-01-2010 11:23:01 3.2 C 3.8 g/m*3 3.2 C 0 km/h
658 21-01-2010 11:35:02 3 C 3.75 g/m*3 3 C 0 km/h
659 21-01-2010 11:47:01 3.3 C 3.88 g/m*3 3.3 C 0 km/h
660 21-01-2010 11:59:01 3.4 C 3.73 g/m*3 3.4 C 0 km/h
661 21-01-2010 12:11:02 3.4 C 3.79 g/m*3 3.4 C 0 km/h
662 21-01-2010 12:23:01 3.6 C 3.84 g/m*3 3.6 C 0 km/h
663 21-01-2010 12:35:01 3.5 C 3.75 g/m*3 3.5 C 0 km/h
664 21-01-2010 12:47:01 3.6 C 3.71 g/m*3 3.6 C 0 km/h
665 21-01-2010 12:59:01 3.7 C 3.74 g/m*3 3.7 C 0 km/h
666 21-01-2010 13:11:01 3.8 C 3.76 g/m*3 3.8 C 0 km/h
667 21-01-2010 13:23:01 3.7 C 3.74 g/m*3 3.7 C 0 km/h
668 21-01-2010 13:35:01 4 C 3.81 g/m*3 4 C 0 km/h
669 21-01-2010 13:47:01 3.8 C 3.7 g/m*3 3.8 C 0 km/h
670 21-01-2010 13:59:01 3.8 C 3.76 g/m*3 3.8 C 0 km/h
671 21-01-2010 14:11:01 3.8 C 3.76 g/m*3 3.8 C 0 km/h
672 21-01-2010 14:23:02 3.8 C 3.76 g/m*3 3.8 C 0 km/h
673 21-01-2010 14:35:01 3.7 C 3.74 g/m*3 3.7 C 0 km/h
674 21-01-2010 14:47:02 3.4 C 3.91 g/m*3 3.4 C 0 km/h
675 21-01-2010 14:59:02 3.3 C 4 g/m*3 3.3 C 0 km/h
Sensor: Nr:Datum:Temp:Abs-Feuchte:Windchill:Wind:
Aussen-T/F 676 21-01-2010 15:11:01 3.3 C 4.06 g/m*3 3.3 C 0 km/h
677 21-01-2010 15:23:02 3.4 C 4.09 g/m*3 3.4 C 0 km/h
678 21-01-2010 15:35:01 3.4 C 4.09 g/m*3 3.4 C 0 km/h
679 21-01-2010 15:47:02 3.4 C 4.09 g/m*3 3.4 C 0 km/h
680 21-01-2010 15:59:02 3.3 C 4.06 g/m*3 3.3 C 0 km/h
681 21-01-2010 16:11:01 3.2 C 4.04 g/m*3 3.2 C 0 km/h
682 21-01-2010 16:23:01 3.2 C 4.04 g/m*3 3.2 C 0 km/h
683 21-01-2010 16:35:01 3.2 C 4.04 g/m*3 3.2 C 0 km/h
684 21-01-2010 16:47:01 3.1 C 3.95 g/m*3 3.1 C 0 km/h
685 21-01-2010 16:59:02 3 C 3.98 g/m*3 3 C 0 km/h
686 21-01-2010 17:11:01 3 C 4.04 g/m*3 3 C 0 km/h
687 21-01-2010 17:23:01 2.9 C 4.02 g/m*3 2.9 C 0 km/h
688 21-01-2010 17:35:02 2.8 C 3.99 g/m*3 2.8 C 0 km/h
689 21-01-2010 17:47:01 2.9 C 4.07 g/m*3 2.9 C 0 km/h
690 21-01-2010 17:59:01 2.9 C 4.13 g/m*3 2.9 C 0 km/h
691 21-01-2010 18:11:02 2.8 C 4.11 g/m*3 2.8 C 0 km/h
692 21-01-2010 18:23:01 2.8 C 4.11 g/m*3 2.8 C 0 km/h
693 21-01-2010 18:35:01 2.8 C 4.05 g/m*3 2.8 C 0 km/h
694 21-01-2010 18:47:01 2.7 C 4.02 g/m*3 2.7 C 0 km/h
695 21-01-2010 18:59:01 2.7 C 4.02 g/m*3 2.7 C 0 km/h
696 21-01-2010 19:11:02 2.8 C 4.05 g/m*3 2.8 C 0 km/h
697 21-01-2010 19:23:01 2.7 C 4.08 g/m*3 2.7 C 0 km/h
698 21-01-2010 19:35:01 2.7 C 4.02 g/m*3 2.7 C 0 km/h
699 21-01-2010 19:47:01 2.7 C 4.08 g/m*3 2.7 C 0 km/h
700 21-01-2010 19:59:01 2.7 C 4.14 g/m*3 2.7 C 0 km/h
Sensor: Nr:Datum:Temp:Abs-Feuchte:Windchill:Wind:
Aussen-T/F 701 21-01-2010 20:11:01 2.6 C 4.05 g/m*3 2.6 C 0 km/h
702 21-01-2010 20:23:01 2.6 C 4.05 g/m*3 2.6 C 0 km/h
703 21-01-2010 20:35:01 2.6 C 4.05 g/m*3 2.6 C 0 km/h
704 21-01-2010 20:47:01 2.6 C 4.05 g/m*3 2.6 C 0 km/h
705 21-01-2010 20:59:01 2.7 C 4.08 g/m*3 2.7 C 0 km/h
706 21-01-2010 21:11:01 2.7 C 4.08 g/m*3 2.7 C 0 km/h
707 21-01-2010 21:23:02 2.6 C 3.99 g/m*3 2.6 C 0 km/h
708 21-01-2010 21:35:01 2.6 C 3.99 g/m*3 2.6 C 0 km/h
709 21-01-2010 21:47:02 2.6 C 4.05 g/m*3 2.6 C 0 km/h
710 21-01-2010 21:59:02 2.6 C 4.05 g/m*3 2.6 C 0 km/h
711 21-01-2010 22:11:02 2.6 C 4.11 g/m*3 2.6 C 0 km/h
712 21-01-2010 22:24:02 2.6 C 4.11 g/m*3 2.6 C 0 km/h
713 21-01-2010 22:36:02 2.6 C 4.17 g/m*3 2.6 C 0 km/h
714 21-01-2010 22:48:02 2.6 C 4.22 g/m*3 2.6 C 0 km/h
715 21-01-2010 23:00:02 2.6 C 4.22 g/m*3 2.6 C 0 km/h
716 21-01-2010 23:12:02 2.6 C 4.22 g/m*3 2.6 C 0 km/h
717 21-01-2010 23:24:02 2.6 C 4.28 g/m*3 2.6 C 0 km/h
718 21-01-2010 23:36:02 2.6 C 4.28 g/m*3 2.6 C 0 km/h
719 21-01-2010 23:48:02 2.6 C 4.28 g/m*3 2.6 C 0 km/h
720 22-01-2010 00:00:02 2.6 C 4.28 g/m*3 2.6 C 0 km/h
721 22-01-2010 00:12:02 2.5 C 4.25 g/m*3 2.5 C 0 km/h
722 22-01-2010 00:24:02 2.6 C 4.28 g/m*3 2.6 C 0 km/h
723 22-01-2010 00:36:03 2.5 C 4.25 g/m*3 2.5 C 0 km/h
724 22-01-2010 00:48:03 2.5 C 4.25 g/m*3 2.5 C 0 km/h
725 22-01-2010 01:00:03 2.5 C 4.25 g/m*3 2.5 C 0 km/h
Sensor: Nr:Datum:Temp:Abs-Feuchte:Windchill:Wind:
Aussen-T/F 726 22-01-2010 01:12:03 2.5 C 4.25 g/m*3 2.5 C 0 km/h
727 22-01-2010 01:24:03 2.5 C 4.31 g/m*3 2.5 C 0 km/h
728 22-01-2010 01:36:03 2.5 C 4.31 g/m*3 2.5 C 0 km/h
729 22-01-2010 01:48:03 2.5 C 4.31 g/m*3 2.5 C 0 km/h
730 22-01-2010 02:00:03 2.5 C 4.37 g/m*3 2.5 C 0 km/h
731 22-01-2010 02:12:03 2.4 C 4.34 g/m*3 2.4 C 0 km/h
732 22-01-2010 02:24:03 2.4 C 4.34 g/m*3 2.4 C 0 km/h
733 22-01-2010 02:36:03 2.3 C 4.31 g/m*3 2.3 C 0 km/h
734 22-01-2010 02:48:03 2.4 C 4.34 g/m*3 2.4 C 0 km/h
735 22-01-2010 03:00:03 2.4 C 4.34 g/m*3 2.4 C 0 km/h
736 22-01-2010 03:12:03 2.4 C 4.4 g/m*3 2.4 C 0 km/h
737 22-01-2010 03:24:03 2.4 C 4.4 g/m*3 2.4 C 0 km/h
738 22-01-2010 03:36:03 2.4 C 4.4 g/m*3 2.4 C 0 km/h
739 22-01-2010 03:48:03 2.4 C 4.4 g/m*3 2.4 C 0 km/h
740 22-01-2010 04:00:03 2.3 C 4.37 g/m*3 2.3 C 0 km/h
741 22-01-2010 04:12:03 2.3 C 4.37 g/m*3 2.3 C 0 km/h
742 22-01-2010 04:24:04 2.3 C 4.37 g/m*3 2.3 C 0 km/h
743 22-01-2010 04:36:04 2.4 C 4.4 g/m*3 2.4 C 0 km/h
744 22-01-2010 04:48:04 2.3 C 4.37 g/m*3 2.3 C 0 km/h
745 22-01-2010 05:00:04 2.3 C 4.37 g/m*3 2.3 C 0 km/h
746 22-01-2010 05:12:04 2.3 C 4.37 g/m*3 2.3 C 0 km/h
747 22-01-2010 05:24:04 2.3 C 4.37 g/m*3 2.3 C 0 km/h
748 22-01-2010 05:36:04 2.2 C 4.34 g/m*3 2.2 C 0 km/h
749 22-01-2010 05:48:04 2.3 C 4.37 g/m*3 2.3 C 0 km/h
750 22-01-2010 06:00:04 2.2 C 4.34 g/m*3 2.2 C 0 km/h
Sensor: Nr:Datum:Temp:Abs-Feuchte:Windchill:Wind:
Aussen-T/F 751 22-01-2010 06:12:04 2.2 C 4.34 g/m*3 2.2 C 0 km/h
752 22-01-2010 06:24:04 2.2 C 4.34 g/m*3 2.2 C 0 km/h
753 22-01-2010 06:36:04 2.2 C 4.34 g/m*3 2.2 C 0 km/h
754 22-01-2010 06:48:04 2.2 C 4.34 g/m*3 2.2 C 0 km/h
755 22-01-2010 07:00:04 2.2 C 4.34 g/m*3 2.2 C 0 km/h
756 22-01-2010 07:12:01 2.2 C 4.39 g/m*3 2.2 C 0 km/h
757 22-01-2010 07:24:02 2.2 C 4.39 g/m*3 2.2 C 0 km/h
758 22-01-2010 07:36:02 2.1 C 4.36 g/m*3 2.1 C 0 km/h
759 22-01-2010 07:48:01 2.1 C 4.36 g/m*3 2.1 C 0 km/h
760 22-01-2010 08:00:01 2.1 C 4.36 g/m*3 2.1 C 0 km/h
761 22-01-2010 08:12:02 2 C 4.33 g/m*3 2 C 0 km/h
762 22-01-2010 08:24:01 2 C 4.33 g/m*3 2 C 0 km/h
763 22-01-2010 08:36:01 1.9 C 4.36 g/m*3 1.9 C 0 km/h
764 22-01-2010 08:48:01 1.9 C 4.36 g/m*3 1.9 C 0 km/h
765 22-01-2010 09:00:01 2.1 C 4.36 g/m*3 2.1 C 0 km/h
766 22-01-2010 09:12:02 2.2 C 4.39 g/m*3 2.2 C 0 km/h
767 22-01-2010 09:24:01 2.3 C 4.37 g/m*3 2.3 C 0 km/h
768 22-01-2010 09:36:02 2.5 C 4.37 g/m*3 2.5 C 0 km/h
769 22-01-2010 09:48:01 2.6 C 4.34 g/m*3 2.6 C 0 km/h
770 22-01-2010 10:00:01 2.8 C 4.4 g/m*3 2.8 C 0 km/h
771 22-01-2010 10:12:02 2.8 C 4.16 g/m*3 2.8 C 0 km/h
772 22-01-2010 10:24:01 3 C 4.16 g/m*3 3 C 0 km/h
773 22-01-2010 10:36:01 3.1 C 4.07 g/m*3 3.1 C 0 km/h
774 22-01-2010 10:48:01 3.2 C 4.1 g/m*3 3.2 C 0 km/h
775 22-01-2010 11:00:01 3.5 C 4.12 g/m*3 3.5 C 0 km/h
Sensor: Nr:Datum:Temp:Abs-Feuchte:Windchill:Wind:
Aussen-T/F 776 22-01-2010 11:12:02 3.8 C 4.14 g/m*3 3.8 C 0 km/h
777 22-01-2010 11:24:02 4 C 4.07 g/m*3 4 C 0 km/h
778 22-01-2010 11:36:01 4 C 4.01 g/m*3 4 C 0 km/h
779 22-01-2010 11:48:02 4.2 C 4.06 g/m*3 4.2 C 0 km/h
780 22-01-2010 12:00:02 4.1 C 3.97 g/m*3 4.1 C 0 km/h
781 22-01-2010 12:12:01 4.2 C 3.99 g/m*3 4.2 C 0 km/h
782 22-01-2010 12:24:02 4.4 C 4.05 g/m*3 4.4 C 0 km/h
783 22-01-2010 12:36:01 4.7 C 4.06 g/m*3 4.7 C 0 km/h
784 22-01-2010 12:48:02 4.9 C 4.12 g/m*3 4.9 C 0 km/h
785 22-01-2010 13:00:02 4.9 C 4.05 g/m*3 4.9 C 0 km/h
786 22-01-2010 13:12:02 4.9 C 4.05 g/m*3 4.9 C 0 km/h
787 22-01-2010 13:24:02 4.8 C 4.09 g/m*3 4.8 C 0 km/h
788 22-01-2010 13:36:02 4.8 C 4.16 g/m*3 4.8 C 0 km/h
789 22-01-2010 13:48:02 4.7 C 4.06 g/m*3 4.7 C 0 km/h
790 22-01-2010 14:00:02 4.7 C 4.13 g/m*3 4.7 C 0 km/h
791 22-01-2010 14:12:01 4.4 C 4.05 g/m*3 4.4 C 0 km/h
792 22-01-2010 14:24:01 4.4 C 4.11 g/m*3 4.4 C 0 km/h
793 22-01-2010 14:36:02 4.7 C 4.26 g/m*3 4.7 C 0 km/h
794 22-01-2010 14:48:02 4.8 C 4.16 g/m*3 4.8 C 0 km/h
795 22-01-2010 15:00:02 4.7 C 4.13 g/m*3 4.7 C 0 km/h
796 22-01-2010 15:12:02 4.6 C 4.17 g/m*3 4.6 C 0 km/h
797 22-01-2010 15:24:02 4.8 C 4.16 g/m*3 4.8 C 0 km/h
798 22-01-2010 15:36:02 4.8 C 4.16 g/m*3 4.8 C 0 km/h
799 22-01-2010 15:48:02 4.2 C 4.06 g/m*3 4.2 C 0 km/h
800 22-01-2010 16:00:02 3.8 C 4.14 g/m*3 3.8 C 0 km/h
Sensor: Nr:Datum:Temp:Abs-Feuchte:Windchill:Wind:
Aussen-T/F 801 22-01-2010 16:12:02 3.8 C 4.27 g/m*3 3.8 C 0 km/h
802 22-01-2010 16:24:02 3.9 C 4.29 g/m*3 3.9 C 0 km/h
803 22-01-2010 16:36:02 3.8 C 4.27 g/m*3 3.8 C 0 km/h
804 22-01-2010 16:48:02 3.8 C 4.33 g/m*3 3.8 C 0 km/h
805 22-01-2010 17:00:02 3.7 C 4.36 g/m*3 3.7 C 0 km/h
806 22-01-2010 17:12:02 3.6 C 4.33 g/m*3 3.6 C 0 km/h
807 22-01-2010 17:24:02 3.4 C 4.28 g/m*3 3.4 C 0 km/h
808 22-01-2010 17:36:02 3.3 C 4.25 g/m*3 3.3 C 0 km/h
809 22-01-2010 17:48:02 3.2 C 4.22 g/m*3 3.2 C 0 km/h
810 22-01-2010 18:00:02 3.2 C 4.28 g/m*3 3.2 C 0 km/h
811 22-01-2010 18:12:02 3.2 C 4.22 g/m*3 3.2 C 0 km/h
812 22-01-2010 18:24:03 3.1 C 4.19 g/m*3 3.1 C 0 km/h
813 22-01-2010 18:36:02 3 C 4.16 g/m*3 3 C 0 km/h
814 22-01-2010 18:48:02 2.9 C 4.19 g/m*3 2.9 C 0 km/h
815 22-01-2010 19:00:02 2.7 C 4.14 g/m*3 2.7 C 0 km/h
816 22-01-2010 19:12:02 2.5 C 4.08 g/m*3 2.5 C 0 km/h
817 22-01-2010 19:24:02 2.3 C 4.08 g/m*3 2.3 C 0 km/h
818 22-01-2010 19:36:02 2.3 C 4.14 g/m*3 2.3 C 0 km/h
819 22-01-2010 19:48:02 2.3 C 4.14 g/m*3 2.3 C 0 km/h
820 22-01-2010 20:00:02 2.3 C 4.14 g/m*3 2.3 C 0 km/h
821 22-01-2010 20:12:02 2.4 C 4.17 g/m*3 2.4 C 0 km/h
822 22-01-2010 20:24:02 2.3 C 4.14 g/m*3 2.3 C 0 km/h
823 22-01-2010 20:36:02 2.4 C 4.23 g/m*3 2.4 C 0 km/h
824 22-01-2010 20:48:02 2.3 C 4.2 g/m*3 2.3 C 0 km/h
825 22-01-2010 21:00:02 2.3 C 4.2 g/m*3 2.3 C 0 km/h
Sensor: Nr:Datum:Temp:Abs-Feuchte:Windchill:Wind:
Aussen-T/F 826 22-01-2010 21:12:01 2.3 C 4.2 g/m*3 2.3 C 0 km/h
827 22-01-2010 21:24:02 2.3 C 4.2 g/m*3 2.3 C 0 km/h
828 22-01-2010 21:36:02 2.3 C 4.25 g/m*3 2.3 C 0 km/h
829 22-01-2010 21:48:01 2.4 C 4.28 g/m*3 2.4 C 0 km/h
830 22-01-2010 22:00:02 2.3 C 4.25 g/m*3 2.3 C 0 km/h
831 22-01-2010 22:12:01 2.3 C 4.2 g/m*3 2.3 C 0 km/h
832 22-01-2010 22:25:02 2.3 C 4.2 g/m*3 2.3 C 0 km/h
833 22-01-2010 22:37:02 2.3 C 4.14 g/m*3 2.3 C 0 km/h
834 22-01-2010 22:49:02 2.3 C 4.08 g/m*3 2.3 C 0 km/h
835 22-01-2010 23:01:02 2.3 C 4.03 g/m*3 2.3 C 0 km/h
836 22-01-2010 23:13:02 2.3 C 4.03 g/m*3 2.3 C 0 km/h
837 22-01-2010 23:25:02 2.3 C 4.03 g/m*3 2.3 C 0 km/h
838 22-01-2010 23:37:02 2.2 C 4 g/m*3 2.2 C 0 km/h
839 22-01-2010 23:49:02 2.2 C 3.94 g/m*3 2.2 C 0 km/h
840 23-01-2010 00:01:02 2.2 C 3.89 g/m*3 2.2 C 0 km/h
841 23-01-2010 00:13:02 1.8 C 3.84 g/m*3 1.8 C 0 km/h
842 23-01-2010 00:25:02 1.5 C 3.76 g/m*3 1.5 C 0 km/h
843 23-01-2010 00:37:02 1.2 C 3.68 g/m*3 1.2 C 0 km/h
844 23-01-2010 00:49:02 1.1 C 3.71 g/m*3 1.1 C 0 km/h
845 23-01-2010 01:01:02 1 C 3.69 g/m*3 1 C 0 km/h
846 23-01-2010 01:13:02 0.9 C 3.66 g/m*3 0.9 C 0 km/h
847 23-01-2010 01:25:02 0.8 C 3.69 g/m*3 0.8 C 0 km/h
848 23-01-2010 01:37:02 0.7 C 3.61 g/m*3 0.7 C 0 km/h
849 23-01-2010 01:49:03 0.6 C 3.59 g/m*3 0.6 C 0 km/h
850 23-01-2010 02:01:03 0.5 C 3.61 g/m*3 0.5 C 0 km/h
Sensor: Nr:Datum:Temp:Abs-Feuchte:Windchill:Wind:
Aussen-T/F 851 23-01-2010 02:13:03 0.4 C 3.59 g/m*3 0.4 C 0 km/h
852 23-01-2010 02:25:03 0.5 C 3.61 g/m*3 0.5 C 0 km/h
853 23-01-2010 02:37:03 0.4 C 3.59 g/m*3 0.4 C 0 km/h
854 23-01-2010 02:49:03 0.4 C 3.59 g/m*3 0.4 C 0 km/h
855 23-01-2010 03:01:03 0.4 C 3.64 g/m*3 0.4 C 0 km/h
856 23-01-2010 03:13:03 0.4 C 3.64 g/m*3 0.4 C 0 km/h
857 23-01-2010 03:25:03 0.4 C 3.64 g/m*3 0.4 C 0 km/h
858 23-01-2010 03:37:03 0.3 C 3.61 g/m*3 0.3 C 0 km/h
859 23-01-2010 03:49:03 0.2 C 3.59 g/m*3 0.2 C 0 km/h
860 23-01-2010 04:01:03 0.1 C 3.56 g/m*3 0.1 C 0 km/h
861 23-01-2010 04:13:03 0 C 3.59 g/m*3 0 C 0 km/h
862 23-01-2010 04:25:03 -0.1 C 3.56 g/m*3 -0.1 C 0 km/h
863 23-01-2010 04:37:03 -0.2 C 3.54 g/m*3 -0.2 C 0 km/h
864 23-01-2010 04:49:03 -0.2 C 3.54 g/m*3 -0.2 C 0 km/h
865 23-01-2010 05:01:03 -0.3 C 3.51 g/m*3 -0.3 C 0 km/h
866 23-01-2010 05:13:03 -0.3 C 3.51 g/m*3 -0.3 C 0 km/h
867 23-01-2010 05:25:03 -0.3 C 3.51 g/m*3 -0.3 C 0 km/h
868 23-01-2010 05:37:03 -0.4 C 3.44 g/m*3 -0.4 C 0 km/h
869 23-01-2010 05:49:03 -0.5 C 3.46 g/m*3 -0.5 C 0 km/h
870 23-01-2010 06:01:04 -0.5 C 3.46 g/m*3 -0.5 C 0 km/h
871 23-01-2010 06:13:04 -0.6 C 3.44 g/m*3 -0.6 C 0 km/h
872 23-01-2010 06:25:04 -0.5 C 3.46 g/m*3 -0.5 C 0 km/h
873 23-01-2010 06:37:04 -0.6 C 3.44 g/m*3 -0.6 C 0 km/h
874 23-01-2010 06:49:04 -0.7 C 3.42 g/m*3 -0.7 C 0 km/h
875 23-01-2010 07:01:04 -1 C 3.35 g/m*3 -1 C 0 km/h
Sensor: Nr:Datum:Temp:Abs-Feuchte:Windchill:Wind:
Aussen-T/F 876 23-01-2010 07:13:04 -1 C 3.39 g/m*3 -1 C 0 km/h
877 23-01-2010 07:25:04 -1 C 3.39 g/m*3 -1 C 0 km/h
878 23-01-2010 07:37:04 -1.1 C 3.32 g/m*3 -1.1 C 0 km/h
879 23-01-2010 07:49:04 -1.1 C 3.37 g/m*3 -1.1 C 0 km/h
880 23-01-2010 08:01:04 -1 C 3.35 g/m*3 -1 C 0 km/h
881 23-01-2010 08:13:04 -1.1 C 3.32 g/m*3 -1.1 C 0 km/h
882 23-01-2010 08:25:02 -1.1 C 3.28 g/m*3 -1.1 C 0 km/h
883 23-01-2010 08:37:02 -1.1 C 3.23 g/m*3 -1.1 C 0 km/h
884 23-01-2010 08:49:01 -1.1 C 3.23 g/m*3 -1.1 C 0 km/h
885 23-01-2010 09:01:02 -1 C 3.25 g/m*3 -1 C 0 km/h
886 23-01-2010 09:13:02 -1 C 3.21 g/m*3 -1 C 0 km/h
887 23-01-2010 09:25:02 -1 C 3.21 g/m*3 -1 C 0 km/h
888 23-01-2010 09:37:02 -1.1 C 3.19 g/m*3 -1.1 C 0 km/h
889 23-01-2010 09:49:03 -1.2 C 3.17 g/m*3 -1.2 C 0 km/h
890 23-01-2010 10:01:03 -1.2 C 3.17 g/m*3 -1.2 C 0 km/h
891 23-01-2010 10:13:03 -1.1 C 3.19 g/m*3 -1.1 C 0 km/h
892 23-01-2010 10:25:02 -1.1 C 3.19 g/m*3 -1.1 C 0 km/h
893 23-01-2010 10:37:03 -1.2 C 3.12 g/m*3 -1.2 C 0 km/h
894 23-01-2010 10:49:02 -1 C 3.21 g/m*3 -1 C 0 km/h
895 23-01-2010 11:01:02 -1 C 3.16 g/m*3 -1 C 0 km/h
896 23-01-2010 11:13:02 -1 C 3.16 g/m*3 -1 C 0 km/h
897 23-01-2010 11:25:02 -0.9 C 3.19 g/m*3 -0.9 C 0 km/h
898 23-01-2010 11:37:02 -0.6 C 3.25 g/m*3 -0.6 C 0 km/h
899 23-01-2010 11:49:02 -0.8 C 3.16 g/m*3 -0.8 C 0 km/h
900 23-01-2010 12:01:03 -0.9 C 3.19 g/m*3 -0.9 C 0 km/h
Sensor: Nr:Datum:Temp:Abs-Feuchte:Windchill:Wind:
Aussen-T/F 901 23-01-2010 12:13:03 -0.8 C 3.21 g/m*3 -0.8 C 0 km/h
902 23-01-2010 12:25:02 -0.7 C 3.23 g/m*3 -0.7 C 0 km/h
903 23-01-2010 12:37:02 -0.6 C 3.25 g/m*3 -0.6 C 0 km/h
904 23-01-2010 12:49:01 -0.5 C 3.28 g/m*3 -0.5 C 0 km/h
905 23-01-2010 13:01:02 -0.6 C 3.25 g/m*3 -0.6 C 0 km/h
906 23-01-2010 13:13:02 -0.5 C 3.28 g/m*3 -0.5 C 0 km/h
907 23-01-2010 13:25:01 -0.6 C 3.25 g/m*3 -0.6 C 0 km/h
908 23-01-2010 13:37:02 -0.5 C 3.28 g/m*3 -0.5 C 0 km/h
909 23-01-2010 13:49:01 -0.4 C 3.3 g/m*3 -0.4 C 0 km/h
910 23-01-2010 14:01:02 -0.3 C 3.32 g/m*3 -0.3 C 0 km/h
911 23-01-2010 14:13:02 -0.3 C 3.32 g/m*3 -0.3 C 0 km/h
912 23-01-2010 14:25:01 -0.3 C 3.27 g/m*3 -0.3 C 0 km/h
913 23-01-2010 14:37:02 -0.3 C 3.27 g/m*3 -0.3 C 0 km/h
914 23-01-2010 14:49:01 -0.3 C 3.32 g/m*3 -0.3 C 0 km/h
915 23-01-2010 15:01:02 -0.5 C 3.28 g/m*3 -0.5 C 0 km/h
916 23-01-2010 15:13:02 -0.6 C 3.25 g/m*3 -0.6 C 0 km/h
917 23-01-2010 15:25:02 -0.6 C 3.25 g/m*3 -0.6 C 0 km/h
918 23-01-2010 15:37:02 -0.6 C 3.3 g/m*3 -0.6 C 0 km/h
919 23-01-2010 15:49:02 -0.6 C 3.3 g/m*3 -0.6 C 0 km/h
920 23-01-2010 16:01:02 -0.5 C 3.32 g/m*3 -0.5 C 0 km/h
921 23-01-2010 16:13:02 -0.6 C 3.3 g/m*3 -0.6 C 0 km/h
922 23-01-2010 16:25:02 -0.7 C 3.28 g/m*3 -0.7 C 0 km/h
923 23-01-2010 16:37:01 -0.7 C 3.32 g/m*3 -0.7 C 0 km/h
924 23-01-2010 16:49:02 -0.7 C 3.32 g/m*3 -0.7 C 0 km/h
925 23-01-2010 17:01:01 -0.7 C 3.32 g/m*3 -0.7 C 0 km/h
Sensor: Nr:Datum:Temp:Abs-Feuchte:Windchill:Wind:
Aussen-T/F 926 23-01-2010 17:13:01 -0.6 C 3.35 g/m*3 -0.6 C 0 km/h
927 23-01-2010 17:25:02 -0.6 C 3.35 g/m*3 -0.6 C 0 km/h
928 23-01-2010 17:37:01 -0.5 C 3.42 g/m*3 -0.5 C 0 km/h
929 23-01-2010 17:49:02 -0.6 C 3.35 g/m*3 -0.6 C 0 km/h
930 23-01-2010 18:01:02 -0.5 C 3.37 g/m*3 -0.5 C 0 km/h
931 23-01-2010 18:13:02 -0.6 C 3.35 g/m*3 -0.6 C 0 km/h
932 23-01-2010 18:25:02 -0.6 C 3.35 g/m*3 -0.6 C 0 km/h
933 23-01-2010 18:37:03 -0.7 C 3.32 g/m*3 -0.7 C 0 km/h
934 23-01-2010 18:49:02 -0.8 C 3.3 g/m*3 -0.8 C 0 km/h
935 23-01-2010 19:01:01 -0.8 C 3.3 g/m*3 -0.8 C 0 km/h
936 23-01-2010 19:13:01 -0.7 C 3.32 g/m*3 -0.7 C 0 km/h
937 23-01-2010 19:25:02 -0.7 C 3.32 g/m*3 -0.7 C 0 km/h
938 23-01-2010 19:37:02 -0.7 C 3.28 g/m*3 -0.7 C 0 km/h
939 23-01-2010 19:49:02 -0.6 C 3.3 g/m*3 -0.6 C 0 km/h
940 23-01-2010 20:01:03 -0.7 C 3.23 g/m*3 -0.7 C 0 km/h
941 23-01-2010 20:13:03 -0.7 C 3.23 g/m*3 -0.7 C 0 km/h
942 23-01-2010 20:25:02 -0.7 C 3.23 g/m*3 -0.7 C 0 km/h
943 23-01-2010 20:37:02 -0.6 C 3.25 g/m*3 -0.6 C 0 km/h
944 23-01-2010 20:49:02 -0.6 C 3.25 g/m*3 -0.6 C 0 km/h
945 23-01-2010 21:01:02 -0.6 C 3.25 g/m*3 -0.6 C 0 km/h
946 23-01-2010 21:13:02 -0.6 C 3.25 g/m*3 -0.6 C 0 km/h
947 23-01-2010 21:25:01 -0.5 C 3.28 g/m*3 -0.5 C 0 km/h
948 23-01-2010 21:37:02 -0.6 C 3.25 g/m*3 -0.6 C 0 km/h
949 23-01-2010 21:49:02 -0.6 C 3.25 g/m*3 -0.6 C 0 km/h
950 23-01-2010 22:01:02 -0.5 C 3.28 g/m*3 -0.5 C 0 km/h
Sensor: Nr:Datum:Temp:Abs-Feuchte:Windchill:Wind:
Aussen-T/F 951 23-01-2010 22:13:02 -0.5 C 3.28 g/m*3 -0.5 C 0 km/h
952 23-01-2010 22:26:02 -0.5 C 3.28 g/m*3 -0.5 C 0 km/h
953 23-01-2010 22:38:02 -0.5 C 3.28 g/m*3 -0.5 C 0 km/h
954 23-01-2010 22:50:02 -0.5 C 3.28 g/m*3 -0.5 C 0 km/h
955 23-01-2010 23:02:02 -0.5 C 3.28 g/m*3 -0.5 C 0 km/h
956 23-01-2010 23:14:02 -0.5 C 3.23 g/m*3 -0.5 C 0 km/h
957 23-01-2010 23:26:02 -0.5 C 3.28 g/m*3 -0.5 C 0 km/h
958 23-01-2010 23:38:02 -0.3 C 3.32 g/m*3 -0.3 C 0 km/h
959 23-01-2010 23:50:02 -0.5 C 3.23 g/m*3 -0.5 C 0 km/h
960 24-01-2010 00:02:02 -0.5 C 3.23 g/m*3 -0.5 C 0 km/h
961 24-01-2010 00:14:02 -0.5 C 3.23 g/m*3 -0.5 C 0 km/h
962 24-01-2010 00:26:02 -0.5 C 3.23 g/m*3 -0.5 C 0 km/h
963 24-01-2010 00:38:02 -0.5 C 3.23 g/m*3 -0.5 C 0 km/h
964 24-01-2010 00:50:02 -0.5 C 3.28 g/m*3 -0.5 C 0 km/h
965 24-01-2010 01:02:02 -0.5 C 3.23 g/m*3 -0.5 C 0 km/h
966 24-01-2010 01:14:03 -0.5 C 3.23 g/m*3 -0.5 C 0 km/h
967 24-01-2010 01:26:03 -0.5 C 3.23 g/m*3 -0.5 C 0 km/h
968 24-01-2010 01:38:03 -0.5 C 3.23 g/m*3 -0.5 C 0 km/h
969 24-01-2010 01:50:03 -0.5 C 3.28 g/m*3 -0.5 C 0 km/h
970 24-01-2010 02:02:03 -0.5 C 3.23 g/m*3 -0.5 C 0 km/h
971 24-01-2010 02:14:03 -0.5 C 3.23 g/m*3 -0.5 C 0 km/h
972 24-01-2010 02:26:03 -0.5 C 3.23 g/m*3 -0.5 C 0 km/h
973 24-01-2010 02:38:03 -0.3 C 3.32 g/m*3 -0.3 C 0 km/h
974 24-01-2010 02:50:03 -0.5 C 3.28 g/m*3 -0.5 C 0 km/h
975 24-01-2010 03:02:03 -0.6 C 3.35 g/m*3 -0.6 C 0 km/h
Sensor: Nr:Datum:Temp:Abs-Feuchte:Windchill:Wind:
Aussen-T/F 976 24-01-2010 03:14:03 -0.6 C 3.39 g/m*3 -0.6 C 0 km/h
977 24-01-2010 03:26:03 -0.5 C 3.46 g/m*3 -0.5 C 0 km/h
978 24-01-2010 03:38:03 -0.6 C 3.44 g/m*3 -0.6 C 0 km/h
979 24-01-2010 03:50:03 -0.6 C 3.49 g/m*3 -0.6 C 0 km/h
980 24-01-2010 04:02:03 -0.6 C 3.53 g/m*3 -0.6 C 0 km/h
981 24-01-2010 04:14:03 -0.6 C 3.58 g/m*3 -0.6 C 0 km/h
982 24-01-2010 04:26:03 -0.5 C 3.65 g/m*3 -0.5 C 0 km/h
983 24-01-2010 04:38:03 -0.4 C 3.68 g/m*3 -0.4 C 0 km/h
984 24-01-2010 04:50:03 -0.3 C 3.7 g/m*3 -0.3 C 0 km/h
985 24-01-2010 05:02:03 -0.3 C 3.75 g/m*3 -0.3 C 0 km/h
986 24-01-2010 05:14:03 -0.3 C 3.75 g/m*3 -0.3 C 0 km/h
987 24-01-2010 05:26:04 -0.3 C 3.8 g/m*3 -0.3 C 0 km/h
988 24-01-2010 05:38:04 -0.3 C 3.8 g/m*3 -0.3 C 0 km/h
989 24-01-2010 05:50:04 -0.3 C 3.8 g/m*3 -0.3 C 0 km/h
990 24-01-2010 06:02:04 -0.4 C 3.82 g/m*3 -0.4 C 0 km/h
991 24-01-2010 06:14:04 -0.5 C 3.79 g/m*3 -0.5 C 0 km/h
992 24-01-2010 06:26:04 -0.4 C 3.86 g/m*3 -0.4 C 0 km/h
993 24-01-2010 06:38:04 -0.4 C 3.86 g/m*3 -0.4 C 0 km/h
994 24-01-2010 06:50:04 -0.4 C 3.86 g/m*3 -0.4 C 0 km/h
995 24-01-2010 07:02:04 -0.4 C 3.86 g/m*3 -0.4 C 0 km/h
996 24-01-2010 07:14:04 -0.5 C 3.88 g/m*3 -0.5 C 0 km/h
997 24-01-2010 07:26:04 -0.4 C 3.91 g/m*3 -0.4 C 0 km/h
998 24-01-2010 07:38:04 -0.5 C 3.88 g/m*3 -0.5 C 0 km/h
999 24-01-2010 07:50:04 -0.5 C 3.93 g/m*3 -0.5 C 0 km/h
1000 24-01-2010 08:02:04 -0.6 C 3.9 g/m*3 -0.6 C 0 km/h
Sensor: Nr:Datum:Temp:Abs-Feuchte:Windchill:Wind:
Aussen-T/F 1001 24-01-2010 08:14:04 -0.5 C 3.98 g/m*3 -0.5 C 0 km/h
1002 24-01-2010 08:26:04 -0.4 C 4.01 g/m*3 -0.4 C 0 km/h
1003 24-01-2010 08:38:04 -0.4 C 4.01 g/m*3 -0.4 C 0 km/h
1004 24-01-2010 08:50:04 -0.4 C 4.05 g/m*3 -0.4 C 0 km/h
1005 24-01-2010 09:02:01 -0.4 C 4.05 g/m*3 -0.4 C 0 km/h
1006 24-01-2010 09:14:01 -0.3 C 4.08 g/m*3 -0.3 C 0 km/h
1007 24-01-2010 09:26:02 -0.3 C 4.08 g/m*3 -0.3 C 0 km/h
1008 24-01-2010 09:38:02 -0.2 C 4.11 g/m*3 -0.2 C 0 km/h
1009 24-01-2010 09:50:02 -0.1 C 4.14 g/m*3 -0.1 C 0 km/h
1010 24-01-2010 10:02:01 0.1 C 4.2 g/m*3 0.1 C 0 km/h
1011 24-01-2010 10:14:01 0.2 C 4.22 g/m*3 0.2 C 0 km/h
1012 24-01-2010 10:26:02 0.2 C 4.22 g/m*3 0.2 C 0 km/h
1013 24-01-2010 10:38:01 0.3 C 4.2 g/m*3 0.3 C 0 km/h
1014 24-01-2010 10:50:02 0.5 C 4.26 g/m*3 0.5 C 0 km/h
1015 24-01-2010 11:02:02 0.5 C 4.26 g/m*3 0.5 C 0 km/h
1016 24-01-2010 11:14:02 0.7 C 4.27 g/m*3 0.7 C 0 km/h
1017 24-01-2010 11:26:02 0.9 C 4.33 g/m*3 0.9 C 0 km/h
1018 24-01-2010 11:38:02 0.9 C 4.28 g/m*3 0.9 C 0 km/h
1019 24-01-2010 11:50:02 0.9 C 4.23 g/m*3 0.9 C 0 km/h
1020 24-01-2010 12:02:02 0.8 C 4.15 g/m*3 0.8 C 0 km/h
1021 24-01-2010 12:14:02 0.8 C 4.15 g/m*3 0.8 C 0 km/h
1022 24-01-2010 12:26:02 0.8 C 4.15 g/m*3 0.8 C 0 km/h
1023 24-01-2010 12:38:02 1 C 4.2 g/m*3 1 C 0 km/h
1024 24-01-2010 12:50:02 1.1 C 4.23 g/m*3 1.1 C 0 km/h
1025 24-01-2010 13:02:01 1.1 C 4.23 g/m*3 1.1 C 0 km/h
Sensor: Nr:Datum:Temp:Abs-Feuchte:Windchill:Wind:
Aussen-T/F 1026 24-01-2010 13:14:01 1.2 C 4.31 g/m*3 1.2 C 0 km/h
1027 24-01-2010 13:26:02 1.2 C 4.31 g/m*3 1.2 C 0 km/h
1028 24-01-2010 13:38:01 1.4 C 4.43 g/m*3 1.4 C 0 km/h
1029 24-01-2010 13:50:01 1.4 C 4.43 g/m*3 1.4 C 0 km/h
1030 24-01-2010 14:02:01 1.6 C 4.49 g/m*3 1.6 C 0 km/h
1031 24-01-2010 14:14:01 1.7 C 4.52 g/m*3 1.7 C 0 km/h
1032 24-01-2010 14:26:01 1.6 C 4.49 g/m*3 1.6 C 0 km/h
1033 24-01-2010 14:38:02 1.7 C 4.52 g/m*3 1.7 C 0 km/h
1034 24-01-2010 14:50:02 1.5 C 4.4 g/m*3 1.5 C 0 km/h
1035 24-01-2010 15:02:02 1.4 C 4.37 g/m*3 1.4 C 0 km/h
1036 24-01-2010 15:14:02 1.1 C 4.29 g/m*3 1.1 C 0 km/h
1037 24-01-2010 15:26:02 1.3 C 4.4 g/m*3 1.3 C 0 km/h
1038 24-01-2010 15:38:02 1.3 C 4.4 g/m*3 1.3 C 0 km/h
1039 24-01-2010 15:50:02 1.3 C 4.4 g/m*3 1.3 C 0 km/h
1040 24-01-2010 16:02:02 1.3 C 4.45 g/m*3 1.3 C 0 km/h
1041 24-01-2010 16:14:02 1.2 C 4.42 g/m*3 1.2 C 0 km/h
1042 24-01-2010 16:26:02 1.3 C 4.45 g/m*3 1.3 C 0 km/h
1043 24-01-2010 16:38:02 1.3 C 4.45 g/m*3 1.3 C 0 km/h
1044 24-01-2010 16:50:01 1.2 C 4.42 g/m*3 1.2 C 0 km/h
1045 24-01-2010 17:02:02 1.1 C 4.39 g/m*3 1.1 C 0 km/h
1046 24-01-2010 17:14:03 1 C 4.41 g/m*3 1 C 0 km/h
1047 24-01-2010 17:26:01 1 C 4.46 g/m*3 1 C 0 km/h
1048 24-01-2010 17:38:01 1 C 4.46 g/m*3 1 C 0 km/h
1049 24-01-2010 17:50:01 1 C 4.46 g/m*3 1 C 0 km/h
1050 24-01-2010 18:02:01 0.9 C 4.48 g/m*3 0.9 C 0 km/h
Sensor: Nr:Datum:Temp:Abs-Feuchte:Windchill:Wind:
Aussen-T/F 1051 24-01-2010 18:14:01 0.7 C 4.37 g/m*3 0.7 C 0 km/h
1052 24-01-2010 18:26:02 0.7 C 4.37 g/m*3 0.7 C 0 km/h
1053 24-01-2010 18:38:01 0.6 C 4.39 g/m*3 0.6 C 0 km/h
1054 24-01-2010 18:50:01 0.6 C 4.39 g/m*3 0.6 C 0 km/h
1055 24-01-2010 19:02:01 0.5 C 4.36 g/m*3 0.5 C 0 km/h
1056 24-01-2010 19:14:01 0.6 C 4.44 g/m*3 0.6 C 0 km/h
1057 24-01-2010 19:26:01 0.6 C 4.44 g/m*3 0.6 C 0 km/h
1058 24-01-2010 19:38:01 0.6 C 4.44 g/m*3 0.6 C 0 km/h
1059 24-01-2010 19:50:01 0.5 C 4.41 g/m*3 0.5 C 0 km/h
1060 24-01-2010 20:02:02 0.5 C 4.41 g/m*3 0.5 C 0 km/h
1061 24-01-2010 20:14:03 0.5 C 4.46 g/m*3 0.5 C 0 km/h
1062 24-01-2010 20:26:01 0.6 C 4.49 g/m*3 0.6 C 0 km/h
1063 24-01-2010 20:38:01 0.6 C 4.49 g/m*3 0.6 C 0 km/h
1064 24-01-2010 20:50:01 0.5 C 4.41 g/m*3 0.5 C 0 km/h
1065 24-01-2010 21:02:02 0.5 C 4.46 g/m*3 0.5 C 0 km/h
1066 24-01-2010 21:14:02 0.5 C 4.41 g/m*3 0.5 C 0 km/h
1067 24-01-2010 21:26:02 0.4 C 4.38 g/m*3 0.4 C 0 km/h
1068 24-01-2010 21:38:01 0.4 C 4.38 g/m*3 0.4 C 0 km/h
1069 24-01-2010 21:50:01 0.4 C 4.43 g/m*3 0.4 C 0 km/h
1070 24-01-2010 22:02:01 0.2 C 4.37 g/m*3 0.2 C 0 km/h
1071 24-01-2010 22:14:01 0.2 C 4.37 g/m*3 0.2 C 0 km/h
1072 24-01-2010 22:26:02 0.2 C 4.37 g/m*3 0.2 C 0 km/h
1073 24-01-2010 22:38:01 0.2 C 4.37 g/m*3 0.2 C 0 km/h
1074 24-01-2010 22:50:01 0.2 C 4.37 g/m*3 0.2 C 0 km/h
1075 24-01-2010 23:02:01 0.2 C 4.42 g/m*3 0.2 C 0 km/h
Sensor: Nr:Datum:Temp:Abs-Feuchte:Windchill:Wind:
Aussen-T/F 1076 24-01-2010 23:14:01 0.1 C 4.39 g/m*3 0.1 C 0 km/h
1077 24-01-2010 23:27:02 0.1 C 4.39 g/m*3 0.1 C 0 km/h
1078 24-01-2010 23:39:02 0.1 C 4.44 g/m*3 0.1 C 0 km/h
1079 24-01-2010 23:51:02 0.1 C 4.44 g/m*3 0.1 C 0 km/h
1080 25-01-2010 00:03:02 0.1 C 4.44 g/m*3 0.1 C 0 km/h
1081 25-01-2010 00:15:02 0.1 C 4.44 g/m*3 0.1 C 0 km/h
1082 25-01-2010 00:27:02 0.1 C 4.44 g/m*3 0.1 C 0 km/h
1083 25-01-2010 00:39:02 0.1 C 4.44 g/m*3 0.1 C 0 km/h
1084 25-01-2010 00:51:02 0.1 C 4.44 g/m*3 0.1 C 0 km/h
1085 25-01-2010 01:03:02 0.1 C 4.44 g/m*3 0.1 C 0 km/h
1086 25-01-2010 01:15:02 0.1 C 4.44 g/m*3 0.1 C 0 km/h
1087 25-01-2010 01:27:02 0.1 C 4.44 g/m*3 0.1 C 0 km/h
1088 25-01-2010 01:39:02 0 C 4.41 g/m*3 0 C 0 km/h
1089 25-01-2010 01:51:02 0 C 4.46 g/m*3 0 C 0 km/h
1090 25-01-2010 02:03:02 0 C 4.46 g/m*3 0 C 0 km/h
1091 25-01-2010 02:15:02 0 C 4.46 g/m*3 0 C 0 km/h
1092 25-01-2010 02:27:02 0 C 4.46 g/m*3 0 C 0 km/h
1093 25-01-2010 02:39:03 0 C 4.46 g/m*3 0 C 0 km/h
1094 25-01-2010 02:51:03 0 C 4.46 g/m*3 0 C 0 km/h
1095 25-01-2010 03:03:03 0 C 4.46 g/m*3 0 C 0 km/h
1096 25-01-2010 03:15:03 -0.1 C 4.43 g/m*3 -0.1 C 0 km/h
1097 25-01-2010 03:27:03 -0.1 C 4.43 g/m*3 -0.1 C 0 km/h
1098 25-01-2010 03:39:03 -0.1 C 4.43 g/m*3 -0.1 C 0 km/h
1099 25-01-2010 03:51:03 -0.1 C 4.43 g/m*3 -0.1 C 0 km/h
1100 25-01-2010 04:03:03 -0.1 C 4.43 g/m*3 -0.1 C 0 km/h
Sensor: Nr:Datum:Temp:Abs-Feuchte:Windchill:Wind:
Aussen-T/F 1101 25-01-2010 04:15:03 -0.1 C 4.38 g/m*3 -0.1 C 0 km/h
1102 25-01-2010 04:27:03 -0.1 C 4.38 g/m*3 -0.1 C 0 km/h
1103 25-01-2010 04:39:03 -0.1 C 4.38 g/m*3 -0.1 C 0 km/h
1104 25-01-2010 04:51:03 -0.2 C 4.35 g/m*3 -0.2 C 0 km/h
1105 25-01-2010 05:03:03 -0.2 C 4.35 g/m*3 -0.2 C 0 km/h
1106 25-01-2010 05:15:03 -0.2 C 4.35 g/m*3 -0.2 C 0 km/h
1107 25-01-2010 05:27:03 -0.2 C 4.35 g/m*3 -0.2 C 0 km/h
1108 25-01-2010 05:39:03 -0.2 C 4.35 g/m*3 -0.2 C 0 km/h
1109 25-01-2010 05:51:03 -0.2 C 4.35 g/m*3 -0.2 C 0 km/h
1110 25-01-2010 06:03:03 -0.3 C 4.27 g/m*3 -0.3 C 0 km/h
1111 25-01-2010 06:15:03 -0.3 C 4.27 g/m*3 -0.3 C 0 km/h
1112 25-01-2010 06:27:03 -0.3 C 4.27 g/m*3 -0.3 C 0 km/h
1113 25-01-2010 06:39:04 -0.3 C 4.27 g/m*3 -0.3 C 0 km/h
1114 25-01-2010 06:51:04 -0.3 C 4.27 g/m*3 -0.3 C 0 km/h
1115 25-01-2010 07:03:01 -0.3 C 4.27 g/m*3 -0.3 C 0 km/h
1116 25-01-2010 07:15:02 -0.3 C 4.22 g/m*3 -0.3 C 0 km/h
1117 25-01-2010 07:27:02 -0.4 C 4.19 g/m*3 -0.4 C 0 km/h
1118 25-01-2010 07:39:01 -0.5 C 4.17 g/m*3 -0.5 C 0 km/h
1119 25-01-2010 07:51:03 -0.5 C 4.17 g/m*3 -0.5 C 0 km/h
1120 25-01-2010 08:03:02 -0.6 C 4.14 g/m*3 -0.6 C 0 km/h
1121 25-01-2010 08:15:02 -0.7 C 4.11 g/m*3 -0.7 C 0 km/h
1122 25-01-2010 08:27:03 -0.7 C 4.11 g/m*3 -0.7 C 0 km/h
1123 25-01-2010 08:39:02 -0.7 C 4.11 g/m*3 -0.7 C 0 km/h
1124 25-01-2010 08:51:02 -0.6 C 4.14 g/m*3 -0.6 C 0 km/h
1125 25-01-2010 09:03:02 -0.3 C 4.18 g/m*3 -0.3 C 0 km/h
Sensor: Nr:Datum:Temp:Abs-Feuchte:Windchill:Wind:
Aussen-T/F 1126 25-01-2010 09:15:02 -0.3 C 4.18 g/m*3 -0.3 C 0 km/h
1127 25-01-2010 09:27:02 -0.3 C 4.18 g/m*3 -0.3 C 0 km/h
1128 25-01-2010 09:39:02 -0.3 C 4.13 g/m*3 -0.3 C 0 km/h
1129 25-01-2010 09:51:02 -0.3 C 4.08 g/m*3 -0.3 C 0 km/h
1130 25-01-2010 10:03:03 -0.2 C 4.01 g/m*3 -0.2 C 0 km/h
1131 25-01-2010 10:15:02 -0.1 C 4.04 g/m*3 -0.1 C 0 km/h
1132 25-01-2010 10:27:02 0 C 4.02 g/m*3 0 C 0 km/h
1133 25-01-2010 10:39:02 0.1 C 4.05 g/m*3 0.1 C 0 km/h
1134 25-01-2010 10:51:01 0.2 C 4.08 g/m*3 0.2 C 0 km/h
1135 25-01-2010 11:03:02 0.3 C 4.06 g/m*3 0.3 C 0 km/h
1136 25-01-2010 11:15:01 0.4 C 4.13 g/m*3 0.4 C 0 km/h
1137 25-01-2010 11:27:01 0.4 C 4.08 g/m*3 0.4 C 0 km/h
1138 25-01-2010 11:39:02 0.4 C 4.03 g/m*3 0.4 C 0 km/h
1139 25-01-2010 11:51:01 0.6 C 4.09 g/m*3 0.6 C 0 km/h
1140 25-01-2010 12:03:02 0.7 C 4.12 g/m*3 0.7 C 0 km/h
1141 25-01-2010 12:15:01 0.9 C 4.12 g/m*3 0.9 C 0 km/h
1142 25-01-2010 12:27:01 1.2 C 4.16 g/m*3 1.2 C 0 km/h
1143 25-01-2010 12:39:02 1.2 C 4.05 g/m*3 1.2 C 0 km/h
1144 25-01-2010 12:51:01 1.1 C 3.87 g/m*3 1.1 C 0 km/h
1145 25-01-2010 13:03:02 1 C 3.84 g/m*3 1 C 0 km/h
1146 25-01-2010 13:15:02 1 C 3.84 g/m*3 1 C 0 km/h
1147 25-01-2010 13:27:02 0.9 C 3.87 g/m*3 0.9 C 0 km/h
1148 25-01-2010 13:39:01 1 C 3.84 g/m*3 1 C 0 km/h
1149 25-01-2010 13:51:02 1.2 C 3.95 g/m*3 1.2 C 0 km/h
1150 25-01-2010 14:03:01 1.2 C 3.95 g/m*3 1.2 C 0 km/h
Sensor: Nr:Datum:Temp:Abs-Feuchte:Windchill:Wind:
Aussen-T/F 1151 25-01-2010 14:15:02 1.2 C 3.95 g/m*3 1.2 C 0 km/h
1152 25-01-2010 14:27:03 1.1 C 3.92 g/m*3 1.1 C 0 km/h
1153 25-01-2010 14:39:01 1.1 C 3.92 g/m*3 1.1 C 0 km/h
1154 25-01-2010 14:51:02 1 C 3.94 g/m*3 1 C 0 km/h
1155 25-01-2010 15:03:02 1 C 3.94 g/m*3 1 C 0 km/h
1156 25-01-2010 15:15:02 1 C 3.94 g/m*3 1 C 0 km/h
1157 25-01-2010 15:27:02 0.8 C 3.99 g/m*3 0.8 C 0 km/h
1158 25-01-2010 15:39:02 1 C 4.05 g/m*3 1 C 0 km/h
1159 25-01-2010 15:51:02 1.1 C 4.13 g/m*3 1.1 C 0 km/h
1160 25-01-2010 16:03:01 1 C 4.1 g/m*3 1 C 0 km/h
1161 25-01-2010 16:15:02 0.9 C 4.18 g/m*3 0.9 C 0 km/h
1162 25-01-2010 16:27:02 0.7 C 4.12 g/m*3 0.7 C 0 km/h
1163 25-01-2010 16:39:02 0.7 C 4.17 g/m*3 0.7 C 0 km/h
1164 25-01-2010 16:51:02 0.7 C 4.17 g/m*3 0.7 C 0 km/h
1165 25-01-2010 17:03:01 0.6 C 4.14 g/m*3 0.6 C 0 km/h
1166 25-01-2010 17:15:01 0.5 C 4.11 g/m*3 0.5 C 0 km/h
1167 25-01-2010 17:27:01 0.4 C 4.08 g/m*3 0.4 C 0 km/h
1168 25-01-2010 17:39:02 0.3 C 4.11 g/m*3 0.3 C 0 km/h
1169 25-01-2010 17:51:02 0.2 C 4.13 g/m*3 0.2 C 0 km/h
1170 25-01-2010 18:03:03 0.2 C 4.13 g/m*3 0.2 C 0 km/h
1171 25-01-2010 18:15:02 0.2 C 4.22 g/m*3 0.2 C 0 km/h
1172 25-01-2010 18:27:02 0 C 4.22 g/m*3 0 C 0 km/h
1173 25-01-2010 18:39:01 0 C 4.26 g/m*3 0 C 0 km/h
1174 25-01-2010 18:51:02 -0.2 C 4.21 g/m*3 -0.2 C 0 km/h
1175 25-01-2010 19:03:01 -0.4 C 4.19 g/m*3 -0.4 C 0 km/h
Sensor: Nr:Datum:Temp:Abs-Feuchte:Windchill:Wind:
Aussen-T/F 1176 25-01-2010 19:15:02 -0.5 C 4.21 g/m*3 -0.5 C 0 km/h
1177 25-01-2010 19:27:02 -0.5 C 4.21 g/m*3 -0.5 C 0 km/h
1178 25-01-2010 19:39:02 -0.5 C 4.26 g/m*3 -0.5 C 0 km/h
1179 25-01-2010 19:51:02 -0.6 C 4.23 g/m*3 -0.6 C 0 km/h
1180 25-01-2010 20:03:03 -0.5 C 4.26 g/m*3 -0.5 C 0 km/h
1181 25-01-2010 20:15:02 -0.6 C 4.23 g/m*3 -0.6 C 0 km/h
1182 25-01-2010 20:27:02 -0.6 C 4.23 g/m*3 -0.6 C 0 km/h
1183 25-01-2010 20:39:02 -0.7 C 4.2 g/m*3 -0.7 C 0 km/h
1184 25-01-2010 20:51:01 -0.8 C 4.17 g/m*3 -0.8 C 0 km/h
1185 25-01-2010 21:03:02 -0.7 C 4.2 g/m*3 -0.7 C 0 km/h
1186 25-01-2010 21:15:01 -0.6 C 4.23 g/m*3 -0.6 C 0 km/h
1187 25-01-2010 21:27:01 -0.7 C 4.15 g/m*3 -0.7 C 0 km/h
1188 25-01-2010 21:39:02 -0.7 C 4.15 g/m*3 -0.7 C 0 km/h
1189 25-01-2010 21:51:02 -0.8 C 4.08 g/m*3 -0.8 C 0 km/h
1190 25-01-2010 22:03:02 -0.7 C 4.11 g/m*3 -0.7 C 0 km/h
1191 25-01-2010 22:15:02 -0.6 C 4.14 g/m*3 -0.6 C 0 km/h
1192 25-01-2010 22:27:02 -0.8 C 4.03 g/m*3 -0.8 C 0 km/h
1193 25-01-2010 22:40:03 -0.7 C 4.06 g/m*3 -0.7 C 0 km/h
1194 25-01-2010 22:52:03 -0.9 C 4.01 g/m*3 -0.9 C 0 km/h
1195 25-01-2010 23:04:03 -0.9 C 3.96 g/m*3 -0.9 C 0 km/h
1196 25-01-2010 23:16:03 -0.8 C 4.03 g/m*3 -0.8 C 0 km/h
1197 25-01-2010 23:28:03 -0.9 C 3.96 g/m*3 -0.9 C 0 km/h
1198 25-01-2010 23:40:03 -1 C 3.93 g/m*3 -1 C 0 km/h
1199 25-01-2010 23:52:03 -1 C 3.93 g/m*3 -1 C 0 km/h
1200 26-01-2010 00:04:03 -1.1 C 3.91 g/m*3 -1.1 C 0 km/h
Sensor: Nr:Datum:Temp:Abs-Feuchte:Windchill:Wind:
Aussen-T/F 1201 26-01-2010 00:16:03 -1.1 C 3.91 g/m*3 -1.1 C 0 km/h
1202 26-01-2010 00:28:03 -1.1 C 3.91 g/m*3 -1.1 C 0 km/h
1203 26-01-2010 00:40:03 -1.1 C 3.91 g/m*3 -1.1 C 0 km/h
1204 26-01-2010 00:52:03 -1.4 C 3.82 g/m*3 -1.4 C 0 km/h
1205 26-01-2010 01:04:03 -1.5 C 3.84 g/m*3 -1.5 C 0 km/h
1206 26-01-2010 01:16:03 -1.6 C 3.81 g/m*3 -1.6 C 0 km/h
1207 26-01-2010 01:28:03 -1.4 C 3.87 g/m*3 -1.4 C 0 km/h
1208 26-01-2010 01:40:04 -1.7 C 3.79 g/m*3 -1.7 C 0 km/h
1209 26-01-2010 01:52:04 -1.6 C 3.81 g/m*3 -1.6 C 0 km/h
1210 26-01-2010 02:04:04 -1.5 C 3.84 g/m*3 -1.5 C 0 km/h
1211 26-01-2010 02:16:04 -1.7 C 3.79 g/m*3 -1.7 C 0 km/h
1212 26-01-2010 02:28:04 -1.8 C 3.76 g/m*3 -1.8 C 0 km/h
1213 26-01-2010 02:40:04 -1.8 C 3.76 g/m*3 -1.8 C 0 km/h
1214 26-01-2010 02:52:04 -1.9 C 3.74 g/m*3 -1.9 C 0 km/h
1215 26-01-2010 03:04:04 -1.7 C 3.79 g/m*3 -1.7 C 0 km/h
1216 26-01-2010 03:16:04 -1.7 C 3.79 g/m*3 -1.7 C 0 km/h
1217 26-01-2010 03:28:04 -1.8 C 3.76 g/m*3 -1.8 C 0 km/h
1218 26-01-2010 03:40:04 -2.1 C 3.68 g/m*3 -2.1 C 0 km/h
1219 26-01-2010 03:52:04 -2 C 3.75 g/m*3 -2 C 0 km/h
1220 26-01-2010 04:04:04 -2.1 C 3.73 g/m*3 -2.1 C 0 km/h
1221 26-01-2010 04:16:04 -2.1 C 3.73 g/m*3 -2.1 C 0 km/h
1222 26-01-2010 04:28:04 -2.1 C 3.73 g/m*3 -2.1 C 0 km/h
1223 26-01-2010 04:40:04 -2.2 C 3.66 g/m*3 -2.2 C 0 km/h
1224 26-01-2010 04:52:04 -2.2 C 3.66 g/m*3 -2.2 C 0 km/h
1225 26-01-2010 05:04:04 -2.2 C 3.66 g/m*3 -2.2 C 0 km/h
Sensor: Nr:Datum:Temp:Abs-Feuchte:Windchill:Wind:
Aussen-T/F 1226 26-01-2010 05:16:04 -2.1 C 3.68 g/m*3 -2.1 C 0 km/h
1227 26-01-2010 05:28:04 -2.2 C 3.66 g/m*3 -2.2 C 0 km/h
1228 26-01-2010 05:40:05 -2.1 C 3.68 g/m*3 -2.1 C 0 km/h
1229 26-01-2010 05:52:05 -2.3 C 3.59 g/m*3 -2.3 C 0 km/h
1230 26-01-2010 06:04:05 -2.3 C 3.59 g/m*3 -2.3 C 0 km/h
1231 26-01-2010 06:16:05 -2.3 C 3.59 g/m*3 -2.3 C 0 km/h
1232 26-01-2010 06:28:05 -2.3 C 3.59 g/m*3 -2.3 C 0 km/h
1233 26-01-2010 06:40:05 -2.4 C 3.57 g/m*3 -2.4 C 0 km/h
1234 26-01-2010 06:52:05 -2.4 C 3.57 g/m*3 -2.4 C 0 km/h
1235 26-01-2010 07:04:02 -2.3 C 3.59 g/m*3 -2.3 C 0 km/h
1236 26-01-2010 07:16:02 -2.2 C 3.62 g/m*3 -2.2 C 0 km/h
1237 26-01-2010 07:28:02 -2.1 C 3.64 g/m*3 -2.1 C 0 km/h
1238 26-01-2010 07:40:02 -2.1 C 3.6 g/m*3 -2.1 C 0 km/h
1239 26-01-2010 07:52:02 -2.1 C 3.56 g/m*3 -2.1 C 0 km/h
1240 26-01-2010 08:04:02 -2.1 C 3.52 g/m*3 -2.1 C 0 km/h
1241 26-01-2010 08:16:02 -2.7 C 3.21 g/m*3 -2.7 C 0 km/h
1242 26-01-2010 08:28:02 -2.8 C 3.11 g/m*3 -2.8 C 0 km/h
1243 26-01-2010 08:40:02 -3 C 2.99 g/m*3 -3 C 0 km/h
1244 26-01-2010 08:52:02 -3.3 C 2.81 g/m*3 -3.3 C 0 km/h
1245 26-01-2010 09:04:02 -3.3 C 2.81 g/m*3 -3.3 C 0 km/h
1246 26-01-2010 09:16:02 -3.3 C 2.77 g/m*3 -3.3 C 0 km/h
1247 26-01-2010 09:28:02 -3.3 C 2.73 g/m*3 -3.3 C 0 km/h
1248 26-01-2010 09:40:02 -3.8 C 2.49 g/m*3 -3.8 C 0 km/h
1249 26-01-2010 09:52:02 -3.9 C 2.47 g/m*3 -3.9 C 0 km/h
1250 26-01-2010 10:04:02 -3.7 C 2.47 g/m*3 -3.7 C 0 km/h
Sensor: Nr:Datum:Temp:Abs-Feuchte:Windchill:Wind:
Aussen-T/F 1251 26-01-2010 10:16:02 -3.5 C 2.46 g/m*3 -3.5 C 0 km/h
1252 26-01-2010 10:28:02 -3.5 C 2.39 g/m*3 -3.5 C 0 km/h
1253 26-01-2010 10:40:02 -3.2 C 2.44 g/m*3 -3.2 C 0 km/h
1254 26-01-2010 10:52:01 -3.2 C 2.4 g/m*3 -3.2 C 0 km/h
1255 26-01-2010 11:04:01 -3.3 C 2.31 g/m*3 -3.3 C 0 km/h
1256 26-01-2010 11:16:02 -3.4 C 2.29 g/m*3 -3.4 C 0 km/h
1257 26-01-2010 11:28:02 -3.1 C 2.38 g/m*3 -3.1 C 0 km/h
1258 26-01-2010 11:40:01 -2.8 C 2.43 g/m*3 -2.8 C 0 km/h
1259 26-01-2010 11:52:02 -2.7 C 2.45 g/m*3 -2.7 C 0 km/h
1260 26-01-2010 12:04:02 -2.9 C 2.37 g/m*3 -2.9 C 0 km/h
1261 26-01-2010 12:16:03 -2.7 C 2.41 g/m*3 -2.7 C 0 km/h
1262 26-01-2010 12:28:03 -2.7 C 2.37 g/m*3 -2.7 C 0 km/h
1263 26-01-2010 12:40:02 -2.5 C 2.36 g/m*3 -2.5 C 0 km/h
1264 26-01-2010 12:52:03 -2.5 C 2.36 g/m*3 -2.5 C 0 km/h
1265 26-01-2010 13:04:02 -3 C 2.24 g/m*3 -3 C 0 km/h
1266 26-01-2010 13:16:02 -3 C 2.24 g/m*3 -3 C 0 km/h
1267 26-01-2010 13:28:02 -2.5 C 2.36 g/m*3 -2.5 C 0 km/h
1268 26-01-2010 13:40:02 -2.1 C 2.34 g/m*3 -2.1 C 0 km/h
1269 26-01-2010 13:52:02 -1.7 C 2.37 g/m*3 -1.7 C 0 km/h
1270 26-01-2010 14:04:02 -1.4 C 2.37 g/m*3 -1.4 C 0 km/h
1271 26-01-2010 14:16:02 -1.1 C 2.38 g/m*3 -1.1 C 0 km/h
1272 26-01-2010 14:28:02 -0.9 C 2.37 g/m*3 -0.9 C 0 km/h
1273 26-01-2010 14:40:01 -0.9 C 2.32 g/m*3 -0.9 C 0 km/h
1274 26-01-2010 14:52:02 -1.1 C 2.29 g/m*3 -1.1 C 0 km/h
1275 26-01-2010 15:04:01 -1 C 2.35 g/m*3 -1 C 0 km/h
Sensor: Nr:Datum:Temp:Abs-Feuchte:Windchill:Wind:
Aussen-T/F 1276 26-01-2010 15:16:02 -0.7 C 2.4 g/m*3 -0.7 C 0 km/h
1277 26-01-2010 15:28:02 -1.1 C 2.29 g/m*3 -1.1 C 0 km/h
1278 26-01-2010 15:40:02 -1.4 C 2.29 g/m*3 -1.4 C 0 km/h
1279 26-01-2010 15:52:02 -1.6 C 2.34 g/m*3 -1.6 C 0 km/h
1280 26-01-2010 16:04:02 -1.9 C 2.33 g/m*3 -1.9 C 0 km/h
1281 26-01-2010 16:16:02 -2.1 C 2.34 g/m*3 -2.1 C 0 km/h
1282 26-01-2010 16:28:02 -2.4 C 2.34 g/m*3 -2.4 C 0 km/h
1283 26-01-2010 16:40:03 -2.8 C 2.31 g/m*3 -2.8 C 0 km/h
1284 26-01-2010 16:52:02 -3 C 2.32 g/m*3 -3 C 0 km/h
1285 26-01-2010 17:04:02 -3.3 C 2.31 g/m*3 -3.3 C 0 km/h
1286 26-01-2010 17:16:01 -3.5 C 2.31 g/m*3 -3.5 C 0 km/h
1287 26-01-2010 17:28:01 -3.7 C 2.32 g/m*3 -3.7 C 0 km/h
1288 26-01-2010 17:40:02 -4.1 C 2.29 g/m*3 -4.1 C 0 km/h
1289 26-01-2010 17:52:02 -4.3 C 2.33 g/m*3 -4.3 C 0 km/h
1290 26-01-2010 18:04:02 -4.6 C 2.31 g/m*3 -4.6 C 0 km/h
1291 26-01-2010 18:16:02 -4.8 C 2.31 g/m*3 -4.8 C 0 km/h
1292 26-01-2010 18:28:02 -4.9 C 2.33 g/m*3 -4.9 C 0 km/h
1293 26-01-2010 18:40:02 -4.9 C 2.37 g/m*3 -4.9 C 0 km/h
1294 26-01-2010 18:52:01 -5.1 C 2.3 g/m*3 -5.1 C 0 km/h
1295 26-01-2010 19:04:02 -5.3 C 2.3 g/m*3 -5.3 C 0 km/h
1296 26-01-2010 19:16:01 -5.4 C 2.32 g/m*3 -5.4 C 0 km/h
1297 26-01-2010 19:28:01 -5.6 C 2.28 g/m*3 -5.6 C 0 km/h
1298 26-01-2010 19:40:01 -5.7 C 2.3 g/m*3 -5.7 C 0 km/h
1299 26-01-2010 19:52:01 -5.9 C 2.3 g/m*3 -5.9 C 0 km/h
1300 26-01-2010 20:04:02 -6 C 2.31 g/m*3 -6 C 0 km/h
Sensor: Nr:Datum:Temp:Abs-Feuchte:Windchill:Wind:
Aussen-T/F 1301 26-01-2010 20:16:01 -6 C 2.34 g/m*3 -6 C 0 km/h
1302 26-01-2010 20:28:01 -6.2 C 2.31 g/m*3 -6.2 C 0 km/h
1303 26-01-2010 20:40:01 -6.4 C 2.28 g/m*3 -6.4 C 0 km/h
1304 26-01-2010 20:52:01 -6.4 C 2.28 g/m*3 -6.4 C 0 km/h
1305 26-01-2010 21:04:02 -6.6 C 2.27 g/m*3 -6.6 C 0 km/h
1306 26-01-2010 21:16:02 -6.7 C 2.26 g/m*3 -6.7 C 0 km/h
1307 26-01-2010 21:28:02 -6.9 C 2.22 g/m*3 -6.9 C 0 km/h
1308 26-01-2010 21:40:01 -7 C 2.21 g/m*3 -7 C 0 km/h
1309 26-01-2010 21:52:01 -6.9 C 2.25 g/m*3 -6.9 C 0 km/h
1310 26-01-2010 22:04:01 -7 C 2.27 g/m*3 -7 C 0 km/h
1311 26-01-2010 22:16:01 -7.1 C 2.25 g/m*3 -7.1 C 0 km/h
1312 26-01-2010 22:28:01 -7.2 C 2.23 g/m*3 -7.2 C 0 km/h
1313 26-01-2010 22:40:02 -7.1 C 2.25 g/m*3 -7.1 C 0 km/h
1314 26-01-2010 22:52:02 -7.2 C 2.23 g/m*3 -7.2 C 0 km/h
1315 26-01-2010 23:04:02 -7.5 C 2.16 g/m*3 -7.5 C 0 km/h
1316 26-01-2010 23:16:02 -7.6 C 2.14 g/m*3 -7.6 C 0 km/h
1317 26-01-2010 23:28:02 -7.7 C 2.13 g/m*3 -7.7 C 0 km/h
1318 26-01-2010 23:40:02 -7.7 C 2.13 g/m*3 -7.7 C 0 km/h
1319 26-01-2010 23:52:01 -8.1 C 2.06 g/m*3 -8.1 C 0 km/h
1320 27-01-2010 00:04:02 -8.2 C 2.05 g/m*3 -8.2 C 0 km/h
1321 27-01-2010 00:16:01 -8.3 C 2.03 g/m*3 -8.3 C 0 km/h
1322 27-01-2010 00:28:01 -8.2 C 2.07 g/m*3 -8.2 C 0 km/h
1323 27-01-2010 00:40:02 -8.3 C 2.06 g/m*3 -8.3 C 0 km/h
1324 27-01-2010 00:53:02 -8.6 C 2.01 g/m*3 -8.6 C 0 km/h
1325 27-01-2010 01:05:02 -8.8 C 1.98 g/m*3 -8.8 C 0 km/h
Sensor: Nr:Datum:Temp:Abs-Feuchte:Windchill:Wind:
Aussen-T/F 1326 27-01-2010 01:17:02 -8.9 C 1.97 g/m*3 -8.9 C 0 km/h
1327 27-01-2010 01:29:02 -8.9 C 1.97 g/m*3 -8.9 C 0 km/h
1328 27-01-2010 01:41:02 -8.9 C 1.97 g/m*3 -8.9 C 0 km/h
1329 27-01-2010 01:53:02 -9.2 C 1.93 g/m*3 -9.2 C 0 km/h
1330 27-01-2010 02:05:02 -9.3 C 1.91 g/m*3 -9.3 C 0 km/h
1331 27-01-2010 02:17:02 -9.1 C 1.94 g/m*3 -9.1 C 0 km/h
1332 27-01-2010 02:29:02 -9.3 C 1.91 g/m*3 -9.3 C 0 km/h
1333 27-01-2010 02:41:02 -9.4 C 1.9 g/m*3 -9.4 C 0 km/h
1334 27-01-2010 02:53:02 -9.4 C 1.9 g/m*3 -9.4 C 0 km/h
1335 27-01-2010 03:05:02 -9.3 C 1.91 g/m*3 -9.3 C 0 km/h
1336 27-01-2010 03:17:02 -9.1 C 1.94 g/m*3 -9.1 C 0 km/h
1337 27-01-2010 03:29:02 -9.1 C 1.94 g/m*3 -9.1 C 0 km/h
1338 27-01-2010 03:41:02 -8.9 C 1.97 g/m*3 -8.9 C 0 km/h
1339 27-01-2010 03:53:03 -8.9 C 1.94 g/m*3 -8.9 C 0 km/h
1340 27-01-2010 04:05:03 -8.8 C 1.96 g/m*3 -8.8 C 0 km/h
1341 27-01-2010 04:17:03 -8.8 C 1.93 g/m*3 -8.8 C 0 km/h
1342 27-01-2010 04:29:03 -8.5 C 2 g/m*3 -8.5 C 0 km/h
1343 27-01-2010 04:41:03 -8.4 C 2.02 g/m*3 -8.4 C 0 km/h
1344 27-01-2010 04:53:03 -8.4 C 2.02 g/m*3 -8.4 C 0 km/h
1345 27-01-2010 05:05:03 -8.4 C 2.04 g/m*3 -8.4 C 0 km/h
1346 27-01-2010 05:17:03 -8.4 C 2.02 g/m*3 -8.4 C 0 km/h
1347 27-01-2010 05:29:03 -8.6 C 1.96 g/m*3 -8.6 C 0 km/h
1348 27-01-2010 05:41:03 -8.7 C 1.92 g/m*3 -8.7 C 0 km/h
1349 27-01-2010 05:53:03 -8.8 C 1.91 g/m*3 -8.8 C 0 km/h
1350 27-01-2010 06:05:03 -8.7 C 1.95 g/m*3 -8.7 C 0 km/h
Sensor: Nr:Datum:Temp:Abs-Feuchte:Windchill:Wind:
Aussen-T/F 1351 27-01-2010 06:17:03 -8.8 C 1.93 g/m*3 -8.8 C 0 km/h
1352 27-01-2010 06:29:03 -8.9 C 1.92 g/m*3 -8.9 C 0 km/h
1353 27-01-2010 06:41:03 -9.1 C 1.89 g/m*3 -9.1 C 0 km/h
1354 27-01-2010 06:53:03 -9.2 C 1.88 g/m*3 -9.2 C 0 km/h
1355 27-01-2010 07:05:01 -9.4 C 1.82 g/m*3 -9.4 C 0 km/h
1356 27-01-2010 07:17:02 -9.3 C 1.84 g/m*3 -9.3 C 0 km/h
1357 27-01-2010 07:29:02 -9.1 C 1.89 g/m*3 -9.1 C 0 km/h
1358 27-01-2010 07:41:02 -9.1 C 1.89 g/m*3 -9.1 C 0 km/h
1359 27-01-2010 07:53:01 -9.2 C 1.88 g/m*3 -9.2 C 0 km/h
1360 27-01-2010 08:05:02 -9.3 C 1.84 g/m*3 -9.3 C 0 km/h
1361 27-01-2010 08:17:01 -9.2 C 1.88 g/m*3 -9.2 C 0 km/h
1362 27-01-2010 08:29:01 -9.2 C 1.88 g/m*3 -9.2 C 0 km/h
1363 27-01-2010 08:41:02 -9.2 C 1.88 g/m*3 -9.2 C 0 km/h
1364 27-01-2010 08:53:02 -9.3 C 1.86 g/m*3 -9.3 C 0 km/h
1365 27-01-2010 09:05:02 -9.2 C 1.88 g/m*3 -9.2 C 0 km/h
1366 27-01-2010 09:17:01 -9 C 1.88 g/m*3 -9 C 0 km/h
1367 27-01-2010 09:29:01 -8.8 C 1.91 g/m*3 -8.8 C 0 km/h
1368 27-01-2010 09:41:02 -8.6 C 1.91 g/m*3 -8.6 C 0 km/h
1369 27-01-2010 09:53:02 -8.6 C 1.88 g/m*3 -8.6 C 0 km/h
1370 27-01-2010 10:05:02 -8.7 C 1.84 g/m*3 -8.7 C 0 km/h
1371 27-01-2010 10:17:01 -8.6 C 1.86 g/m*3 -8.6 C 0 km/h
1372 27-01-2010 10:29:01 -8.4 C 1.88 g/m*3 -8.4 C 0 km/h
1373 27-01-2010 10:41:02 -7.8 C 1.94 g/m*3 -7.8 C 0 km/h
1374 27-01-2010 10:53:02 -7.5 C 1.96 g/m*3 -7.5 C 0 km/h
1375 27-01-2010 11:05:02 -6.9 C 2.02 g/m*3 -6.9 C 0 km/h
Sensor: Nr:Datum:Temp:Abs-Feuchte:Windchill:Wind:
Aussen-T/F 1376 27-01-2010 11:17:01 -7 C 1.94 g/m*3 -7 C 0 km/h
1377 27-01-2010 11:29:01 -6.9 C 1.96 g/m*3 -6.9 C 0 km/h
1378 27-01-2010 11:41:02 -6.5 C 2.02 g/m*3 -6.5 C 0 km/h
1379 27-01-2010 11:53:02 -5.8 C 2.09 g/m*3 -5.8 C 0 km/h
1380 27-01-2010 12:05:02 -5.3 C 2.13 g/m*3 -5.3 C 0 km/h
1381 27-01-2010 12:17:02 -5.1 C 2.1 g/m*3 -5.1 C 0 km/h
1382 27-01-2010 12:29:02 -4.7 C 2.16 g/m*3 -4.7 C 0 km/h
1383 27-01-2010 12:41:02 -4.2 C 2.16 g/m*3 -4.2 C 0 km/h
1384 27-01-2010 12:53:01 -3.9 C 2.14 g/m*3 -3.9 C 0 km/h
1385 27-01-2010 13:05:02 -4.5 C 1.98 g/m*3 -4.5 C 0 km/h
1386 27-01-2010 13:17:02 -4.4 C 2.06 g/m*3 -4.4 C 0 km/h
1387 27-01-2010 13:29:02 -3.9 C 2.1 g/m*3 -3.9 C 0 km/h
1388 27-01-2010 13:41:01 -3.3 C 2.19 g/m*3 -3.3 C 0 km/h
1389 27-01-2010 13:53:02 -2.6 C 2.34 g/m*3 -2.6 C 0 km/h
1390 27-01-2010 14:05:01 -2.2 C 2.37 g/m*3 -2.2 C 0 km/h
1391 27-01-2010 14:17:02 -2.4 C 2.25 g/m*3 -2.4 C 0 km/h
1392 27-01-2010 14:29:02 -2.2 C 2.33 g/m*3 -2.2 C 0 km/h
1393 27-01-2010 14:41:01 -2.1 C 2.34 g/m*3 -2.1 C 0 km/h
1394 27-01-2010 14:53:02 -2 C 2.44 g/m*3 -2 C 0 km/h
1395 27-01-2010 15:05:01 -2 C 2.44 g/m*3 -2 C 0 km/h
1396 27-01-2010 15:17:01 -2.1 C 2.43 g/m*3 -2.1 C 0 km/h
1397 27-01-2010 15:29:02 -2.1 C 2.47 g/m*3 -2.1 C 0 km/h
1398 27-01-2010 15:41:01 -2.3 C 2.44 g/m*3 -2.3 C 0 km/h
1399 27-01-2010 15:53:02 -2.2 C 2.45 g/m*3 -2.2 C 0 km/h
1400 27-01-2010 16:05:01 -2.1 C 2.39 g/m*3 -2.1 C 0 km/h
Sensor: Nr:Datum:Temp:Abs-Feuchte:Windchill:Wind:
Aussen-T/F 1401 27-01-2010 16:17:02 -2.1 C 2.39 g/m*3 -2.1 C 0 km/h
1402 27-01-2010 16:29:02 -2 C 2.32 g/m*3 -2 C 0 km/h
1403 27-01-2010 16:41:02 -2.1 C 2.26 g/m*3 -2.1 C 0 km/h
1404 27-01-2010 16:53:02 -2.1 C 2.18 g/m*3 -2.1 C 0 km/h
1405 27-01-2010 17:05:01 -2.3 C 2.06 g/m*3 -2.3 C 0 km/h
1406 27-01-2010 17:17:02 -2.4 C 2.13 g/m*3 -2.4 C 0 km/h
1407 27-01-2010 17:29:02 -2.4 C 2.17 g/m*3 -2.4 C 0 km/h
1408 27-01-2010 17:41:02 -2.4 C 2.21 g/m*3 -2.4 C 0 km/h
1409 27-01-2010 17:53:02 -2.4 C 2.21 g/m*3 -2.4 C 0 km/h
1410 27-01-2010 18:05:02 -2.3 C 2.27 g/m*3 -2.3 C 0 km/h
1411 27-01-2010 18:17:02 -2.4 C 2.29 g/m*3 -2.4 C 0 km/h
1412 27-01-2010 18:29:02 -2.3 C 2.31 g/m*3 -2.3 C 0 km/h
1413 27-01-2010 18:41:02 -2.3 C 2.35 g/m*3 -2.3 C 0 km/h
1414 27-01-2010 18:53:02 -2.3 C 2.39 g/m*3 -2.3 C 0 km/h
1415 27-01-2010 19:05:02 -2.1 C 2.39 g/m*3 -2.1 C 0 km/h
1416 27-01-2010 19:17:03 -2 C 2.4 g/m*3 -2 C 0 km/h
1417 27-01-2010 19:29:03 -1.9 C 2.42 g/m*3 -1.9 C 0 km/h
1418 27-01-2010 19:41:02 -1.6 C 2.34 g/m*3 -1.6 C 0 km/h
1419 27-01-2010 19:53:02 -1.6 C 2.38 g/m*3 -1.6 C 0 km/h
1420 27-01-2010 20:05:02 -1.7 C 2.37 g/m*3 -1.7 C 0 km/h
1421 27-01-2010 20:17:02 -2 C 2.57 g/m*3 -2 C 0 km/h
1422 27-01-2010 20:29:02 -2 C 2.57 g/m*3 -2 C 0 km/h
1423 27-01-2010 20:41:02 -1.9 C 2.59 g/m*3 -1.9 C 0 km/h
1424 27-01-2010 20:53:02 -1.9 C 2.55 g/m*3 -1.9 C 0 km/h
1425 27-01-2010 21:05:02 -1.9 C 2.55 g/m*3 -1.9 C 0 km/h
Sensor: Nr:Datum:Temp:Abs-Feuchte:Windchill:Wind:
Aussen-T/F 1426 27-01-2010 21:17:02 -2 C 2.66 g/m*3 -2 C 0 km/h
1427 27-01-2010 21:29:02 -1.8 C 2.61 g/m*3 -1.8 C 0 km/h
1428 27-01-2010 21:41:02 -2 C 2.66 g/m*3 -2 C 0 km/h
1429 27-01-2010 21:53:02 -1.9 C 2.67 g/m*3 -1.9 C 0 km/h
1430 27-01-2010 22:06:03 -2 C 2.74 g/m*3 -2 C 0 km/h
1431 27-01-2010 22:18:03 -2 C 2.74 g/m*3 -2 C 0 km/h
1432 27-01-2010 22:30:03 -1.9 C 2.67 g/m*3 -1.9 C 0 km/h
1433 27-01-2010 22:42:03 -1.9 C 2.67 g/m*3 -1.9 C 0 km/h
1434 27-01-2010 22:54:03 -1.9 C 2.72 g/m*3 -1.9 C 0 km/h
1435 27-01-2010 23:06:03 -2 C 2.82 g/m*3 -2 C 0 km/h
1436 27-01-2010 23:18:03 -2 C 2.91 g/m*3 -2 C 0 km/h
1437 27-01-2010 23:30:03 -2 C 2.87 g/m*3 -2 C 0 km/h
1438 27-01-2010 23:42:03 -2.1 C 2.89 g/m*3 -2.1 C 0 km/h
1439 27-01-2010 23:54:03 -2.2 C 2.95 g/m*3 -2.2 C 0 km/h
1440 28-01-2010 00:06:03 -2.1 C 2.93 g/m*3 -2.1 C 0 km/h
1441 28-01-2010 00:18:03 -2 C 2.99 g/m*3 -2 C 0 km/h
1442 28-01-2010 00:30:03 -2.1 C 3.06 g/m*3 -2.1 C 0 km/h
1443 28-01-2010 00:42:03 -2 C 3.16 g/m*3 -2 C 0 km/h
1444 28-01-2010 00:54:03 -1.9 C 3.18 g/m*3 -1.9 C 0 km/h
1445 28-01-2010 01:06:03 -2 C 3.25 g/m*3 -2 C 0 km/h
1446 28-01-2010 01:18:03 -2.1 C 3.43 g/m*3 -2.1 C 0 km/h
1447 28-01-2010 01:30:03 -2 C 3.5 g/m*3 -2 C 0 km/h
1448 28-01-2010 01:42:03 -1.7 C 3.57 g/m*3 -1.7 C 0 km/h
1449 28-01-2010 01:54:03 -1.4 C 3.56 g/m*3 -1.4 C 0 km/h
1450 28-01-2010 02:06:04 -1.2 C 3.52 g/m*3 -1.2 C 0 km/h
Sensor: Nr:Datum:Temp:Abs-Feuchte:Windchill:Wind:
Aussen-T/F 1451 28-01-2010 02:18:04 -1.1 C 3.5 g/m*3 -1.1 C 0 km/h
1452 28-01-2010 02:30:04 -1.1 C 3.46 g/m*3 -1.1 C 0 km/h
1453 28-01-2010 02:42:04 -1.1 C 3.46 g/m*3 -1.1 C 0 km/h
1454 28-01-2010 02:54:04 -1 C 3.53 g/m*3 -1 C 0 km/h
1455 28-01-2010 03:06:04 -1 C 3.53 g/m*3 -1 C 0 km/h
1456 28-01-2010 03:18:04 -0.9 C 3.55 g/m*3 -0.9 C 0 km/h
1457 28-01-2010 03:30:04 -0.9 C 3.55 g/m*3 -0.9 C 0 km/h
1458 28-01-2010 03:42:04 -0.9 C 3.6 g/m*3 -0.9 C 0 km/h
1459 28-01-2010 03:54:04 -0.9 C 3.64 g/m*3 -0.9 C 0 km/h
1460 28-01-2010 04:06:04 -0.9 C 3.69 g/m*3 -0.9 C 0 km/h
1461 28-01-2010 04:18:04 -0.8 C 3.71 g/m*3 -0.8 C 0 km/h
1462 28-01-2010 04:30:04 -0.7 C 3.78 g/m*3 -0.7 C 0 km/h
1463 28-01-2010 04:42:04 -0.5 C 3.84 g/m*3 -0.5 C 0 km/h
1464 28-01-2010 04:54:04 -0.5 C 3.84 g/m*3 -0.5 C 0 km/h
1465 28-01-2010 05:06:04 -0.7 C 3.92 g/m*3 -0.7 C 0 km/h
1466 28-01-2010 05:18:04 -0.7 C 4.06 g/m*3 -0.7 C 0 km/h
1467 28-01-2010 05:30:04 -0.7 C 4.11 g/m*3 -0.7 C 0 km/h
1468 28-01-2010 05:42:04 -0.5 C 4.21 g/m*3 -0.5 C 0 km/h
1469 28-01-2010 05:54:04 0.1 C 4.44 g/m*3 0.1 C 0 km/h
1470 28-01-2010 06:06:05 0.3 C 4.5 g/m*3 0.3 C 0 km/h
1471 28-01-2010 06:18:05 0.4 C 4.53 g/m*3 0.4 C 0 km/h
1472 28-01-2010 06:30:05 1 C 4.67 g/m*3 1 C 0 km/h
1473 28-01-2010 06:42:05 1.5 C 4.62 g/m*3 1.5 C 0 km/h
1474 28-01-2010 06:54:05 1.3 C 4.45 g/m*3 1.3 C 0 km/h
1475 28-01-2010 07:06:03 1.3 C 4.34 g/m*3 1.3 C 0 km/h
Sensor: Nr:Datum:Temp:Abs-Feuchte:Windchill:Wind:
Aussen-T/F 1476 28-01-2010 07:18:02 1.2 C 4.31 g/m*3 1.2 C 0 km/h
1477 28-01-2010 07:30:02 1.1 C 4.29 g/m*3 1.1 C 0 km/h
1478 28-01-2010 07:42:02 1.1 C 4.29 g/m*3 1.1 C 0 km/h
1479 28-01-2010 07:54:01 1.2 C 4.31 g/m*3 1.2 C 0 km/h
1480 28-01-2010 08:06:02 1.1 C 4.34 g/m*3 1.1 C 0 km/h
1481 28-01-2010 08:18:01 1 C 4.36 g/m*3 1 C 0 km/h
1482 28-01-2010 08:30:01 1.4 C 4.48 g/m*3 1.4 C 0 km/h
1483 28-01-2010 08:42:01 1.4 C 4.48 g/m*3 1.4 C 0 km/h
1484 28-01-2010 08:54:01 1.5 C 4.46 g/m*3 1.5 C 0 km/h
1485 28-01-2010 09:06:01 1.5 C 4.46 g/m*3 1.5 C 0 km/h
1486 28-01-2010 09:18:02 1.6 C 4.43 g/m*3 1.6 C 0 km/h
1487 28-01-2010 09:30:02 1.7 C 4.41 g/m*3 1.7 C 0 km/h
1488 28-01-2010 09:42:01 1.8 C 4.39 g/m*3 1.8 C 0 km/h
1489 28-01-2010 09:54:02 1.9 C 4.42 g/m*3 1.9 C 0 km/h
1490 28-01-2010 10:06:01 2.1 C 4.31 g/m*3 2.1 C 0 km/h
1491 28-01-2010 10:18:02 2.2 C 4.22 g/m*3 2.2 C 0 km/h
1492 28-01-2010 10:30:02 2.4 C 4.17 g/m*3 2.4 C 0 km/h
1493 28-01-2010 10:42:01 2.6 C 4.11 g/m*3 2.6 C 0 km/h
1494 28-01-2010 10:54:02 2.8 C 4.05 g/m*3 2.8 C 0 km/h
1495 28-01-2010 11:06:02 3 C 3.98 g/m*3 3 C 0 km/h
1496 28-01-2010 11:18:02 2.8 C 3.99 g/m*3 2.8 C 0 km/h
1497 28-01-2010 11:30:02 2.6 C 3.99 g/m*3 2.6 C 0 km/h
1498 28-01-2010 11:42:01 2.5 C 4.02 g/m*3 2.5 C 0 km/h
1499 28-01-2010 11:54:02 2.8 C 4.05 g/m*3 2.8 C 0 km/h
1500 28-01-2010 12:06:01 3.3 C 3.94 g/m*3 3.3 C 0 km/h
Sensor: Nr:Datum:Temp:Abs-Feuchte:Windchill:Wind:
Aussen-T/F 1501 28-01-2010 12:18:01 3.1 C 3.89 g/m*3 3.1 C 0 km/h
1502 28-01-2010 12:30:01 3.4 C 3.91 g/m*3 3.4 C 0 km/h
1503 28-01-2010 12:42:02 3.3 C 3.82 g/m*3 3.3 C 0 km/h
1504 28-01-2010 12:54:02 2.9 C 3.96 g/m*3 2.9 C 0 km/h
1505 28-01-2010 13:06:02 2.9 C 4.07 g/m*3 2.9 C 0 km/h
1506 28-01-2010 13:18:02 3.3 C 4 g/m*3 3.3 C 0 km/h
1507 28-01-2010 13:30:02 3.5 C 3.87 g/m*3 3.5 C 0 km/h
1508 28-01-2010 13:42:02 3.6 C 3.71 g/m*3 3.6 C 0 km/h
1509 28-01-2010 13:54:02 3.6 C 3.71 g/m*3 3.6 C 0 km/h
1510 28-01-2010 14:06:02 2.7 C 3.9 g/m*3 2.7 C 0 km/h
1511 28-01-2010 14:18:02 2.3 C 4.14 g/m*3 2.3 C 0 km/h
1512 28-01-2010 14:30:02 2.1 C 4.2 g/m*3 2.1 C 0 km/h
1513 28-01-2010 14:42:02 1.8 C 4.44 g/m*3 1.8 C 0 km/h
1514 28-01-2010 14:54:02 2.1 C 4.59 g/m*3 2.1 C 0 km/h
1515 28-01-2010 15:06:02 2.1 C 4.42 g/m*3 2.1 C 0 km/h
1516 28-01-2010 15:18:03 2.3 C 4.2 g/m*3 2.3 C 0 km/h
1517 28-01-2010 15:30:03 3.1 C 3.95 g/m*3 3.1 C 0 km/h
1518 28-01-2010 15:42:02 3 C 3.75 g/m*3 3 C 0 km/h
1519 28-01-2010 15:54:02 3 C 3.69 g/m*3 3 C 0 km/h
1520 28-01-2010 16:06:02 3 C 3.69 g/m*3 3 C 0 km/h
1521 28-01-2010 16:18:02 3 C 3.63 g/m*3 3 C 0 km/h
1522 28-01-2010 16:30:02 2.9 C 3.72 g/m*3 2.9 C 0 km/h
1523 28-01-2010 16:42:02 2.8 C 3.75 g/m*3 2.8 C 0 km/h
1524 28-01-2010 16:54:02 2.7 C 3.79 g/m*3 2.7 C 0 km/h
1525 28-01-2010 17:06:02 2.6 C 3.88 g/m*3 2.6 C 0 km/h
Sensor: Nr:Datum:Temp:Abs-Feuchte:Windchill:Wind:
Aussen-T/F 1526 28-01-2010 17:18:02 2.4 C 3.88 g/m*3 2.4 C 0 km/h
1527 28-01-2010 17:30:02 2.4 C 3.94 g/m*3 2.4 C 0 km/h
1528 28-01-2010 17:42:02 2.4 C 4 g/m*3 2.4 C 0 km/h
1529 28-01-2010 17:54:02 1.8 C 4.17 g/m*3 1.8 C 0 km/h
1530 28-01-2010 18:06:02 1.7 C 4.3 g/m*3 1.7 C 0 km/h
1531 28-01-2010 18:18:02 1.5 C 4.35 g/m*3 1.5 C 0 km/h
1532 28-01-2010 18:30:02 1.1 C 4.34 g/m*3 1.1 C 0 km/h
1533 28-01-2010 18:42:02 1.2 C 4.53 g/m*3 1.2 C 0 km/h
1534 28-01-2010 18:54:02 1.2 C 4.58 g/m*3 1.2 C 0 km/h
1535 28-01-2010 19:06:01 1.2 C 4.58 g/m*3 1.2 C 0 km/h
1536 28-01-2010 19:18:02 1.2 C 4.58 g/m*3 1.2 C 0 km/h
1537 28-01-2010 19:30:02 1.4 C 4.59 g/m*3 1.4 C 0 km/h
1538 28-01-2010 19:42:02 1.5 C 4.51 g/m*3 1.5 C 0 km/h
1539 28-01-2010 19:54:01 1.5 C 4.4 g/m*3 1.5 C 0 km/h
1540 28-01-2010 20:06:01 1.7 C 4.36 g/m*3 1.7 C 0 km/h
1541 28-01-2010 20:18:01 1.7 C 4.3 g/m*3 1.7 C 0 km/h
1542 28-01-2010 20:30:01 1.6 C 4.27 g/m*3 1.6 C 0 km/h
1543 28-01-2010 20:42:02 1.6 C 4.22 g/m*3 1.6 C 0 km/h
1544 28-01-2010 20:54:02 1.5 C 4.19 g/m*3 1.5 C 0 km/h
1545 28-01-2010 21:06:02 1.5 C 4.19 g/m*3 1.5 C 0 km/h
1546 28-01-2010 21:18:02 1.7 C 4.25 g/m*3 1.7 C 0 km/h
1547 28-01-2010 21:30:02 1.6 C 4.22 g/m*3 1.6 C 0 km/h
1548 28-01-2010 21:42:02 1.5 C 4.19 g/m*3 1.5 C 0 km/h
1549 28-01-2010 21:54:01 1.6 C 4.22 g/m*3 1.6 C 0 km/h
1550 28-01-2010 22:06:01 1.6 C 4.22 g/m*3 1.6 C 0 km/h
Sensor: Nr:Datum:Temp:Abs-Feuchte:Windchill:Wind:
Aussen-T/F 1551 28-01-2010 22:18:02 1.7 C 4.19 g/m*3 1.7 C 0 km/h
1552 28-01-2010 22:30:02 1.7 C 4.19 g/m*3 1.7 C 0 km/h
1553 28-01-2010 22:42:02 1.6 C 4.16 g/m*3 1.6 C 0 km/h
1554 28-01-2010 22:54:02 1.7 C 4.14 g/m*3 1.7 C 0 km/h
1555 28-01-2010 23:06:02 1.6 C 4.11 g/m*3 1.6 C 0 km/h
1556 28-01-2010 23:18:02 1.6 C 4.16 g/m*3 1.6 C 0 km/h
1557 28-01-2010 23:30:02 1.6 C 4.16 g/m*3 1.6 C 0 km/h
1558 28-01-2010 23:42:02 1.6 C 4.16 g/m*3 1.6 C 0 km/h
1559 28-01-2010 23:54:02 1.4 C 4.21 g/m*3 1.4 C 0 km/h
1560 29-01-2010 00:06:02 1.4 C 4.27 g/m*3 1.4 C 0 km/h
1561 29-01-2010 00:18:02 1.4 C 4.27 g/m*3 1.4 C 0 km/h
1562 29-01-2010 00:30:02 1.5 C 4.3 g/m*3 1.5 C 0 km/h
1563 29-01-2010 00:42:02 1.5 C 4.24 g/m*3 1.5 C 0 km/h
1564 29-01-2010 00:54:02 1.5 C 4.3 g/m*3 1.5 C 0 km/h
1565 29-01-2010 01:06:02 1.5 C 4.3 g/m*3 1.5 C 0 km/h
1566 29-01-2010 01:18:02 1.4 C 4.32 g/m*3 1.4 C 0 km/h
1567 29-01-2010 01:30:02 1.4 C 4.32 g/m*3 1.4 C 0 km/h
1568 29-01-2010 01:42:02 1.4 C 4.37 g/m*3 1.4 C 0 km/h
1569 29-01-2010 01:54:02 1.3 C 4.34 g/m*3 1.3 C 0 km/h
1570 29-01-2010 02:06:02 1.1 C 4.39 g/m*3 1.1 C 0 km/h
1571 29-01-2010 02:18:02 1 C 4.41 g/m*3 1 C 0 km/h
1572 29-01-2010 02:30:03 1.1 C 4.49 g/m*3 1.1 C 0 km/h
1573 29-01-2010 02:42:03 1.1 C 4.49 g/m*3 1.1 C 0 km/h
1574 29-01-2010 02:54:03 1.1 C 4.55 g/m*3 1.1 C 0 km/h
1575 29-01-2010 03:06:03 1.3 C 4.56 g/m*3 1.3 C 0 km/h
Sensor: Nr:Datum:Temp:Abs-Feuchte:Windchill:Wind:
Aussen-T/F 1576 29-01-2010 03:18:03 1.3 C 4.56 g/m*3 1.3 C 0 km/h
1577 29-01-2010 03:30:03 1.3 C 4.56 g/m*3 1.3 C 0 km/h
1578 29-01-2010 03:42:03 1.3 C 4.56 g/m*3 1.3 C 0 km/h
1579 29-01-2010 03:54:03 1.3 C 4.56 g/m*3 1.3 C 0 km/h
1580 29-01-2010 04:06:03 1.3 C 4.56 g/m*3 1.3 C 0 km/h
1581 29-01-2010 04:18:03 1.4 C 4.59 g/m*3 1.4 C 0 km/h
1582 29-01-2010 04:30:03 1.3 C 4.56 g/m*3 1.3 C 0 km/h
1583 29-01-2010 04:42:03 1.4 C 4.59 g/m*3 1.4 C 0 km/h
1584 29-01-2010 04:54:03 1.3 C 4.56 g/m*3 1.3 C 0 km/h
1585 29-01-2010 05:06:03 1.2 C 4.58 g/m*3 1.2 C 0 km/h
1586 29-01-2010 05:18:03 1 C 4.57 g/m*3 1 C 0 km/h
1587 29-01-2010 05:30:03 1 C 4.62 g/m*3 1 C 0 km/h
1588 29-01-2010 05:42:03 0.9 C 4.64 g/m*3 0.9 C 0 km/h
1589 29-01-2010 05:54:03 0.9 C 4.69 g/m*3 0.9 C 0 km/h
1590 29-01-2010 06:06:03 0.9 C 4.69 g/m*3 0.9 C 0 km/h
1591 29-01-2010 06:18:03 0.9 C 4.74 g/m*3 0.9 C 0 km/h
1592 29-01-2010 06:30:03 1 C 4.72 g/m*3 1 C 0 km/h
1593 29-01-2010 06:42:04 1 C 4.67 g/m*3 1 C 0 km/h
1594 29-01-2010 06:54:04 1 C 4.67 g/m*3 1 C 0 km/h
1595 29-01-2010 07:06:01 1 C 4.62 g/m*3 1 C 0 km/h
1596 29-01-2010 07:18:02 1 C 4.62 g/m*3 1 C 0 km/h
1597 29-01-2010 07:30:02 1 C 4.57 g/m*3 1 C 0 km/h
1598 29-01-2010 07:42:01 1 C 4.57 g/m*3 1 C 0 km/h
1599 29-01-2010 07:54:02 1.2 C 4.58 g/m*3 1.2 C 0 km/h
1600 29-01-2010 08:06:01 1.4 C 4.53 g/m*3 1.4 C 0 km/h
Sensor: Nr:Datum:Temp:Abs-Feuchte:Windchill:Wind:
Aussen-T/F 1601 29-01-2010 08:18:01 1.5 C 4.46 g/m*3 1.5 C 0 km/h
1602 29-01-2010 08:30:01 1.6 C 4.43 g/m*3 1.6 C 0 km/h
1603 29-01-2010 08:42:01 1.6 C 4.38 g/m*3 1.6 C 0 km/h
1604 29-01-2010 08:54:02 1.5 C 4.4 g/m*3 1.5 C 0 km/h
1605 29-01-2010 09:06:01 1.5 C 4.4 g/m*3 1.5 C 0 km/h
1606 29-01-2010 09:18:01 1.6 C 4.43 g/m*3 1.6 C 0 km/h
1607 29-01-2010 09:30:01 1.7 C 4.46 g/m*3 1.7 C 0 km/h
1608 29-01-2010 09:42:02 1.8 C 4.44 g/m*3 1.8 C 0 km/h
1609 29-01-2010 09:54:01 1.9 C 4.42 g/m*3 1.9 C 0 km/h
1610 29-01-2010 10:06:02 2.1 C 4.36 g/m*3 2.1 C 0 km/h
1611 29-01-2010 10:18:01 2.1 C 4.36 g/m*3 2.1 C 0 km/h
1612 29-01-2010 10:30:01 2.2 C 4.39 g/m*3 2.2 C 0 km/h
1613 29-01-2010 10:42:01 2.3 C 4.42 g/m*3 2.3 C 0 km/h
1614 29-01-2010 10:54:01 2.4 C 4.4 g/m*3 2.4 C 0 km/h
1615 29-01-2010 11:06:01 2.5 C 4.37 g/m*3 2.5 C 0 km/h
1616 29-01-2010 11:18:01 2.5 C 4.37 g/m*3 2.5 C 0 km/h
1617 29-01-2010 11:30:01 2.6 C 4.4 g/m*3 2.6 C 0 km/h
1618 29-01-2010 11:42:01 2.7 C 4.37 g/m*3 2.7 C 0 km/h
1619 29-01-2010 11:54:01 2.7 C 4.31 g/m*3 2.7 C 0 km/h
1620 29-01-2010 12:06:01 2.8 C 4.34 g/m*3 2.8 C 0 km/h
1621 29-01-2010 12:18:02 2.8 C 4.34 g/m*3 2.8 C 0 km/h
1622 29-01-2010 12:30:02 2.8 C 4.34 g/m*3 2.8 C 0 km/h
1623 29-01-2010 12:42:01 2.8 C 4.34 g/m*3 2.8 C 0 km/h
1624 29-01-2010 12:54:02 2.8 C 4.4 g/m*3 2.8 C 0 km/h
1625 29-01-2010 13:06:01 2.7 C 4.37 g/m*3 2.7 C 0 km/h
Sensor: Nr:Datum:Temp:Abs-Feuchte:Windchill:Wind:
Aussen-T/F 1626 29-01-2010 13:18:02 2.7 C 4.43 g/m*3 2.7 C 0 km/h
1627 29-01-2010 13:30:02 2.7 C 4.43 g/m*3 2.7 C 0 km/h
1628 29-01-2010 13:42:01 2.7 C 4.43 g/m*3 2.7 C 0 km/h
1629 29-01-2010 13:54:02 2.5 C 4.43 g/m*3 2.5 C 0 km/h
1630 29-01-2010 14:06:01 2.4 C 4.51 g/m*3 2.4 C 0 km/h
1631 29-01-2010 14:18:01 2.2 C 4.56 g/m*3 2.2 C 0 km/h
1632 29-01-2010 14:30:01 2.2 C 4.56 g/m*3 2.2 C 0 km/h
1633 29-01-2010 14:42:02 2.2 C 4.56 g/m*3 2.2 C 0 km/h
1634 29-01-2010 14:54:01 2.2 C 4.51 g/m*3 2.2 C 0 km/h
1635 29-01-2010 15:06:01 2.1 C 4.53 g/m*3 2.1 C 0 km/h
1636 29-01-2010 15:18:01 2.1 C 4.53 g/m*3 2.1 C 0 km/h
1637 29-01-2010 15:30:01 2 C 4.56 g/m*3 2 C 0 km/h
1638 29-01-2010 15:42:02 2 C 4.56 g/m*3 2 C 0 km/h
1639 29-01-2010 15:54:01 2.1 C 4.53 g/m*3 2.1 C 0 km/h
1640 29-01-2010 16:06:01 2.1 C 4.53 g/m*3 2.1 C 0 km/h
1641 29-01-2010 16:18:01 2 C 4.5 g/m*3 2 C 0 km/h
1642 29-01-2010 16:30:01 1.8 C 4.55 g/m*3 1.8 C 0 km/h
1643 29-01-2010 16:42:02 1.6 C 4.54 g/m*3 1.6 C 0 km/h
1644 29-01-2010 16:54:01 1.6 C 4.65 g/m*3 1.6 C 0 km/h
1645 29-01-2010 17:06:02 1.5 C 4.67 g/m*3 1.5 C 0 km/h
1646 29-01-2010 17:18:01 1.4 C 4.69 g/m*3 1.4 C 0 km/h
1647 29-01-2010 17:30:01 1.3 C 4.72 g/m*3 1.3 C 0 km/h
1648 29-01-2010 17:42:02 1.3 C 4.72 g/m*3 1.3 C 0 km/h
1649 29-01-2010 17:54:02 1.2 C 4.74 g/m*3 1.2 C 0 km/h
1650 29-01-2010 18:06:01 1 C 4.67 g/m*3 1 C 0 km/h
Sensor: Nr:Datum:Temp:Abs-Feuchte:Windchill:Wind:
Aussen-T/F 1651 29-01-2010 18:18:01 0.9 C 4.69 g/m*3 0.9 C 0 km/h
1652 29-01-2010 18:30:01 0.8 C 4.71 g/m*3 0.8 C 0 km/h
1653 29-01-2010 18:42:01 0.8 C 4.71 g/m*3 0.8 C 0 km/h
1654 29-01-2010 18:54:01 0.7 C 4.73 g/m*3 0.7 C 0 km/h
1655 29-01-2010 19:06:01 0.7 C 4.78 g/m*3 0.7 C 0 km/h
1656 29-01-2010 19:18:01 0.8 C 4.81 g/m*3 0.8 C 0 km/h
1657 29-01-2010 19:30:01 0.8 C 4.81 g/m*3 0.8 C 0 km/h
1658 29-01-2010 19:42:02 0.8 C 4.81 g/m*3 0.8 C 0 km/h
1659 29-01-2010 19:54:01 0.8 C 4.81 g/m*3 0.8 C 0 km/h
1660 29-01-2010 20:06:02 0.8 C 4.81 g/m*3 0.8 C 0 km/h
1661 29-01-2010 20:18:01 0.8 C 4.76 g/m*3 0.8 C 0 km/h
1662 29-01-2010 20:30:01 0.7 C 4.73 g/m*3 0.7 C 0 km/h
1663 29-01-2010 20:42:01 0.7 C 4.68 g/m*3 0.7 C 0 km/h
1664 29-01-2010 20:54:01 0.7 C 4.68 g/m*3 0.7 C 0 km/h
1665 29-01-2010 21:06:01 0.6 C 4.6 g/m*3 0.6 C 0 km/h
1666 29-01-2010 21:18:01 0.5 C 4.51 g/m*3 0.5 C 0 km/h
1667 29-01-2010 21:30:01 0.4 C 4.48 g/m*3 0.4 C 0 km/h
1668 29-01-2010 21:42:01 0.5 C 4.56 g/m*3 0.5 C 0 km/h
1669 29-01-2010 21:54:01 0.4 C 4.48 g/m*3 0.4 C 0 km/h
1670 29-01-2010 22:06:01 0.3 C 4.35 g/m*3 0.3 C 0 km/h
1671 29-01-2010 22:18:01 0.1 C 4.2 g/m*3 0.1 C 0 km/h
1672 29-01-2010 22:30:01 0 C 4.12 g/m*3 0 C 0 km/h
1673 29-01-2010 22:42:01 0.1 C 4.1 g/m*3 0.1 C 0 km/h
1674 29-01-2010 22:54:01 0.2 C 4.13 g/m*3 0.2 C 0 km/h
1675 29-01-2010 23:06:01 0.3 C 4.16 g/m*3 0.3 C 0 km/h
Sensor: Nr:Datum:Temp:Abs-Feuchte:Windchill:Wind:
Aussen-T/F 1676 29-01-2010 23:20:12 0 C 4.12 g/m*3 0 C 0 km/h
1677 29-01-2010 23:32:12 -0.1 C 4.09 g/m*3 -0.1 C 0 km/h
1678 29-01-2010 23:44:12 -0.5 C 3.98 g/m*3 -0.5 C 0 km/h
1679 29-01-2010 23:56:12 -0.4 C 4.01 g/m*3 -0.4 C 0 km/h
1680 30-01-2010 00:08:12 -0.5 C 3.93 g/m*3 -0.5 C 0 km/h
1681 30-01-2010 00:20:12 -0.3 C 3.94 g/m*3 -0.3 C 0 km/h
1682 30-01-2010 00:32:12 -0.3 C 3.84 g/m*3 -0.3 C 0 km/h
1683 30-01-2010 00:44:12 -0.1 C 3.8 g/m*3 -0.1 C 0 km/h
1684 30-01-2010 00:56:12 0.1 C 3.81 g/m*3 0.1 C 0 km/h
1685 30-01-2010 01:08:12 -0.1 C 3.8 g/m*3 -0.1 C 0 km/h
1686 30-01-2010 01:20:12 -0.1 C 3.8 g/m*3 -0.1 C 0 km/h
1687 30-01-2010 01:32:12 -0.1 C 3.8 g/m*3 -0.1 C 0 km/h
1688 30-01-2010 01:44:12 -0.4 C 3.77 g/m*3 -0.4 C 0 km/h
1689 30-01-2010 01:56:12 -0.4 C 3.82 g/m*3 -0.4 C 0 km/h
1690 30-01-2010 02:08:12 -0.6 C 3.81 g/m*3 -0.6 C 0 km/h
1691 30-01-2010 02:20:12 -0.9 C 3.78 g/m*3 -0.9 C 0 km/h
1692 30-01-2010 02:32:12 -0.9 C 3.82 g/m*3 -0.9 C 0 km/h
1693 30-01-2010 02:44:12 -0.9 C 3.82 g/m*3 -0.9 C 0 km/h
1694 30-01-2010 02:56:12 -1 C 3.8 g/m*3 -1 C 0 km/h
1695 30-01-2010 03:08:12 -0.8 C 3.85 g/m*3 -0.8 C 0 km/h
1696 30-01-2010 03:20:12 -0.9 C 3.78 g/m*3 -0.9 C 0 km/h
1697 30-01-2010 03:32:12 -1.3 C 3.67 g/m*3 -1.3 C 0 km/h
1698 30-01-2010 03:44:13 -1.5 C 3.62 g/m*3 -1.5 C 0 km/h
1699 30-01-2010 03:56:13 -1.5 C 3.67 g/m*3 -1.5 C 0 km/h
1700 30-01-2010 04:08:13 -1.3 C 3.67 g/m*3 -1.3 C 0 km/h
Sensor: Nr:Datum:Temp:Abs-Feuchte:Windchill:Wind:
Aussen-T/F 1701 30-01-2010 04:20:13 -1.5 C 3.54 g/m*3 -1.5 C 0 km/h
1702 30-01-2010 04:32:13 -1.5 C 3.49 g/m*3 -1.5 C 0 km/h
1703 30-01-2010 04:44:13 -1.4 C 3.52 g/m*3 -1.4 C 0 km/h
1704 30-01-2010 04:56:13 -1.4 C 3.47 g/m*3 -1.4 C 0 km/h
1705 30-01-2010 05:08:13 -1.4 C 3.47 g/m*3 -1.4 C 0 km/h
1706 30-01-2010 05:20:13 -1.2 C 3.52 g/m*3 -1.2 C 0 km/h
1707 30-01-2010 05:32:13 -0.9 C 3.51 g/m*3 -0.9 C 0 km/h
1708 30-01-2010 05:44:13 -0.9 C 3.46 g/m*3 -0.9 C 0 km/h
1709 30-01-2010 05:56:13 -0.5 C 3.46 g/m*3 -0.5 C 0 km/h
1710 30-01-2010 06:08:13 -0.4 C 3.44 g/m*3 -0.4 C 0 km/h
1711 30-01-2010 06:20:13 -0.3 C 3.42 g/m*3 -0.3 C 0 km/h
1712 30-01-2010 06:32:13 -0.1 C 3.51 g/m*3 -0.1 C 0 km/h
1713 30-01-2010 06:44:13 -0.1 C 3.51 g/m*3 -0.1 C 0 km/h
1714 30-01-2010 06:56:13 0.1 C 3.42 g/m*3 0.1 C 0 km/h
1715 30-01-2010 07:08:13 -0.1 C 3.42 g/m*3 -0.1 C 0 km/h
1716 30-01-2010 07:20:13 -0.1 C 3.42 g/m*3 -0.1 C 0 km/h
1717 30-01-2010 07:32:13 -0.1 C 3.42 g/m*3 -0.1 C 0 km/h
1718 30-01-2010 07:44:13 -0.2 C 3.44 g/m*3 -0.2 C 0 km/h
1719 30-01-2010 07:56:02 -0.2 C 3.49 g/m*3 -0.2 C 0 km/h
1720 30-01-2010 08:08:02 -0.2 C 3.49 g/m*3 -0.2 C 0 km/h
1721 30-01-2010 08:20:02 -0.1 C 3.51 g/m*3 -0.1 C 0 km/h
1722 30-01-2010 08:32:02 -0.2 C 3.68 g/m*3 -0.2 C 0 km/h
1723 30-01-2010 08:44:02 -0.3 C 3.7 g/m*3 -0.3 C 0 km/h
1724 30-01-2010 08:56:03 -0.4 C 3.72 g/m*3 -0.4 C 0 km/h
1725 30-01-2010 09:08:02 -0.4 C 3.77 g/m*3 -0.4 C 0 km/h
Sensor: Nr:Datum:Temp:Abs-Feuchte:Windchill:Wind:
Aussen-T/F 1726 30-01-2010 09:20:02 -0.4 C 3.72 g/m*3 -0.4 C 0 km/h
1727 30-01-2010 09:32:03 -0.3 C 3.7 g/m*3 -0.3 C 0 km/h
1728 30-01-2010 09:44:03 0 C 3.68 g/m*3 0 C 0 km/h
1729 30-01-2010 09:56:02 0.1 C 3.61 g/m*3 0.1 C 0 km/h
1730 30-01-2010 10:08:02 0 C 3.59 g/m*3 0 C 0 km/h
1731 30-01-2010 10:20:02 0 C 3.63 g/m*3 0 C 0 km/h
1732 30-01-2010 10:32:02 -0.1 C 3.61 g/m*3 -0.1 C 0 km/h
1733 30-01-2010 10:44:02 -0.1 C 3.75 g/m*3 -0.1 C 0 km/h
1734 30-01-2010 10:56:02 -0.1 C 3.9 g/m*3 -0.1 C 0 km/h
1735 30-01-2010 11:08:02 -0.4 C 3.91 g/m*3 -0.4 C 0 km/h
1736 30-01-2010 11:20:02 -0.5 C 3.93 g/m*3 -0.5 C 0 km/h
1737 30-01-2010 11:32:02 -0.3 C 4.03 g/m*3 -0.3 C 0 km/h
1738 30-01-2010 11:44:02 0 C 4.02 g/m*3 0 C 0 km/h
1739 30-01-2010 11:56:01 0.4 C 3.98 g/m*3 0.4 C 0 km/h
1740 30-01-2010 12:08:02 0.2 C 3.88 g/m*3 0.2 C 0 km/h
1741 30-01-2010 12:20:02 -0.2 C 3.92 g/m*3 -0.2 C 0 km/h
1742 30-01-2010 12:32:01 -0.4 C 4.01 g/m*3 -0.4 C 0 km/h
1743 30-01-2010 12:44:01 -0.3 C 4.08 g/m*3 -0.3 C 0 km/h
1744 30-01-2010 12:56:01 -0.2 C 4.01 g/m*3 -0.2 C 0 km/h
1745 30-01-2010 13:08:01 0 C 3.88 g/m*3 0 C 0 km/h
1746 30-01-2010 13:20:02 0 C 3.63 g/m*3 0 C 0 km/h
1747 30-01-2010 13:32:01 -0.2 C 3.49 g/m*3 -0.2 C 0 km/h
1748 30-01-2010 13:44:01 0.3 C 3.56 g/m*3 0.3 C 0 km/h
1749 30-01-2010 13:56:02 0.5 C 3.46 g/m*3 0.5 C 0 km/h
1750 30-01-2010 14:08:01 0.6 C 3.48 g/m*3 0.6 C 0 km/h
Sensor: Nr:Datum:Temp:Abs-Feuchte:Windchill:Wind:
Aussen-T/F 1751 30-01-2010 14:20:02 0.5 C 3.41 g/m*3 0.5 C 0 km/h
1752 30-01-2010 14:32:01 0.4 C 3.44 g/m*3 0.4 C 0 km/h
1753 30-01-2010 14:44:01 0.3 C 3.51 g/m*3 0.3 C 0 km/h
1754 30-01-2010 14:56:03 -1.1 C 3.41 g/m*3 -1.1 C 0 km/h
1755 30-01-2010 15:08:02 -1.3 C 3.5 g/m*3 -1.3 C 0 km/h
1756 30-01-2010 15:20:02 -1.1 C 3.59 g/m*3 -1.1 C 0 km/h
1757 30-01-2010 15:32:02 -0.9 C 3.6 g/m*3 -0.9 C 0 km/h
1758 30-01-2010 15:44:02 -0.7 C 3.6 g/m*3 -0.7 C 0 km/h
1759 30-01-2010 15:56:02 -0.9 C 3.41 g/m*3 -0.9 C 0 km/h
1760 30-01-2010 16:08:02 -1.3 C 3.19 g/m*3 -1.3 C 0 km/h
1761 30-01-2010 16:20:02 -1.4 C 3.21 g/m*3 -1.4 C 0 km/h
1762 30-01-2010 16:32:01 -1.6 C 3.21 g/m*3 -1.6 C 0 km/h
1763 30-01-2010 16:44:01 -1.5 C 3.27 g/m*3 -1.5 C 0 km/h
1764 30-01-2010 16:56:02 -1.5 C 3.32 g/m*3 -1.5 C 0 km/h
1765 30-01-2010 17:08:01 -1.6 C 3.34 g/m*3 -1.6 C 0 km/h
1766 30-01-2010 17:20:02 -1.7 C 3.36 g/m*3 -1.7 C 0 km/h
1767 30-01-2010 17:32:02 -2 C 3.29 g/m*3 -2 C 0 km/h
1768 30-01-2010 17:44:02 -2.4 C 3.16 g/m*3 -2.4 C 0 km/h
1769 30-01-2010 17:56:02 -2.6 C 3.15 g/m*3 -2.6 C 0 km/h
1770 30-01-2010 18:08:02 -2.4 C 3.24 g/m*3 -2.4 C 0 km/h
1771 30-01-2010 18:20:02 -2.4 C 3.24 g/m*3 -2.4 C 0 km/h
1772 30-01-2010 18:32:03 -2.3 C 3.26 g/m*3 -2.3 C 0 km/h
1773 30-01-2010 18:44:03 -2.4 C 3.2 g/m*3 -2.4 C 0 km/h
1774 30-01-2010 18:56:02 -2.6 C 3.11 g/m*3 -2.6 C 0 km/h
1775 30-01-2010 19:08:01 -2.9 C 3.05 g/m*3 -2.9 C 0 km/h
Sensor: Nr:Datum:Temp:Abs-Feuchte:Windchill:Wind:
Aussen-T/F 1776 30-01-2010 19:20:02 -3.1 C 3 g/m*3 -3.1 C 0 km/h
1777 30-01-2010 19:32:02 -3.3 C 2.96 g/m*3 -3.3 C 0 km/h
1778 30-01-2010 19:44:02 -3.5 C 2.92 g/m*3 -3.5 C 0 km/h
1779 30-01-2010 19:56:01 -3.7 C 2.92 g/m*3 -3.7 C 0 km/h
1780 30-01-2010 20:08:02 -4 C 2.85 g/m*3 -4 C 0 km/h
1781 30-01-2010 20:20:01 -4.2 C 2.81 g/m*3 -4.2 C 0 km/h
1782 30-01-2010 20:32:02 -4.5 C 2.75 g/m*3 -4.5 C 0 km/h
1783 30-01-2010 20:44:02 -4.9 C 2.68 g/m*3 -4.9 C 0 km/h
1784 30-01-2010 20:56:02 -4.7 C 2.75 g/m*3 -4.7 C 0 km/h
1785 30-01-2010 21:08:02 -4.3 C 2.86 g/m*3 -4.3 C 0 km/h
1786 30-01-2010 21:20:02 -4.1 C 2.91 g/m*3 -4.1 C 0 km/h
1787 30-01-2010 21:32:02 -4.2 C 2.89 g/m*3 -4.2 C 0 km/h
1788 30-01-2010 21:44:02 -4.6 C 2.77 g/m*3 -4.6 C 0 km/h
1789 30-01-2010 21:56:02 -5.1 C 2.64 g/m*3 -5.1 C 0 km/h
1790 30-01-2010 22:08:02 -5.6 C 2.54 g/m*3 -5.6 C 0 km/h
1791 30-01-2010 22:21:03 -5.9 C 2.49 g/m*3 -5.9 C 0 km/h
1792 30-01-2010 22:33:04 -5.7 C 2.56 g/m*3 -5.7 C 0 km/h
1793 30-01-2010 22:45:04 -6 C 2.5 g/m*3 -6 C 0 km/h
1794 30-01-2010 22:57:04 -6.1 C 2.48 g/m*3 -6.1 C 0 km/h
1795 30-01-2010 23:09:04 -6.3 C 2.45 g/m*3 -6.3 C 0 km/h
1796 30-01-2010 23:21:04 -6.2 C 2.47 g/m*3 -6.2 C 0 km/h
1797 30-01-2010 23:33:04 -6.4 C 2.43 g/m*3 -6.4 C 0 km/h
1798 30-01-2010 23:45:04 -6.4 C 2.43 g/m*3 -6.4 C 0 km/h
1799 30-01-2010 23:57:04 -6.3 C 2.48 g/m*3 -6.3 C 0 km/h
1800 31-01-2010 00:09:04 -6.2 C 2.5 g/m*3 -6.2 C 0 km/h
Sensor: Nr:Datum:Temp:Abs-Feuchte:Windchill:Wind:
Aussen-T/F 1801 31-01-2010 00:21:04 -6.1 C 2.52 g/m*3 -6.1 C 0 km/h
1802 31-01-2010 00:33:04 -6 C 2.53 g/m*3 -6 C 0 km/h
1803 31-01-2010 00:45:04 -6 C 2.5 g/m*3 -6 C 0 km/h
1804 31-01-2010 00:57:04 -5.6 C 2.58 g/m*3 -5.6 C 0 km/h
1805 31-01-2010 01:09:04 -5.1 C 2.67 g/m*3 -5.1 C 0 km/h
1806 31-01-2010 01:21:04 -5 C 2.69 g/m*3 -5 C 0 km/h
1807 31-01-2010 01:33:04 -4.7 C 2.71 g/m*3 -4.7 C 0 km/h
1808 31-01-2010 01:45:04 -4.6 C 2.73 g/m*3 -4.6 C 0 km/h
1809 31-01-2010 01:57:04 -4.6 C 2.8 g/m*3 -4.6 C 0 km/h
1810 31-01-2010 02:09:04 -4.4 C 2.88 g/m*3 -4.4 C 0 km/h
1811 31-01-2010 02:21:04 -4.3 C 2.94 g/m*3 -4.3 C 0 km/h
1812 31-01-2010 02:33:04 -4.2 C 2.96 g/m*3 -4.2 C 0 km/h
1813 31-01-2010 02:45:04 -4.2 C 2.99 g/m*3 -4.2 C 0 km/h
1814 31-01-2010 02:57:05 -4.2 C 3.03 g/m*3 -4.2 C 0 km/h
1815 31-01-2010 03:09:05 -4 C 3.07 g/m*3 -4 C 0 km/h
1816 31-01-2010 03:21:05 -3.9 C 3.06 g/m*3 -3.9 C 0 km/h
1817 31-01-2010 03:33:05 -3.7 C 3.1 g/m*3 -3.7 C 0 km/h
1818 31-01-2010 03:45:05 -3.5 C 3.11 g/m*3 -3.5 C 0 km/h
1819 31-01-2010 03:57:05 -3.5 C 3.15 g/m*3 -3.5 C 0 km/h
1820 31-01-2010 04:09:05 -3.4 C 3.17 g/m*3 -3.4 C 0 km/h
1821 31-01-2010 04:21:05 -3.4 C 3.17 g/m*3 -3.4 C 0 km/h
1822 31-01-2010 04:33:05 -3.3 C 3.19 g/m*3 -3.3 C 0 km/h
1823 31-01-2010 04:45:05 -3.2 C 3.18 g/m*3 -3.2 C 0 km/h
1824 31-01-2010 04:57:05 -3.2 C 3.18 g/m*3 -3.2 C 0 km/h
1825 31-01-2010 05:09:05 -3.2 C 3.21 g/m*3 -3.2 C 0 km/h
Sensor: Nr:Datum:Temp:Abs-Feuchte:Windchill:Wind:
Aussen-T/F 1826 31-01-2010 05:21:05 -3.1 C 3.24 g/m*3 -3.1 C 0 km/h
1827 31-01-2010 05:33:05 -2.9 C 3.24 g/m*3 -2.9 C 0 km/h
1828 31-01-2010 05:45:05 -2.9 C 3.24 g/m*3 -2.9 C 0 km/h
1829 31-01-2010 05:57:05 -2.9 C 3.24 g/m*3 -2.9 C 0 km/h
1830 31-01-2010 06:09:05 -2.8 C 3.27 g/m*3 -2.8 C 0 km/h
1831 31-01-2010 06:21:05 -2.8 C 3.27 g/m*3 -2.8 C 0 km/h
1832 31-01-2010 06:33:05 -2.8 C 3.27 g/m*3 -2.8 C 0 km/h
1833 31-01-2010 06:45:05 -2.8 C 3.27 g/m*3 -2.8 C 0 km/h
1834 31-01-2010 06:57:05 -2.7 C 3.29 g/m*3 -2.7 C 0 km/h
1835 31-01-2010 07:09:05 -2.6 C 3.31 g/m*3 -2.6 C 0 km/h
1836 31-01-2010 07:21:05 -2.6 C 3.31 g/m*3 -2.6 C 0 km/h
1837 31-01-2010 07:33:06 -2.6 C 3.31 g/m*3 -2.6 C 0 km/h
1838 31-01-2010 07:45:06 -2.5 C 3.3 g/m*3 -2.5 C 0 km/h
1839 31-01-2010 07:57:06 -2.5 C 3.3 g/m*3 -2.5 C 0 km/h
1840 31-01-2010 08:09:06 -2.4 C 3.36 g/m*3 -2.4 C 0 km/h
1841 31-01-2010 08:21:06 -2.4 C 3.4 g/m*3 -2.4 C 0 km/h
1842 31-01-2010 08:33:03 -2.4 C 3.36 g/m*3 -2.4 C 0 km/h
1843 31-01-2010 08:45:02 -2.4 C 3.36 g/m*3 -2.4 C 0 km/h
1844 31-01-2010 08:57:02 -2.4 C 3.36 g/m*3 -2.4 C 0 km/h
1845 31-01-2010 09:09:02 -2.1 C 3.43 g/m*3 -2.1 C 0 km/h
1846 31-01-2010 09:21:02 -2 C 3.41 g/m*3 -2 C 0 km/h
1847 31-01-2010 09:33:01 -2.2 C 3.33 g/m*3 -2.2 C 0 km/h
1848 31-01-2010 09:45:02 -2 C 3.33 g/m*3 -2 C 0 km/h
1849 31-01-2010 09:57:02 -1.8 C 3.33 g/m*3 -1.8 C 0 km/h
1850 31-01-2010 10:09:01 -1.6 C 3.38 g/m*3 -1.6 C 0 km/h
Sensor: Nr:Datum:Temp:Abs-Feuchte:Windchill:Wind:
Aussen-T/F 1851 31-01-2010 10:21:02 -1.7 C 3.31 g/m*3 -1.7 C 0 km/h
1852 31-01-2010 10:33:01 -1.7 C 3.27 g/m*3 -1.7 C 0 km/h
1853 31-01-2010 10:45:02 -1.7 C 3.27 g/m*3 -1.7 C 0 km/h
1854 31-01-2010 10:57:02 -1.6 C 3.29 g/m*3 -1.6 C 0 km/h
1855 31-01-2010 11:09:02 -1.4 C 3.34 g/m*3 -1.4 C 0 km/h
1856 31-01-2010 11:21:02 -1.1 C 3.41 g/m*3 -1.1 C 0 km/h
1857 31-01-2010 11:33:03 -0.7 C 3.42 g/m*3 -0.7 C 0 km/h
1858 31-01-2010 11:45:02 -0.6 C 3.39 g/m*3 -0.6 C 0 km/h
1859 31-01-2010 11:57:03 -0.4 C 3.44 g/m*3 -0.4 C 0 km/h
1860 31-01-2010 12:09:01 -0.2 C 3.44 g/m*3 -0.2 C 0 km/h
1861 31-01-2010 12:21:02 0.2 C 3.54 g/m*3 0.2 C 0 km/h
1862 31-01-2010 12:33:02 0.7 C 3.61 g/m*3 0.7 C 0 km/h
1863 31-01-2010 12:45:02 1.1 C 3.5 g/m*3 1.1 C 0 km/h
1864 31-01-2010 12:57:02 1.3 C 3.5 g/m*3 1.3 C 0 km/h
1865 31-01-2010 13:09:03 1.6 C 3.46 g/m*3 1.6 C 0 km/h
1866 31-01-2010 13:21:02 1.7 C 3.38 g/m*3 1.7 C 0 km/h
1867 31-01-2010 13:33:03 2 C 3.28 g/m*3 2 C 0 km/h
1868 31-01-2010 13:45:02 2 C 3.22 g/m*3 2 C 0 km/h
1869 31-01-2010 13:57:02 2.2 C 3.15 g/m*3 2.2 C 0 km/h
1870 31-01-2010 14:09:02 2.1 C 3.08 g/m*3 2.1 C 0 km/h
1871 31-01-2010 14:21:01 2.2 C 3.15 g/m*3 2.2 C 0 km/h
1872 31-01-2010 14:33:02 2.4 C 3.14 g/m*3 2.4 C 0 km/h
1873 31-01-2010 14:45:02 2.2 C 2.99 g/m*3 2.2 C 0 km/h
1874 31-01-2010 14:57:02 2.2 C 2.93 g/m*3 2.2 C 0 km/h
1875 31-01-2010 15:09:02 1.7 C 2.94 g/m*3 1.7 C 0 km/h
Sensor: Nr:Datum:Temp:Abs-Feuchte:Windchill:Wind:
Aussen-T/F 1876 31-01-2010 15:21:02 1.3 C 2.97 g/m*3 1.3 C 0 km/h
1877 31-01-2010 15:33:02 1.1 C 2.93 g/m*3 1.1 C 0 km/h
1878 31-01-2010 15:45:02 1.1 C 3.03 g/m*3 1.1 C 0 km/h
1879 31-01-2010 15:57:02 1.3 C 3.13 g/m*3 1.3 C 0 km/h
1880 31-01-2010 16:09:02 1.2 C 3.1 g/m*3 1.2 C 0 km/h
1881 31-01-2010 16:21:02 0.8 C 3.12 g/m*3 0.8 C 0 km/h
1882 31-01-2010 16:33:02 0.7 C 3.1 g/m*3 0.7 C 0 km/h
1883 31-01-2010 16:45:02 0.7 C 3.15 g/m*3 0.7 C 0 km/h
1884 31-01-2010 16:57:02 0.5 C 3.11 g/m*3 0.5 C 0 km/h
1885 31-01-2010 17:09:03 0.3 C 3.07 g/m*3 0.3 C 0 km/h
1886 31-01-2010 17:21:02 0 C 3.15 g/m*3 0 C 0 km/h
1887 31-01-2010 17:33:02 -0.4 C 3.11 g/m*3 -0.4 C 0 km/h
1888 31-01-2010 17:45:01 -0.6 C 3.11 g/m*3 -0.6 C 0 km/h
1889 31-01-2010 17:57:01 -1 C 3.07 g/m*3 -1 C 0 km/h
1890 31-01-2010 18:09:02 -1.1 C 3.14 g/m*3 -1.1 C 0 km/h
1891 31-01-2010 18:21:01 -1.3 C 3.1 g/m*3 -1.3 C 0 km/h
1892 31-01-2010 18:33:01 -1.5 C 3.1 g/m*3 -1.5 C 0 km/h
1893 31-01-2010 18:45:01 -1.7 C 3.1 g/m*3 -1.7 C 0 km/h
1894 31-01-2010 18:57:01 -1.8 C 3.16 g/m*3 -1.8 C 0 km/h
1895 31-01-2010 19:09:02 -1.8 C 3.16 g/m*3 -1.8 C 0 km/h
1896 31-01-2010 19:21:01 -1.8 C 3.12 g/m*3 -1.8 C 0 km/h
1897 31-01-2010 19:33:02 -1.9 C 3.1 g/m*3 -1.9 C 0 km/h
1898 31-01-2010 19:45:01 -1.8 C 3.12 g/m*3 -1.8 C 0 km/h
1899 31-01-2010 19:57:01 -2.1 C 3.06 g/m*3 -2.1 C 0 km/h
1900 31-01-2010 20:09:02 -2.1 C 3.14 g/m*3 -2.1 C 0 km/h
Sensor: Nr:Datum:Temp:Abs-Feuchte:Windchill:Wind:
Aussen-T/F 1901 31-01-2010 20:21:01 -1.9 C 3.18 g/m*3 -1.9 C 0 km/h
1902 31-01-2010 20:33:02 -2 C 3.16 g/m*3 -2 C 0 km/h
1903 31-01-2010 20:45:01 -2 C 3.2 g/m*3 -2 C 0 km/h
1904 31-01-2010 20:57:01 -2 C 3.2 g/m*3 -2 C 0 km/h
1905 31-01-2010 21:09:02 -1.8 C 3.25 g/m*3 -1.8 C 0 km/h
1906 31-01-2010 21:21:01 -1.6 C 3.29 g/m*3 -1.6 C 0 km/h
1907 31-01-2010 21:33:02 -1.5 C 3.32 g/m*3 -1.5 C 0 km/h
1908 31-01-2010 21:45:01 -1.3 C 3.32 g/m*3 -1.3 C 0 km/h
1909 31-01-2010 21:57:01 -1.1 C 3.37 g/m*3 -1.1 C 0 km/h
1910 31-01-2010 22:09:02 -0.8 C 3.39 g/m*3 -0.8 C 0 km/h
1911 31-01-2010 22:21:02 -0.6 C 3.39 g/m*3 -0.6 C 0 km/h
1912 31-01-2010 22:33:01 -0.6 C 3.35 g/m*3 -0.6 C 0 km/h
1913 31-01-2010 22:46:02 -0.7 C 3.32 g/m*3 -0.7 C 0 km/h
1914 31-01-2010 22:58:02 -0.7 C 3.37 g/m*3 -0.7 C 0 km/h
1915 31-01-2010 23:10:02 -0.6 C 3.39 g/m*3 -0.6 C 0 km/h
1916 31-01-2010 23:22:02 -0.5 C 3.37 g/m*3 -0.5 C 0 km/h
1917 31-01-2010 23:34:02 -0.6 C 3.35 g/m*3 -0.6 C 0 km/h
1918 31-01-2010 23:46:02 -0.7 C 3.37 g/m*3 -0.7 C 0 km/h
1919 31-01-2010 23:58:02 -0.7 C 3.42 g/m*3 -0.7 C 0 km/h
1920 01-02-2010 00:10:02 -0.8 C 3.39 g/m*3 -0.8 C 0 km/h
1921 01-02-2010 00:22:02 -1 C 3.35 g/m*3 -1 C 0 km/h
1922 01-02-2010 00:34:02 -1.1 C 3.32 g/m*3 -1.1 C 0 km/h
1923 01-02-2010 00:46:02 -0.7 C 3.42 g/m*3 -0.7 C 0 km/h
1924 01-02-2010 00:58:03 -0.7 C 3.37 g/m*3 -0.7 C 0 km/h
1925 01-02-2010 01:10:03 -0.6 C 3.35 g/m*3 -0.6 C 0 km/h
Sensor: Nr:Datum:Temp:Abs-Feuchte:Windchill:Wind:
Aussen-T/F 1926 01-02-2010 01:22:03 -0.5 C 3.37 g/m*3 -0.5 C 0 km/h
1927 01-02-2010 01:34:03 -0.5 C 3.37 g/m*3 -0.5 C 0 km/h
1928 01-02-2010 01:46:03 -0.4 C 3.35 g/m*3 -0.4 C 0 km/h
1929 01-02-2010 01:58:03 -0.4 C 3.35 g/m*3 -0.4 C 0 km/h
1930 01-02-2010 02:10:03 -0.6 C 3.25 g/m*3 -0.6 C 0 km/h
1931 01-02-2010 02:22:03 -0.8 C 3.25 g/m*3 -0.8 C 0 km/h
1932 01-02-2010 02:34:03 -0.8 C 3.25 g/m*3 -0.8 C 0 km/h
1933 01-02-2010 02:46:03 -0.8 C 3.25 g/m*3 -0.8 C 0 km/h
1934 01-02-2010 02:58:03 -0.8 C 3.25 g/m*3 -0.8 C 0 km/h
1935 01-02-2010 03:10:03 -0.7 C 3.28 g/m*3 -0.7 C 0 km/h
1936 01-02-2010 03:22:03 -0.8 C 3.25 g/m*3 -0.8 C 0 km/h
1937 01-02-2010 03:34:03 -0.8 C 3.25 g/m*3 -0.8 C 0 km/h
1938 01-02-2010 03:46:03 -0.7 C 3.32 g/m*3 -0.7 C 0 km/h
1939 01-02-2010 03:58:03 -0.8 C 3.25 g/m*3 -0.8 C 0 km/h
1940 01-02-2010 04:10:03 -0.8 C 3.25 g/m*3 -0.8 C 0 km/h
1941 01-02-2010 04:22:03 -0.9 C 3.28 g/m*3 -0.9 C 0 km/h
1942 01-02-2010 04:34:03 -1 C 3.25 g/m*3 -1 C 0 km/h
1943 01-02-2010 04:46:03 -0.8 C 3.3 g/m*3 -0.8 C 0 km/h
1944 01-02-2010 04:58:03 -0.7 C 3.28 g/m*3 -0.7 C 0 km/h
1945 01-02-2010 05:10:03 -0.7 C 3.28 g/m*3 -0.7 C 0 km/h
1946 01-02-2010 05:22:04 -0.6 C 3.3 g/m*3 -0.6 C 0 km/h
1947 01-02-2010 05:34:04 -0.5 C 3.32 g/m*3 -0.5 C 0 km/h
1948 01-02-2010 05:46:04 -0.4 C 3.35 g/m*3 -0.4 C 0 km/h
1949 01-02-2010 05:58:04 -0.4 C 3.35 g/m*3 -0.4 C 0 km/h
1950 01-02-2010 06:10:04 -0.4 C 3.35 g/m*3 -0.4 C 0 km/h
Sensor: Nr:Datum:Temp:Abs-Feuchte:Windchill:Wind:
Aussen-T/F 1951 01-02-2010 06:22:04 -0.4 C 3.35 g/m*3 -0.4 C 0 km/h
1952 01-02-2010 06:34:04 -0.3 C 3.37 g/m*3 -0.3 C 0 km/h
1953 01-02-2010 06:46:04 -0.3 C 3.37 g/m*3 -0.3 C 0 km/h
1954 01-02-2010 06:58:04 -0.4 C 3.35 g/m*3 -0.4 C 0 km/h
1955 01-02-2010 07:10:02 -0.5 C 3.37 g/m*3 -0.5 C 0 km/h
1956 01-02-2010 07:22:03 -0.7 C 3.32 g/m*3 -0.7 C 0 km/h
1957 01-02-2010 07:34:02 -0.7 C 3.37 g/m*3 -0.7 C 0 km/h
1958 01-02-2010 07:46:02 -0.6 C 3.39 g/m*3 -0.6 C 0 km/h
1959 01-02-2010 07:58:02 -0.5 C 3.42 g/m*3 -0.5 C 0 km/h
1960 01-02-2010 08:10:02 -0.4 C 3.39 g/m*3 -0.4 C 0 km/h
1961 01-02-2010 08:22:02 -0.4 C 3.44 g/m*3 -0.4 C 0 km/h
1962 01-02-2010 08:34:02 -0.4 C 3.39 g/m*3 -0.4 C 0 km/h
1963 01-02-2010 08:46:02 -0.4 C 3.39 g/m*3 -0.4 C 0 km/h
1964 01-02-2010 08:58:02 -0.4 C 3.39 g/m*3 -0.4 C 0 km/h
1965 01-02-2010 09:10:02 -0.4 C 3.39 g/m*3 -0.4 C 0 km/h
1966 01-02-2010 09:22:02 -0.3 C 3.37 g/m*3 -0.3 C 0 km/h
1967 01-02-2010 09:34:02 -0.3 C 3.37 g/m*3 -0.3 C 0 km/h
1968 01-02-2010 09:46:02 -0.2 C 3.39 g/m*3 -0.2 C 0 km/h
1969 01-02-2010 09:58:02 -0.2 C 3.39 g/m*3 -0.2 C 0 km/h
1970 01-02-2010 10:10:02 -0.1 C 3.37 g/m*3 -0.1 C 0 km/h
1971 01-02-2010 10:22:02 0.2 C 3.44 g/m*3 0.2 C 0 km/h
1972 01-02-2010 10:34:01 0.2 C 3.34 g/m*3 0.2 C 0 km/h
1973 01-02-2010 10:46:02 0.3 C 3.36 g/m*3 0.3 C 0 km/h
1974 01-02-2010 10:58:02 0.3 C 3.31 g/m*3 0.3 C 0 km/h
1975 01-02-2010 11:10:01 0.5 C 3.31 g/m*3 0.5 C 0 km/h
Sensor: Nr:Datum:Temp:Abs-Feuchte:Windchill:Wind:
Aussen-T/F 1976 01-02-2010 11:22:02 0.5 C 3.26 g/m*3 0.5 C 0 km/h
1977 01-02-2010 11:34:01 0.7 C 3.3 g/m*3 0.7 C 0 km/h
1978 01-02-2010 11:46:02 1 C 3.22 g/m*3 1 C 0 km/h
1979 01-02-2010 11:58:02 1 C 3.22 g/m*3 1 C 0 km/h
1980 01-02-2010 12:10:02 1.4 C 3.31 g/m*3 1.4 C 0 km/h
1981 01-02-2010 12:22:02 1.3 C 3.23 g/m*3 1.3 C 0 km/h
1982 01-02-2010 12:34:02 1.7 C 3.32 g/m*3 1.7 C 0 km/h
1983 01-02-2010 12:46:02 1.5 C 3.28 g/m*3 1.5 C 0 km/h
1984 01-02-2010 12:58:02 1.5 C 3.28 g/m*3 1.5 C 0 km/h
1985 01-02-2010 13:10:01 1.4 C 3.25 g/m*3 1.4 C 0 km/h
1986 01-02-2010 13:22:02 1.6 C 3.3 g/m*3 1.6 C 0 km/h
1987 01-02-2010 13:34:01 1.7 C 3.32 g/m*3 1.7 C 0 km/h
1988 01-02-2010 13:46:02 2.3 C 3.29 g/m*3 2.3 C 0 km/h
1989 01-02-2010 13:58:02 2.3 C 3.18 g/m*3 2.3 C 0 km/h
1990 01-02-2010 14:10:01 2.4 C 3.25 g/m*3 2.4 C 0 km/h
1991 01-02-2010 14:22:01 2.4 C 3.25 g/m*3 2.4 C 0 km/h
1992 01-02-2010 14:34:02 2.1 C 3.24 g/m*3 2.1 C 0 km/h
1993 01-02-2010 14:46:02 1.5 C 3.44 g/m*3 1.5 C 0 km/h
1994 01-02-2010 14:58:03 1.4 C 3.68 g/m*3 1.4 C 0 km/h
1995 01-02-2010 15:10:01 1.3 C 3.71 g/m*3 1.3 C 0 km/h
1996 01-02-2010 15:22:02 1.8 C 3.73 g/m*3 1.8 C 0 km/h
1997 01-02-2010 15:34:02 1.5 C 3.71 g/m*3 1.5 C 0 km/h
1998 01-02-2010 15:46:02 1.1 C 3.81 g/m*3 1.1 C 0 km/h
1999 01-02-2010 15:58:02 0.9 C 3.92 g/m*3 0.9 C 0 km/h
2000 01-02-2010 16:10:01 0.7 C 4.02 g/m*3 0.7 C 0 km/h
Sensor: Nr:Datum:Temp:Abs-Feuchte:Windchill:Wind:
Aussen-T/F 2001 01-02-2010 16:22:02 0.7 C 4.12 g/m*3 0.7 C 0 km/h
2002 01-02-2010 16:34:01 0.7 C 4.12 g/m*3 0.7 C 0 km/h
2003 01-02-2010 16:46:03 0.8 C 4.1 g/m*3 0.8 C 0 km/h
2004 01-02-2010 16:58:03 1 C 4 g/m*3 1 C 0 km/h
2005 01-02-2010 17:10:03 0.8 C 4.04 g/m*3 0.8 C 0 km/h
2006 01-02-2010 17:22:02 0.4 C 4.13 g/m*3 0.4 C 0 km/h
2007 01-02-2010 17:34:03 0.4 C 4.28 g/m*3 0.4 C 0 km/h
2008 01-02-2010 17:46:01 0.4 C 4.33 g/m*3 0.4 C 0 km/h
2009 01-02-2010 17:58:01 0.3 C 4.3 g/m*3 0.3 C 0 km/h
2010 01-02-2010 18:10:02 0.2 C 4.32 g/m*3 0.2 C 0 km/h
2011 01-02-2010 18:22:02 0.2 C 4.37 g/m*3 0.2 C 0 km/h
2012 01-02-2010 18:34:02 0.2 C 4.42 g/m*3 0.2 C 0 km/h
2013 01-02-2010 18:46:02 0.2 C 4.47 g/m*3 0.2 C 0 km/h
2014 01-02-2010 18:58:02 0.2 C 4.52 g/m*3 0.2 C 0 km/h
2015 01-02-2010 19:10:02 0.3 C 4.55 g/m*3 0.3 C 0 km/h
2016 01-02-2010 19:22:02 0.3 C 4.55 g/m*3 0.3 C 0 km/h
2017 01-02-2010 19:34:01 0.3 C 4.5 g/m*3 0.3 C 0 km/h
2018 01-02-2010 19:46:02 0.3 C 4.5 g/m*3 0.3 C 0 km/h
2019 01-02-2010 19:58:02 0.5 C 4.56 g/m*3 0.5 C 0 km/h
2020 01-02-2010 20:10:01 0.5 C 4.51 g/m*3 0.5 C 0 km/h
2021 01-02-2010 20:22:02 0.5 C 4.46 g/m*3 0.5 C 0 km/h
2022 01-02-2010 20:34:01 0.5 C 4.41 g/m*3 0.5 C 0 km/h
2023 01-02-2010 20:46:02 0.3 C 4.35 g/m*3 0.3 C 0 km/h
2024 01-02-2010 20:58:02 0.3 C 4.35 g/m*3 0.3 C 0 km/h
2025 01-02-2010 21:10:01 0.2 C 4.32 g/m*3 0.2 C 0 km/h
Sensor: Nr:Datum:Temp:Abs-Feuchte:Windchill:Wind:
Aussen-T/F 2026 01-02-2010 21:22:02 0.3 C 4.35 g/m*3 0.3 C 0 km/h
2027 01-02-2010 21:34:01 0.3 C 4.35 g/m*3 0.3 C 0 km/h
2028 01-02-2010 21:46:03 0.2 C 4.32 g/m*3 0.2 C 0 km/h
2029 01-02-2010 21:58:03 0.2 C 4.32 g/m*3 0.2 C 0 km/h
2030 01-02-2010 22:10:02 0.2 C 4.37 g/m*3 0.2 C 0 km/h
2031 01-02-2010 22:23:02 0.2 C 4.37 g/m*3 0.2 C 0 km/h
2032 01-02-2010 22:35:02 0.5 C 4.51 g/m*3 0.5 C 0 km/h
2033 01-02-2010 22:47:02 0.5 C 4.46 g/m*3 0.5 C 0 km/h
2034 01-02-2010 22:59:02 0.5 C 4.46 g/m*3 0.5 C 0 km/h
2035 01-02-2010 23:11:02 0.4 C 4.33 g/m*3 0.4 C 0 km/h
2036 01-02-2010 23:23:03 0.4 C 4.28 g/m*3 0.4 C 0 km/h
2037 01-02-2010 23:35:03 0.3 C 4.25 g/m*3 0.3 C 0 km/h
2038 01-02-2010 23:47:03 0.3 C 4.3 g/m*3 0.3 C 0 km/h
2039 01-02-2010 23:59:03 0.3 C 4.3 g/m*3 0.3 C 0 km/h
2040 02-02-2010 00:11:03 0.3 C 4.11 g/m*3 0.3 C 0 km/h
2041 02-02-2010 00:23:03 0.4 C 3.84 g/m*3 0.4 C 0 km/h
2042 02-02-2010 00:35:03 0.2 C 3.68 g/m*3 0.2 C 0 km/h
2043 02-02-2010 00:47:03 0.1 C 3.66 g/m*3 0.1 C 0 km/h
2044 02-02-2010 00:59:03 -0.1 C 3.56 g/m*3 -0.1 C 0 km/h
2045 02-02-2010 01:11:03 -0.3 C 3.51 g/m*3 -0.3 C 0 km/h
2046 02-02-2010 01:23:03 -0.5 C 3.51 g/m*3 -0.5 C 0 km/h
2047 02-02-2010 01:35:03 -0.8 C 3.48 g/m*3 -0.8 C 0 km/h
2048 02-02-2010 01:47:03 -0.7 C 3.6 g/m*3 -0.7 C 0 km/h
2049 02-02-2010 01:59:03 -0.6 C 3.63 g/m*3 -0.6 C 0 km/h
2050 02-02-2010 02:11:03 -0.6 C 3.53 g/m*3 -0.6 C 0 km/h
Sensor: Nr:Datum:Temp:Abs-Feuchte:Windchill:Wind:
Aussen-T/F 2051 02-02-2010 02:23:03 -0.7 C 3.46 g/m*3 -0.7 C 0 km/h
2052 02-02-2010 02:35:03 -1 C 3.3 g/m*3 -1 C 0 km/h
2053 02-02-2010 02:47:03 -1.6 C 3.25 g/m*3 -1.6 C 0 km/h
2054 02-02-2010 02:59:03 -2.1 C 3.22 g/m*3 -2.1 C 0 km/h
2055 02-02-2010 03:11:03 -2.5 C 3.17 g/m*3 -2.5 C 0 km/h
2056 02-02-2010 03:23:03 -2.8 C 3.15 g/m*3 -2.8 C 0 km/h
2057 02-02-2010 03:35:03 -3 C 3.14 g/m*3 -3 C 0 km/h
2058 02-02-2010 03:47:04 -3 C 3.18 g/m*3 -3 C 0 km/h
2059 02-02-2010 03:59:04 -3 C 3.22 g/m*3 -3 C 0 km/h
2060 02-02-2010 04:11:04 -3.1 C 3.24 g/m*3 -3.1 C 0 km/h
2061 02-02-2010 04:23:04 -3 C 3.3 g/m*3 -3 C 0 km/h
2062 02-02-2010 04:35:04 -2.9 C 3.36 g/m*3 -2.9 C 0 km/h
2063 02-02-2010 04:47:04 -2.7 C 3.45 g/m*3 -2.7 C 0 km/h
2064 02-02-2010 04:59:04 -2.6 C 3.48 g/m*3 -2.6 C 0 km/h
2065 02-02-2010 05:11:04 -2.4 C 3.57 g/m*3 -2.4 C 0 km/h
2066 02-02-2010 05:23:04 -2.2 C 3.62 g/m*3 -2.2 C 0 km/h
2067 02-02-2010 05:35:04 -2.3 C 3.59 g/m*3 -2.3 C 0 km/h
2068 02-02-2010 05:47:04 -2.4 C 3.52 g/m*3 -2.4 C 0 km/h
2069 02-02-2010 05:59:04 -2.4 C 3.52 g/m*3 -2.4 C 0 km/h
2070 02-02-2010 06:11:04 -2.3 C 3.55 g/m*3 -2.3 C 0 km/h
2071 02-02-2010 06:23:04 -1.7 C 3.75 g/m*3 -1.7 C 0 km/h
2072 02-02-2010 06:35:04 -1.2 C 3.74 g/m*3 -1.2 C 0 km/h
2073 02-02-2010 06:47:04 -1.2 C 3.66 g/m*3 -1.2 C 0 km/h
2074 02-02-2010 06:59:04 -1.3 C 3.59 g/m*3 -1.3 C 0 km/h
2075 02-02-2010 07:11:02 -1.3 C 3.59 g/m*3 -1.3 C 0 km/h
Sensor: Nr:Datum:Temp:Abs-Feuchte:Windchill:Wind:
Aussen-T/F 2076 02-02-2010 07:23:02 -1.6 C 3.47 g/m*3 -1.6 C 0 km/h
2077 02-02-2010 07:35:02 -1.8 C 3.46 g/m*3 -1.8 C 0 km/h
2078 02-02-2010 07:47:02 -1.7 C 3.49 g/m*3 -1.7 C 0 km/h
2079 02-02-2010 07:59:02 -1.5 C 3.49 g/m*3 -1.5 C 0 km/h
2080 02-02-2010 08:11:03 -1.4 C 3.52 g/m*3 -1.4 C 0 km/h
2081 02-02-2010 08:23:02 -1.3 C 3.5 g/m*3 -1.3 C 0 km/h
2082 02-02-2010 08:35:02 -1.2 C 3.48 g/m*3 -1.2 C 0 km/h
2083 02-02-2010 08:47:02 -1.1 C 3.5 g/m*3 -1.1 C 0 km/h
2084 02-02-2010 08:59:02 -0.8 C 3.53 g/m*3 -0.8 C 0 km/h
2085 02-02-2010 09:11:02 -0.7 C 3.55 g/m*3 -0.7 C 0 km/h
2086 02-02-2010 09:23:02 -0.6 C 3.63 g/m*3 -0.6 C 0 km/h
2087 02-02-2010 09:35:02 -0.3 C 3.7 g/m*3 -0.3 C 0 km/h
2088 02-02-2010 09:47:02 -0.1 C 3.75 g/m*3 -0.1 C 0 km/h
2089 02-02-2010 09:59:02 0.1 C 3.81 g/m*3 0.1 C 0 km/h
2090 02-02-2010 10:11:02 0.4 C 3.88 g/m*3 0.4 C 0 km/h
2091 02-02-2010 10:23:02 0.6 C 3.89 g/m*3 0.6 C 0 km/h
2092 02-02-2010 10:35:01 0.8 C 3.89 g/m*3 0.8 C 0 km/h
2093 02-02-2010 10:47:02 1 C 3.89 g/m*3 1 C 0 km/h
2094 02-02-2010 10:59:02 1.1 C 3.92 g/m*3 1.1 C 0 km/h
2095 02-02-2010 11:11:01 1.3 C 3.92 g/m*3 1.3 C 0 km/h
2096 02-02-2010 11:23:02 1.5 C 3.97 g/m*3 1.5 C 0 km/h
2097 02-02-2010 11:35:01 1.5 C 3.97 g/m*3 1.5 C 0 km/h
2098 02-02-2010 11:47:03 1.5 C 3.97 g/m*3 1.5 C 0 km/h
2099 02-02-2010 11:59:03 1.6 C 4.06 g/m*3 1.6 C 0 km/h
2100 02-02-2010 12:11:02 1.8 C 4.11 g/m*3 1.8 C 0 km/h
Sensor: Nr:Datum:Temp:Abs-Feuchte:Windchill:Wind:
Aussen-T/F 2101 02-02-2010 12:23:03 1.9 C 4.14 g/m*3 1.9 C 0 km/h
2102 02-02-2010 12:35:02 2 C 4.11 g/m*3 2 C 0 km/h
2103 02-02-2010 12:47:02 2.1 C 4.14 g/m*3 2.1 C 0 km/h
2104 02-02-2010 12:59:02 2.2 C 4.22 g/m*3 2.2 C 0 km/h
2105 02-02-2010 13:11:02 2.2 C 4.22 g/m*3 2.2 C 0 km/h
2106 02-02-2010 13:23:02 2.4 C 4.23 g/m*3 2.4 C 0 km/h
2107 02-02-2010 13:35:02 2.6 C 4.22 g/m*3 2.6 C 0 km/h
2108 02-02-2010 13:47:02 2.6 C 4.17 g/m*3 2.6 C 0 km/h
2109 02-02-2010 13:59:02 2.8 C 4.22 g/m*3 2.8 C 0 km/h
2110 02-02-2010 14:11:02 2.8 C 4.22 g/m*3 2.8 C 0 km/h
2111 02-02-2010 14:23:02 2.9 C 4.25 g/m*3 2.9 C 0 km/h
2112 02-02-2010 14:35:01 2.9 C 4.25 g/m*3 2.9 C 0 km/h
2113 02-02-2010 14:47:02 2.9 C 4.19 g/m*3 2.9 C 0 km/h
2114 02-02-2010 14:59:02 2.7 C 4.2 g/m*3 2.7 C 0 km/h
2115 02-02-2010 15:11:01 2.7 C 4.31 g/m*3 2.7 C 0 km/h
2116 02-02-2010 15:23:02 2.7 C 4.37 g/m*3 2.7 C 0 km/h
2117 02-02-2010 15:35:01 2.7 C 4.37 g/m*3 2.7 C 0 km/h
2118 02-02-2010 15:47:03 2.6 C 4.4 g/m*3 2.6 C 0 km/h
2119 02-02-2010 15:59:03 2.6 C 4.4 g/m*3 2.6 C 0 km/h
2120 02-02-2010 16:11:02 2.5 C 4.37 g/m*3 2.5 C 0 km/h
2121 02-02-2010 16:23:03 2.4 C 4.4 g/m*3 2.4 C 0 km/h
2122 02-02-2010 16:35:02 2.4 C 4.45 g/m*3 2.4 C 0 km/h
2123 02-02-2010 16:47:03 2.3 C 4.48 g/m*3 2.3 C 0 km/h
2124 02-02-2010 16:59:03 2.2 C 4.45 g/m*3 2.2 C 0 km/h
2125 02-02-2010 17:11:02 2.1 C 4.48 g/m*3 2.1 C 0 km/h
Sensor: Nr:Datum:Temp:Abs-Feuchte:Windchill:Wind:
Aussen-T/F 2126 02-02-2010 17:23:02 2.1 C 4.48 g/m*3 2.1 C 0 km/h
2127 02-02-2010 17:35:02 2.1 C 4.48 g/m*3 2.1 C 0 km/h
2128 02-02-2010 17:47:02 2.2 C 4.45 g/m*3 2.2 C 0 km/h
2129 02-02-2010 17:59:02 2.2 C 4.45 g/m*3 2.2 C 0 km/h
2130 02-02-2010 18:11:02 2.3 C 4.48 g/m*3 2.3 C 0 km/h
2131 02-02-2010 18:23:02 2.2 C 4.45 g/m*3 2.2 C 0 km/h
2132 02-02-2010 18:35:01 2.2 C 4.45 g/m*3 2.2 C 0 km/h
2133 02-02-2010 18:47:02 2.2 C 4.39 g/m*3 2.2 C 0 km/h
2134 02-02-2010 18:59:02 2.2 C 4.39 g/m*3 2.2 C 0 km/h
2135 02-02-2010 19:11:01 2.3 C 4.42 g/m*3 2.3 C 0 km/h
2136 02-02-2010 19:23:02 2.2 C 4.45 g/m*3 2.2 C 0 km/h
2137 02-02-2010 19:35:01 2.1 C 4.48 g/m*3 2.1 C 0 km/h
2138 02-02-2010 19:47:02 2.1 C 4.53 g/m*3 2.1 C 0 km/h
2139 02-02-2010 19:59:02 2.2 C 4.56 g/m*3 2.2 C 0 km/h
2140 02-02-2010 20:11:01 2.2 C 4.56 g/m*3 2.2 C 0 km/h
2141 02-02-2010 20:23:02 2.4 C 4.62 g/m*3 2.4 C 0 km/h
2142 02-02-2010 20:35:01 2.5 C 4.6 g/m*3 2.5 C 0 km/h
2143 02-02-2010 20:47:02 2.4 C 4.57 g/m*3 2.4 C 0 km/h
2144 02-02-2010 20:59:02 2.5 C 4.6 g/m*3 2.5 C 0 km/h
2145 02-02-2010 21:11:02 2.6 C 4.57 g/m*3 2.6 C 0 km/h
2146 02-02-2010 21:23:02 2.6 C 4.57 g/m*3 2.6 C 0 km/h
2147 02-02-2010 21:35:02 2.6 C 4.57 g/m*3 2.6 C 0 km/h
2148 02-02-2010 21:48:03 2.6 C 4.63 g/m*3 2.6 C 0 km/h
2149 02-02-2010 22:00:03 2.7 C 4.66 g/m*3 2.7 C 0 km/h
2150 02-02-2010 22:12:03 2.6 C 4.69 g/m*3 2.6 C 0 km/h
Sensor: Nr:Datum:Temp:Abs-Feuchte:Windchill:Wind:
Aussen-T/F 2151 02-02-2010 22:24:03 2.5 C 4.77 g/m*3 2.5 C 0 km/h
2152 02-02-2010 22:36:03 2.4 C 4.8 g/m*3 2.4 C 0 km/h
2153 02-02-2010 22:48:03 2.4 C 4.8 g/m*3 2.4 C 0 km/h
2154 02-02-2010 23:00:03 2.5 C 4.83 g/m*3 2.5 C 0 km/h
2155 02-02-2010 23:12:03 2.7 C 4.84 g/m*3 2.7 C 0 km/h
2156 02-02-2010 23:24:03 2.7 C 4.78 g/m*3 2.7 C 0 km/h
2157 02-02-2010 23:36:03 2.8 C 4.81 g/m*3 2.8 C 0 km/h
2158 02-02-2010 23:48:04 2.9 C 4.84 g/m*3 2.9 C 0 km/h
2159 03-02-2010 00:00:04 2.8 C 4.81 g/m*3 2.8 C 0 km/h
2160 03-02-2010 00:12:04 3.3 C 4.91 g/m*3 3.3 C 0 km/h
2161 03-02-2010 00:24:04 3.6 C 4.89 g/m*3 3.6 C 0 km/h
2162 03-02-2010 00:36:04 3.7 C 4.92 g/m*3 3.7 C 0 km/h
2163 03-02-2010 00:48:04 4 C 4.96 g/m*3 4 C 0 km/h
2164 03-02-2010 01:00:04 4 C 4.9 g/m*3 4 C 0 km/h
2165 03-02-2010 01:12:04 4 C 4.9 g/m*3 4 C 0 km/h
2166 03-02-2010 01:24:04 4 C 4.96 g/m*3 4 C 0 km/h
2167 03-02-2010 01:36:04 4.3 C 5.06 g/m*3 4.3 C 0 km/h
2168 03-02-2010 01:48:04 4.4 C 5.09 g/m*3 4.4 C 0 km/h
2169 03-02-2010 02:00:04 4.6 C 5.16 g/m*3 4.6 C 0 km/h
2170 03-02-2010 02:12:04 4.8 C 5.16 g/m*3 4.8 C 0 km/h
2171 03-02-2010 02:24:04 4.7 C 5.13 g/m*3 4.7 C 0 km/h
2172 03-02-2010 02:36:04 2.9 C 4.78 g/m*3 2.9 C 0 km/h
2173 03-02-2010 02:48:04 2.4 C 4.8 g/m*3 2.4 C 0 km/h
2174 03-02-2010 03:00:04 2.1 C 4.81 g/m*3 2.1 C 0 km/h
2175 03-02-2010 03:12:04 1.9 C 4.86 g/m*3 1.9 C 0 km/h
Sensor: Nr:Datum:Temp:Abs-Feuchte:Windchill:Wind:
Aussen-T/F 2176 03-02-2010 03:24:04 1.7 C 4.85 g/m*3 1.7 C 0 km/h
2177 03-02-2010 03:36:04 1.6 C 4.87 g/m*3 1.6 C 0 km/h
2178 03-02-2010 03:48:04 1.6 C 4.87 g/m*3 1.6 C 0 km/h
2179 03-02-2010 04:00:05 1.5 C 4.89 g/m*3 1.5 C 0 km/h
2180 03-02-2010 04:12:05 1.2 C 4.79 g/m*3 1.2 C 0 km/h
2181 03-02-2010 04:24:05 0.9 C 4.69 g/m*3 0.9 C 0 km/h
2182 03-02-2010 04:36:05 0.8 C 4.66 g/m*3 0.8 C 0 km/h
2183 03-02-2010 04:48:05 1 C 4.72 g/m*3 1 C 0 km/h
2184 03-02-2010 05:00:05 1.1 C 4.81 g/m*3 1.1 C 0 km/h
2185 03-02-2010 05:12:05 1.1 C 4.81 g/m*3 1.1 C 0 km/h
2186 03-02-2010 05:24:05 1.1 C 4.86 g/m*3 1.1 C 0 km/h
2187 03-02-2010 05:36:05 1.1 C 4.86 g/m*3 1.1 C 0 km/h
2188 03-02-2010 05:48:05 1.2 C 4.89 g/m*3 1.2 C 0 km/h
2189 03-02-2010 06:00:05 1.1 C 4.91 g/m*3 1.1 C 0 km/h
2190 03-02-2010 06:12:05 1.1 C 4.91 g/m*3 1.1 C 0 km/h
2191 03-02-2010 06:24:05 1.1 C 4.91 g/m*3 1.1 C 0 km/h
2192 03-02-2010 06:36:05 1 C 4.88 g/m*3 1 C 0 km/h
2193 03-02-2010 06:48:05 1.1 C 4.91 g/m*3 1.1 C 0 km/h
2194 03-02-2010 07:00:05 1 C 4.88 g/m*3 1 C 0 km/h
2195 03-02-2010 07:12:03 0.9 C 4.9 g/m*3 0.9 C 0 km/h
2196 03-02-2010 07:24:02 1 C 4.88 g/m*3 1 C 0 km/h
2197 03-02-2010 07:36:03 1 C 4.93 g/m*3 1 C 0 km/h
2198 03-02-2010 07:48:02 1 C 4.93 g/m*3 1 C 0 km/h
2199 03-02-2010 08:00:02 1 C 4.93 g/m*3 1 C 0 km/h
2200 03-02-2010 08:12:01 1 C 4.93 g/m*3 1 C 0 km/h
Sensor: Nr:Datum:Temp:Abs-Feuchte:Windchill:Wind:
Aussen-T/F 2201 03-02-2010 08:24:02 1 C 4.93 g/m*3 1 C 0 km/h
2202 03-02-2010 08:36:02 1.1 C 4.96 g/m*3 1.1 C 0 km/h
2203 03-02-2010 08:48:02 1.2 C 5 g/m*3 1.2 C 0 km/h
2204 03-02-2010 09:00:02 1.2 C 5 g/m*3 1.2 C 0 km/h
2205 03-02-2010 09:12:03 1.3 C 5.03 g/m*3 1.3 C 0 km/h
2206 03-02-2010 09:24:02 1.5 C 5.1 g/m*3 1.5 C 0 km/h
2207 03-02-2010 09:36:02 1.5 C 5.1 g/m*3 1.5 C 0 km/h
2208 03-02-2010 09:48:02 1.7 C 5.17 g/m*3 1.7 C 0 km/h
2209 03-02-2010 10:00:02 2 C 5.22 g/m*3 2 C 0 km/h
2210 03-02-2010 10:12:01 2.2 C 5.29 g/m*3 2.2 C 0 km/h
2211 03-02-2010 10:24:02 2.3 C 5.27 g/m*3 2.3 C 0 km/h
2212 03-02-2010 10:36:02 2.7 C 5.36 g/m*3 2.7 C 0 km/h
2213 03-02-2010 10:48:02 3.1 C 5.45 g/m*3 3.1 C 0 km/h
2214 03-02-2010 11:00:02 3.1 C 5.33 g/m*3 3.1 C 0 km/h
2215 03-02-2010 11:12:02 3 C 5.11 g/m*3 3 C 0 km/h
2216 03-02-2010 11:24:02 3.3 C 5.22 g/m*3 3.3 C 0 km/h
2217 03-02-2010 11:36:02 3.3 C 5.1 g/m*3 3.3 C 0 km/h
2218 03-02-2010 11:48:02 3.1 C 4.97 g/m*3 3.1 C 0 km/h
2219 03-02-2010 12:00:02 3.2 C 5.06 g/m*3 3.2 C 0 km/h
2220 03-02-2010 12:12:01 3.1 C 5.03 g/m*3 3.1 C 0 km/h
2221 03-02-2010 12:24:02 3 C 5.05 g/m*3 3 C 0 km/h
2222 03-02-2010 12:36:02 3 C 5.11 g/m*3 3 C 0 km/h
2223 03-02-2010 12:48:02 3.1 C 5.15 g/m*3 3.1 C 0 km/h
2224 03-02-2010 13:00:02 3.1 C 5.21 g/m*3 3.1 C 0 km/h
2225 03-02-2010 13:12:02 3.1 C 5.21 g/m*3 3.1 C 0 km/h
Sensor: Nr:Datum:Temp:Abs-Feuchte:Windchill:Wind:
Aussen-T/F 2226 03-02-2010 13:24:02 3.3 C 5.28 g/m*3 3.3 C 0 km/h
2227 03-02-2010 13:36:02 3.2 C 5.24 g/m*3 3.2 C 0 km/h
2228 03-02-2010 13:48:02 3.3 C 5.28 g/m*3 3.3 C 0 km/h
2229 03-02-2010 14:00:02 3.3 C 5.28 g/m*3 3.3 C 0 km/h
2230 03-02-2010 14:12:02 3.3 C 5.28 g/m*3 3.3 C 0 km/h
2231 03-02-2010 14:24:02 3.3 C 5.28 g/m*3 3.3 C 0 km/h
2232 03-02-2010 14:36:02 3.3 C 5.28 g/m*3 3.3 C 0 km/h
2233 03-02-2010 14:48:02 3.2 C 5.24 g/m*3 3.2 C 0 km/h
2234 03-02-2010 15:00:02 3.2 C 5.24 g/m*3 3.2 C 0 km/h
2235 03-02-2010 15:12:02 3.1 C 5.27 g/m*3 3.1 C 0 km/h
2236 03-02-2010 15:24:02 2.9 C 5.2 g/m*3 2.9 C 0 km/h
2237 03-02-2010 15:36:02 3 C 5.23 g/m*3 3 C 0 km/h
2238 03-02-2010 15:48:02 2.9 C 5.26 g/m*3 2.9 C 0 km/h
2239 03-02-2010 16:00:02 2.8 C 5.22 g/m*3 2.8 C 0 km/h
2240 03-02-2010 16:12:02 2.6 C 5.15 g/m*3 2.6 C 0 km/h
2241 03-02-2010 16:24:02 2.6 C 5.15 g/m*3 2.6 C 0 km/h
2242 03-02-2010 16:36:02 2.5 C 5.12 g/m*3 2.5 C 0 km/h
2243 03-02-2010 16:48:02 2.4 C 5.08 g/m*3 2.4 C 0 km/h
2244 03-02-2010 17:00:02 2.4 C 5.14 g/m*3 2.4 C 0 km/h
2245 03-02-2010 17:12:02 2.3 C 5.1 g/m*3 2.3 C 0 km/h
2246 03-02-2010 17:24:02 2.2 C 5.07 g/m*3 2.2 C 0 km/h
2247 03-02-2010 17:36:02 2.1 C 5.04 g/m*3 2.1 C 0 km/h
2248 03-02-2010 17:48:01 1.9 C 5.02 g/m*3 1.9 C 0 km/h
2249 03-02-2010 18:00:01 1.9 C 5.02 g/m*3 1.9 C 0 km/h
2250 03-02-2010 18:12:02 1.9 C 5.02 g/m*3 1.9 C 0 km/h
Sensor: Nr:Datum:Temp:Abs-Feuchte:Windchill:Wind:
Aussen-T/F 2251 03-02-2010 18:24:01 1.9 C 5.08 g/m*3 1.9 C 0 km/h
2252 03-02-2010 18:36:01 1.9 C 5.08 g/m*3 1.9 C 0 km/h
2253 03-02-2010 18:48:01 1.8 C 5.04 g/m*3 1.8 C 0 km/h
2254 03-02-2010 19:00:01 1.8 C 5.04 g/m*3 1.8 C 0 km/h
2255 03-02-2010 19:12:02 1.7 C 5.01 g/m*3 1.7 C 0 km/h
2256 03-02-2010 19:20:01 1.7 C 5.01 g/m*3 1.7 C 0 km/h
2257 03-02-2010 19:45:01 1.8 C 5.04 g/m*3 1.8 C 0 km/h
2258 03-02-2010 20:10:02 1.9 C 5.13 g/m*3 1.9 C 0 km/h
2259 03-02-2010 20:35:01 1.8 C 5.1 g/m*3 1.8 C 0 km/h
2260 03-02-2010 21:00:01 1.7 C 5.06 g/m*3 1.7 C 0 km/h
2261 03-02-2010 21:25:01 1.7 C 5.06 g/m*3 1.7 C 0 km/h
2262 03-02-2010 21:50:02 1.8 C 5.1 g/m*3 1.8 C 0 km/h
2263 03-02-2010 22:15:03 1.8 C 5.1 g/m*3 1.8 C 0 km/h
2264 03-02-2010 22:40:02 1.8 C 5.1 g/m*3 1.8 C 0 km/h
2265 03-02-2010 23:05:02 1.8 C 5.1 g/m*3 1.8 C 0 km/h
2266 03-02-2010 23:30:02 1.8 C 5.1 g/m*3 1.8 C 0 km/h
2267 03-02-2010 23:55:02 2 C 5.17 g/m*3 2 C 0 km/h
2268 04-02-2010 00:20:02 2 C 5.17 g/m*3 2 C 0 km/h
2269 04-02-2010 00:45:02 2 C 5.17 g/m*3 2 C 0 km/h
2270 04-02-2010 01:10:02 2 C 5.17 g/m*3 2 C 0 km/h
2271 04-02-2010 01:35:02 2 C 5.22 g/m*3 2 C 0 km/h
2272 04-02-2010 02:00:02 2.1 C 5.26 g/m*3 2.1 C 0 km/h
2273 04-02-2010 02:25:03 2.2 C 5.29 g/m*3 2.2 C 0 km/h
2274 04-02-2010 02:51:03 2.1 C 5.26 g/m*3 2.1 C 0 km/h
2275 04-02-2010 03:16:04 2.2 C 5.29 g/m*3 2.2 C 0 km/h
Sensor: Nr:Datum:Temp:Abs-Feuchte:Windchill:Wind:
Aussen-T/F 2276 04-02-2010 03:41:01 2.3 C 5.33 g/m*3 2.3 C 0 km/h
2277 04-02-2010 04:06:02 2.3 C 5.33 g/m*3 2.3 C 0 km/h
2278 04-02-2010 04:31:02 2.3 C 5.33 g/m*3 2.3 C 0 km/h
2279 04-02-2010 04:56:01 2.4 C 5.37 g/m*3 2.4 C 0 km/h
2280 04-02-2010 05:21:02 2.5 C 5.46 g/m*3 2.5 C 0 km/h
2281 04-02-2010 05:46:02 2.7 C 5.54 g/m*3 2.7 C 0 km/h
2282 04-02-2010 06:11:01 3 C 5.65 g/m*3 3 C 0 km/h
2283 04-02-2010 06:51:02 3.6 C 5.88 g/m*3 3.6 C 0 km/h
2284 04-02-2010 07:16:02 3.4 C 5.8 g/m*3 3.4 C 0 km/h
2285 04-02-2010 07:41:02 3.2 C 5.72 g/m*3 3.2 C 0 km/h
2286 04-02-2010 08:06:02 3.3 C 5.76 g/m*3 3.3 C 0 km/h
2287 04-02-2010 08:31:02 3.2 C 5.72 g/m*3 3.2 C 0 km/h
2288 04-02-2010 08:56:02 3.3 C 5.76 g/m*3 3.3 C 0 km/h
2289 04-02-2010 09:21:02 3.7 C 5.92 g/m*3 3.7 C 0 km/h
2290 04-02-2010 09:46:02 4.5 C 6.24 g/m*3 4.5 C 0 km/h
2291 04-02-2010 10:11:02 4.7 C 6.19 g/m*3 4.7 C 0 km/h
2292 04-02-2010 10:36:02 5.2 C 6.13 g/m*3 5.2 C 0 km/h
2293 04-02-2010 11:01:02 5.7 C 6.19 g/m*3 5.7 C 0 km/h
2294 04-02-2010 11:26:02 6.3 C 6.07 g/m*3 6.3 C 0 km/h
2295 04-02-2010 11:51:02 6.9 C 6 g/m*3 6.9 C 0 km/h
2296 04-02-2010 12:16:02 7.1 C 5.85 g/m*3 7.1 C 0 km/h
2297 04-02-2010 12:41:02 7.5 C 5.92 g/m*3 7.5 C 0 km/h
2298 04-02-2010 13:06:02 8 C 5.95 g/m*3 8 C 0 km/h
2299 04-02-2010 13:31:02 8.5 C 5.98 g/m*3 8.5 C 0 km/h
2300 04-02-2010 13:56:02 8.7 C 5.88 g/m*3 8.7 C 0 km/h
Sensor: Nr:Datum:Temp:Abs-Feuchte:Windchill:Wind:
Aussen-T/F 2301 04-02-2010 14:21:02 8.5 C 5.81 g/m*3 8.5 C 0 km/h
2302 04-02-2010 14:46:03 8.2 C 5.61 g/m*3 8.2 C 0 km/h
2303 04-02-2010 15:11:03 8.8 C 5.92 g/m*3 8.8 C 0 km/h
2304 04-02-2010 15:36:03 8.8 C 5.74 g/m*3 8.8 C 0 km/h
2305 04-02-2010 16:01:03 7.8 C 5.55 g/m*3 7.8 C 0 km/h
2306 04-02-2010 16:26:03 7.5 C 5.52 g/m*3 7.5 C 0 km/h
2307 04-02-2010 16:51:03 6.2 C 5.37 g/m*3 6.2 C 0 km/h
2308 04-02-2010 17:16:03 5.7 C 5.48 g/m*3 5.7 C 0 km/h
2309 04-02-2010 17:41:03 5 C 5.37 g/m*3 5 C 0 km/h
2310 04-02-2010 18:06:03 4.4 C 5.29 g/m*3 4.4 C 0 km/h
2311 04-02-2010 18:31:03 4 C 5.28 g/m*3 4 C 0 km/h
2312 04-02-2010 18:56:03 3.6 C 5.2 g/m*3 3.6 C 0 km/h
2313 04-02-2010 19:21:03 3.3 C 5.16 g/m*3 3.3 C 0 km/h
2314 04-02-2010 19:46:03 3 C 5.11 g/m*3 3 C 0 km/h
2315 04-02-2010 20:11:03 2.7 C 5.13 g/m*3 2.7 C 0 km/h
2316 04-02-2010 20:36:03 2.5 C 5.12 g/m*3 2.5 C 0 km/h
2317 04-02-2010 21:01:03 2.5 C 5.17 g/m*3 2.5 C 0 km/h
2318 04-02-2010 21:26:03 2.6 C 5.27 g/m*3 2.6 C 0 km/h
2319 04-02-2010 21:51:03 2.1 C 5.04 g/m*3 2.1 C 0 km/h
2320 04-02-2010 22:16:03 2.2 C 5.18 g/m*3 2.2 C 0 km/h
2321 04-02-2010 22:41:03 1.8 C 5.04 g/m*3 1.8 C 0 km/h
2322 04-02-2010 23:06:03 1.8 C 5.1 g/m*3 1.8 C 0 km/h
2323 04-02-2010 23:31:03 1.7 C 5.06 g/m*3 1.7 C 0 km/h
2324 04-02-2010 23:56:04 2.1 C 5.2 g/m*3 2.1 C 0 km/h
2325 05-02-2010 00:21:04 2.6 C 5.44 g/m*3 2.6 C 0 km/h
Sensor: Nr:Datum:Temp:Abs-Feuchte:Windchill:Wind:
Aussen-T/F 2326 05-02-2010 00:46:04 2.2 C 5.24 g/m*3 2.2 C 0 km/h
2327 05-02-2010 01:11:04 2 C 5.17 g/m*3 2 C 0 km/h
2328 05-02-2010 01:36:04 1.7 C 5.12 g/m*3 1.7 C 0 km/h
2329 05-02-2010 02:01:04 2.2 C 5.24 g/m*3 2.2 C 0 km/h
2330 05-02-2010 02:26:04 2.6 C 5.38 g/m*3 2.6 C 0 km/h
2331 05-02-2010 02:51:04 2.7 C 5.3 g/m*3 2.7 C 0 km/h
2332 05-02-2010 03:16:04 2.7 C 5.19 g/m*3 2.7 C 0 km/h
2333 05-02-2010 03:41:04 2.8 C 5.04 g/m*3 2.8 C 0 km/h
2334 05-02-2010 04:06:04 2.8 C 5.04 g/m*3 2.8 C 0 km/h
2335 05-02-2010 04:31:04 2.8 C 4.93 g/m*3 2.8 C 0 km/h
2336 05-02-2010 04:56:04 2.8 C 4.93 g/m*3 2.8 C 0 km/h
2337 05-02-2010 05:21:04 2.7 C 4.89 g/m*3 2.7 C 0 km/h
2338 05-02-2010 05:46:04 2.7 C 4.84 g/m*3 2.7 C 0 km/h
2339 05-02-2010 06:11:04 2.8 C 4.87 g/m*3 2.8 C 0 km/h
2340 05-02-2010 06:36:04 2.7 C 4.84 g/m*3 2.7 C 0 km/h
2341 05-02-2010 07:01:04 2.4 C 4.74 g/m*3 2.4 C 0 km/h
2342 05-02-2010 07:26:04 2.5 C 4.89 g/m*3 2.5 C 0 km/h
2343 05-02-2010 07:51:04 2.8 C 4.99 g/m*3 2.8 C 0 km/h
2344 05-02-2010 08:16:04 3.2 C 4.88 g/m*3 3.2 C 0 km/h
2345 05-02-2010 08:41:05 3.4 C 4.89 g/m*3 3.4 C 0 km/h
2346 05-02-2010 09:06:05 3.6 C 4.89 g/m*3 3.6 C 0 km/h
2347 05-02-2010 09:31:05 3.8 C 4.83 g/m*3 3.8 C 0 km/h
2348 05-02-2010 09:56:05 4.1 C 4.67 g/m*3 4.1 C 0 km/h
2349 05-02-2010 10:21:05 4.1 C 4.54 g/m*3 4.1 C 0 km/h
2350 05-02-2010 10:46:05 4 C 4.51 g/m*3 4 C 0 km/h
Sensor: Nr:Datum:Temp:Abs-Feuchte:Windchill:Wind:
Aussen-T/F 2351 05-02-2010 11:11:05 4.3 C 4.54 g/m*3 4.3 C 0 km/h
2352 05-02-2010 11:36:05 4.3 C 4.41 g/m*3 4.3 C 0 km/h
2353 05-02-2010 12:01:05 4.4 C 4.37 g/m*3 4.4 C 0 km/h
2354 05-02-2010 12:26:05 4.4 C 4.31 g/m*3 4.4 C 0 km/h
2355 05-02-2010 12:51:05 4.3 C 4.28 g/m*3 4.3 C 0 km/h
2356 05-02-2010 13:16:05 4.5 C 4.4 g/m*3 4.5 C 0 km/h
2357 05-02-2010 13:41:05 4.9 C 4.52 g/m*3 4.9 C 0 km/h
2358 05-02-2010 14:06:05 5.1 C 4.38 g/m*3 5.1 C 0 km/h
2359 05-02-2010 14:31:05 4.8 C 4.36 g/m*3 4.8 C 0 km/h
2360 05-02-2010 14:56:05 4.6 C 4.37 g/m*3 4.6 C 0 km/h
2361 05-02-2010 15:21:05 4.5 C 4.4 g/m*3 4.5 C 0 km/h
2362 05-02-2010 15:46:05 4.2 C 4.38 g/m*3 4.2 C 0 km/h
2363 05-02-2010 16:11:05 3.8 C 4.64 g/m*3 3.8 C 0 km/h
2364 05-02-2010 16:36:05 3.6 C 4.7 g/m*3 3.6 C 0 km/h
2365 05-02-2010 17:01:05 3.4 C 4.83 g/m*3 3.4 C 0 km/h
2366 05-02-2010 17:26:05 3.4 C 4.95 g/m*3 3.4 C 0 km/h
2367 05-02-2010 17:51:06 3.2 C 4.94 g/m*3 3.2 C 0 km/h
2368 05-02-2010 18:16:06 3.3 C 5.04 g/m*3 3.3 C 0 km/h
2369 05-02-2010 18:41:06 3.1 C 5.03 g/m*3 3.1 C 0 km/h
2370 05-02-2010 19:06:06 3.2 C 5.12 g/m*3 3.2 C 0 km/h
2371 05-02-2010 19:31:06 3 C 5.05 g/m*3 3 C 0 km/h
2372 05-02-2010 19:56:06 3.1 C 5.09 g/m*3 3.1 C 0 km/h
2373 05-02-2010 20:21:06 3 C 5.11 g/m*3 3 C 0 km/h
2374 05-02-2010 20:46:06 2.8 C 5.1 g/m*3 2.8 C 0 km/h
2375 05-02-2010 21:11:06 2.8 C 5.16 g/m*3 2.8 C 0 km/h
Sensor: Nr:Datum:Temp:Abs-Feuchte:Windchill:Wind:
Aussen-T/F 2376 05-02-2010 21:36:06 2.6 C 5.09 g/m*3 2.6 C 0 km/h
2377 05-02-2010 22:01:06 2.7 C 5.19 g/m*3 2.7 C 0 km/h
2378 05-02-2010 22:26:06 2.9 C 5.26 g/m*3 2.9 C 0 km/h
2379 05-02-2010 22:51:06 3 C 5.23 g/m*3 3 C 0 km/h
2380 05-02-2010 23:16:06 3 C 5.23 g/m*3 3 C 0 km/h
2381 05-02-2010 23:41:06 3 C 5.23 g/m*3 3 C 0 km/h
2382 06-02-2010 00:06:06 2.8 C 5.22 g/m*3 2.8 C 0 km/h
2383 06-02-2010 00:31:06 2.8 C 5.22 g/m*3 2.8 C 0 km/h
2384 06-02-2010 00:56:06 2.7 C 5.19 g/m*3 2.7 C 0 km/h
2385 06-02-2010 01:21:06 2.4 C 5.08 g/m*3 2.4 C 0 km/h
2386 06-02-2010 01:46:06 2.1 C 4.98 g/m*3 2.1 C 0 km/h
2387 06-02-2010 02:11:06 2.4 C 5.14 g/m*3 2.4 C 0 km/h
2388 06-02-2010 02:36:06 2.7 C 5.24 g/m*3 2.7 C 0 km/h
2389 06-02-2010 03:01:07 2.8 C 5.28 g/m*3 2.8 C 0 km/h
2390 06-02-2010 03:26:07 2.5 C 5.17 g/m*3 2.5 C 0 km/h
2391 06-02-2010 03:51:07 2.4 C 5.14 g/m*3 2.4 C 0 km/h
2392 06-02-2010 04:16:07 2.6 C 5.27 g/m*3 2.6 C 0 km/h
2393 06-02-2010 04:41:07 2.8 C 5.34 g/m*3 2.8 C 0 km/h
2394 06-02-2010 05:06:07 3 C 5.41 g/m*3 3 C 0 km/h
2395 06-02-2010 05:31:07 3 C 5.41 g/m*3 3 C 0 km/h
2396 06-02-2010 05:56:07 3 C 5.41 g/m*3 3 C 0 km/h
2397 06-02-2010 06:21:07 3.2 C 5.48 g/m*3 3.2 C 0 km/h
2398 06-02-2010 06:46:07 3 C 5.41 g/m*3 3 C 0 km/h
2399 06-02-2010 07:11:07 3 C 5.41 g/m*3 3 C 0 km/h
2400 06-02-2010 07:36:07 3.1 C 5.45 g/m*3 3.1 C 0 km/h
Sensor: Nr:Datum:Temp:Abs-Feuchte:Windchill:Wind:
Aussen-T/F 2401 06-02-2010 08:01:07 3.1 C 5.45 g/m*3 3.1 C 0 km/h
2402 06-02-2010 08:26:07 3.2 C 5.48 g/m*3 3.2 C 0 km/h
2403 06-02-2010 08:51:07 3.4 C 5.56 g/m*3 3.4 C 0 km/h
2404 06-02-2010 09:16:07 3.7 C 5.67 g/m*3 3.7 C 0 km/h
2405 06-02-2010 09:41:07 4 C 5.72 g/m*3 4 C 0 km/h
2406 06-02-2010 10:06:07 4.6 C 5.89 g/m*3 4.6 C 0 km/h
2407 06-02-2010 10:31:07 5.1 C 5.95 g/m*3 5.1 C 0 km/h
2408 06-02-2010 10:56:07 5.6 C 6.01 g/m*3 5.6 C 0 km/h
2409 06-02-2010 11:21:07 5.7 C 5.84 g/m*3 5.7 C 0 km/h
2410 06-02-2010 11:46:07 6.3 C 5.85 g/m*3 6.3 C 0 km/h
2411 06-02-2010 12:11:07 6.7 C 5.93 g/m*3 6.7 C 0 km/h
2412 06-02-2010 12:36:08 6.9 C 6 g/m*3 6.9 C 0 km/h
2413 06-02-2010 13:01:08 7.3 C 5.69 g/m*3 7.3 C 0 km/h
2414 06-02-2010 13:26:08 7.4 C 5.65 g/m*3 7.4 C 0 km/h
2415 06-02-2010 13:51:08 7.3 C 5.29 g/m*3 7.3 C 0 km/h
2416 06-02-2010 14:16:08 7.1 C 5.23 g/m*3 7.1 C 0 km/h
2417 06-02-2010 14:41:08 7 C 5.27 g/m*3 7 C 0 km/h
2418 06-02-2010 15:06:08 6.7 C 5.39 g/m*3 6.7 C 0 km/h
2419 06-02-2010 15:31:08 6.5 C 5.47 g/m*3 6.5 C 0 km/h
2420 06-02-2010 15:56:08 6.4 C 5.36 g/m*3 6.4 C 0 km/h
2421 06-02-2010 16:21:08 6.2 C 5.44 g/m*3 6.2 C 0 km/h
2422 06-02-2010 16:46:08 6 C 5.37 g/m*3 6 C 0 km/h
2423 06-02-2010 17:11:08 5.8 C 5.44 g/m*3 5.8 C 0 km/h
2424 06-02-2010 17:36:08 5.7 C 5.48 g/m*3 5.7 C 0 km/h
2425 06-02-2010 18:01:08 5.5 C 5.41 g/m*3 5.5 C 0 km/h
Sensor: Nr:Datum:Temp:Abs-Feuchte:Windchill:Wind:
Aussen-T/F 2426 06-02-2010 18:26:08 5.3 C 5.41 g/m*3 5.3 C 0 km/h
2427 06-02-2010 18:51:08 5.2 C 5.37 g/m*3 5.2 C 0 km/h
2428 06-02-2010 19:16:08 5.1 C 5.4 g/m*3 5.1 C 0 km/h
2429 06-02-2010 19:41:08 5.1 C 5.4 g/m*3 5.1 C 0 km/h
2430 06-02-2010 20:06:08 5 C 5.37 g/m*3 5 C 0 km/h
2431 06-02-2010 20:31:08 4.9 C 5.4 g/m*3 4.9 C 0 km/h
2432 06-02-2010 20:56:08 4.9 C 5.47 g/m*3 4.9 C 0 km/h
2433 06-02-2010 21:21:09 4.8 C 5.43 g/m*3 4.8 C 0 km/h
2434 06-02-2010 21:46:09 4.8 C 5.43 g/m*3 4.8 C 0 km/h
2435 06-02-2010 22:11:09 4.8 C 5.5 g/m*3 4.8 C 0 km/h
2436 06-02-2010 22:36:09 4.7 C 5.46 g/m*3 4.7 C 0 km/h
2437 06-02-2010 23:01:09 4.7 C 5.46 g/m*3 4.7 C 0 km/h
2438 06-02-2010 23:26:09 4.6 C 5.43 g/m*3 4.6 C 0 km/h
2439 06-02-2010 23:51:09 4.6 C 5.43 g/m*3 4.6 C 0 km/h
2440 07-02-2010 00:16:09 4.5 C 5.46 g/m*3 4.5 C 0 km/h
2441 07-02-2010 00:41:09 4.5 C 5.46 g/m*3 4.5 C 0 km/h
2442 07-02-2010 01:06:09 4.5 C 5.46 g/m*3 4.5 C 0 km/h
2443 07-02-2010 01:31:09 4.6 C 5.49 g/m*3 4.6 C 0 km/h
2444 07-02-2010 01:56:09 4.4 C 5.42 g/m*3 4.4 C 0 km/h
2445 07-02-2010 02:21:09 4.2 C 5.41 g/m*3 4.2 C 0 km/h
2446 07-02-2010 02:46:09 4.1 C 5.38 g/m*3 4.1 C 0 km/h
2447 07-02-2010 03:11:09 4.1 C 5.5 g/m*3 4.1 C 0 km/h
2448 07-02-2010 03:36:09 4.1 C 5.5 g/m*3 4.1 C 0 km/h
2449 07-02-2010 04:01:09 4.1 C 5.57 g/m*3 4.1 C 0 km/h
2450 07-02-2010 04:26:09 4 C 5.59 g/m*3 4 C 0 km/h
Sensor: Nr:Datum:Temp:Abs-Feuchte:Windchill:Wind:
Aussen-T/F 2451 07-02-2010 04:51:09 4 C 5.59 g/m*3 4 C 0 km/h
2452 07-02-2010 05:16:09 4.1 C 5.7 g/m*3 4.1 C 0 km/h
2453 07-02-2010 05:41:09 3.8 C 5.58 g/m*3 3.8 C 0 km/h
2454 07-02-2010 06:06:10 3.8 C 5.65 g/m*3 3.8 C 0 km/h
2455 07-02-2010 06:31:10 3.8 C 5.65 g/m*3 3.8 C 0 km/h
2456 07-02-2010 06:56:10 3.8 C 5.65 g/m*3 3.8 C 0 km/h
2457 07-02-2010 07:21:10 3.7 C 5.61 g/m*3 3.7 C 0 km/h
2458 07-02-2010 07:46:10 3.7 C 5.67 g/m*3 3.7 C 0 km/h
2459 07-02-2010 08:11:10 3.8 C 5.71 g/m*3 3.8 C 0 km/h
2460 07-02-2010 08:36:10 3.7 C 5.67 g/m*3 3.7 C 0 km/h
2461 07-02-2010 09:01:10 3.8 C 5.71 g/m*3 3.8 C 0 km/h
2462 07-02-2010 09:26:10 3.9 C 5.75 g/m*3 3.9 C 0 km/h
2463 07-02-2010 09:51:10 4.1 C 5.76 g/m*3 4.1 C 0 km/h
2464 07-02-2010 10:16:10 4.1 C 5.7 g/m*3 4.1 C 0 km/h
2465 07-02-2010 10:41:10 4.5 C 5.72 g/m*3 4.5 C 0 km/h
2466 07-02-2010 11:06:10 4.9 C 5.6 g/m*3 4.9 C 0 km/h
2467 07-02-2010 11:31:10 4.7 C 5.13 g/m*3 4.7 C 0 km/h
2468 07-02-2010 11:56:10 4.5 C 4.93 g/m*3 4.5 C 0 km/h
2469 07-02-2010 12:21:10 5.3 C 5.06 g/m*3 5.3 C 0 km/h
2470 07-02-2010 12:46:10 5.7 C 4.84 g/m*3 5.7 C 0 km/h
2471 07-02-2010 13:11:10 5.6 C 4.67 g/m*3 5.6 C 0 km/h
2472 07-02-2010 13:36:10 5.8 C 4.66 g/m*3 5.8 C 0 km/h
2473 07-02-2010 14:01:10 6 C 4.57 g/m*3 6 C 0 km/h
2474 07-02-2010 14:26:10 6.1 C 4.53 g/m*3 6.1 C 0 km/h
2475 07-02-2010 14:51:10 5.7 C 4.41 g/m*3 5.7 C 0 km/h
Sensor: Nr:Datum:Temp:Abs-Feuchte:Windchill:Wind:
Aussen-T/F 2476 07-02-2010 15:16:11 5.5 C 4.49 g/m*3 5.5 C 0 km/h
2477 07-02-2010 15:41:11 5.4 C 4.47 g/m*3 5.4 C 0 km/h
2478 07-02-2010 16:06:11 5 C 4.62 g/m*3 5 C 0 km/h
2479 07-02-2010 16:31:11 4.8 C 4.76 g/m*3 4.8 C 0 km/h
2480 07-02-2010 16:56:11 4.6 C 4.83 g/m*3 4.6 C 0 km/h
2481 07-02-2010 17:21:11 4.7 C 4.93 g/m*3 4.7 C 0 km/h
2482 07-02-2010 17:46:11 4.5 C 4.93 g/m*3 4.5 C 0 km/h
2483 07-02-2010 18:11:11 4.4 C 4.96 g/m*3 4.4 C 0 km/h
2484 07-02-2010 18:36:11 4.2 C 4.96 g/m*3 4.2 C 0 km/h
2485 07-02-2010 19:01:11 4.1 C 4.86 g/m*3 4.1 C 0 km/h
2486 07-02-2010 19:26:11 3.7 C 4.49 g/m*3 3.7 C 0 km/h
2487 07-02-2010 19:51:11 3.7 C 4.42 g/m*3 3.7 C 0 km/h
2488 07-02-2010 20:16:11 3.5 C 4.37 g/m*3 3.5 C 0 km/h
2489 07-02-2010 20:41:11 3.3 C 4.37 g/m*3 3.3 C 0 km/h
2490 07-02-2010 21:06:11 3 C 4.22 g/m*3 3 C 0 km/h
2491 07-02-2010 21:31:11 2.7 C 4.08 g/m*3 2.7 C 0 km/h
2492 07-02-2010 21:56:11 2.5 C 3.97 g/m*3 2.5 C 0 km/h
2493 07-02-2010 22:21:11 2.4 C 3.83 g/m*3 2.4 C 0 km/h
2494 07-02-2010 22:46:11 2 C 3.56 g/m*3 2 C 0 km/h
2495 07-02-2010 23:11:11 2 C 3.67 g/m*3 2 C 0 km/h
2496 07-02-2010 23:36:12 1.7 C 3.65 g/m*3 1.7 C 0 km/h
2497 08-02-2010 00:01:12 1.4 C 3.52 g/m*3 1.4 C 0 km/h
2498 08-02-2010 00:26:12 1.6 C 3.68 g/m*3 1.6 C 0 km/h
2499 08-02-2010 00:51:12 1.4 C 3.47 g/m*3 1.4 C 0 km/h
2500 08-02-2010 01:16:12 1.2 C 3.42 g/m*3 1.2 C 0 km/h
Sensor: Nr:Datum:Temp:Abs-Feuchte:Windchill:Wind:
Aussen-T/F 2501 08-02-2010 01:41:12 1 C 3.43 g/m*3 1 C 0 km/h
2502 08-02-2010 02:06:12 0.8 C 3.48 g/m*3 0.8 C 0 km/h
2503 08-02-2010 02:31:12 0.8 C 3.48 g/m*3 0.8 C 0 km/h
2504 08-02-2010 02:56:12 0.7 C 3.46 g/m*3 0.7 C 0 km/h
2505 08-02-2010 03:21:12 0.5 C 3.41 g/m*3 0.5 C 0 km/h
2506 08-02-2010 03:46:12 0.5 C 3.41 g/m*3 0.5 C 0 km/h
2507 08-02-2010 04:11:12 0.3 C 3.31 g/m*3 0.3 C 0 km/h
2508 08-02-2010 04:36:12 0.3 C 3.31 g/m*3 0.3 C 0 km/h
2509 08-02-2010 05:01:12 0.2 C 3.24 g/m*3 0.2 C 0 km/h
2510 08-02-2010 05:26:12 -0.1 C 3.22 g/m*3 -0.1 C 0 km/h
2511 08-02-2010 05:51:12 -0.3 C 3.23 g/m*3 -0.3 C 0 km/h
2512 08-02-2010 06:16:12 -0.4 C 3.25 g/m*3 -0.4 C 0 km/h
2513 08-02-2010 06:41:12 -0.3 C 3.23 g/m*3 -0.3 C 0 km/h
2514 08-02-2010 07:06:12 -0.5 C 3.18 g/m*3 -0.5 C 0 km/h
2515 08-02-2010 07:31:12 -0.6 C 3.16 g/m*3 -0.6 C 0 km/h
2516 08-02-2010 07:56:12 -0.8 C 3.07 g/m*3 -0.8 C 0 km/h
2517 08-02-2010 08:21:13 -0.9 C 3.05 g/m*3 -0.9 C 0 km/h
2518 08-02-2010 08:46:13 -0.9 C 3 g/m*3 -0.9 C 0 km/h
2519 08-02-2010 09:11:13 -0.7 C 3 g/m*3 -0.7 C 0 km/h
2520 08-02-2010 09:36:13 -0.8 C 2.93 g/m*3 -0.8 C 0 km/h
2521 08-02-2010 10:01:13 -0.6 C 2.93 g/m*3 -0.6 C 0 km/h
2522 08-02-2010 10:26:13 -0.6 C 2.88 g/m*3 -0.6 C 0 km/h
2523 08-02-2010 10:51:13 -0.5 C 2.9 g/m*3 -0.5 C 0 km/h
2524 08-02-2010 11:16:13 -0.5 C 2.86 g/m*3 -0.5 C 0 km/h
2525 08-02-2010 11:41:13 -0.2 C 2.72 g/m*3 -0.2 C 0 km/h
Sensor: Nr:Datum:Temp:Abs-Feuchte:Windchill:Wind:
Aussen-T/F 2526 08-02-2010 12:06:13 -0.3 C 2.66 g/m*3 -0.3 C 0 km/h
2527 08-02-2010 12:31:13 -0.4 C 2.5 g/m*3 -0.4 C 0 km/h
2528 08-02-2010 12:56:13 0.3 C 2.57 g/m*3 0.3 C 0 km/h
2529 08-02-2010 13:21:13 0.5 C 2.56 g/m*3 0.5 C 0 km/h
2530 08-02-2010 13:46:13 0.8 C 2.66 g/m*3 0.8 C 0 km/h
2531 08-02-2010 14:11:13 0.6 C 2.63 g/m*3 0.6 C 0 km/h
2532 08-02-2010 14:36:13 0.5 C 2.66 g/m*3 0.5 C 0 km/h
2533 08-02-2010 15:01:13 -0.2 C 2.63 g/m*3 -0.2 C 0 km/h
2534 08-02-2010 15:26:13 -0.6 C 2.6 g/m*3 -0.6 C 0 km/h
2535 08-02-2010 15:51:13 -1.1 C 2.51 g/m*3 -1.1 C 0 km/h
2536 08-02-2010 16:16:13 -1.1 C 2.6 g/m*3 -1.1 C 0 km/h
2537 08-02-2010 16:41:13 -1.4 C 2.55 g/m*3 -1.4 C 0 km/h
2538 08-02-2010 17:06:13 -1.9 C 2.55 g/m*3 -1.9 C 0 km/h
2539 08-02-2010 17:31:14 -2.1 C 2.51 g/m*3 -2.1 C 0 km/h
2540 08-02-2010 17:56:14 -2.3 C 2.48 g/m*3 -2.3 C 0 km/h
2541 08-02-2010 18:21:14 -2.3 C 2.52 g/m*3 -2.3 C 0 km/h
2542 08-02-2010 18:46:14 -2.4 C 2.5 g/m*3 -2.4 C 0 km/h
2543 08-02-2010 19:11:14 -2.4 C 2.5 g/m*3 -2.4 C 0 km/h
2544 08-02-2010 19:36:14 -2.5 C 2.48 g/m*3 -2.5 C 0 km/h
2545 08-02-2010 20:01:14 -2.6 C 2.46 g/m*3 -2.6 C 0 km/h
2546 08-02-2010 20:26:14 -2.6 C 2.46 g/m*3 -2.6 C 0 km/h
2547 08-02-2010 20:51:14 -2.6 C 2.51 g/m*3 -2.6 C 0 km/h
2548 08-02-2010 21:16:14 -2.6 C 2.51 g/m*3 -2.6 C 0 km/h
2549 08-02-2010 21:41:14 -2.6 C 2.51 g/m*3 -2.6 C 0 km/h
2550 08-02-2010 22:06:14 -2.5 C 2.52 g/m*3 -2.5 C 0 km/h
Sensor: Nr:Datum:Temp:Abs-Feuchte:Windchill:Wind:
Aussen-T/F 2551 08-02-2010 22:31:14 -2.7 C 2.45 g/m*3 -2.7 C 0 km/h
2552 08-02-2010 22:56:14 -2.8 C 2.39 g/m*3 -2.8 C 0 km/h
2553 08-02-2010 23:21:14 -3.1 C 2.34 g/m*3 -3.1 C 0 km/h
2554 08-02-2010 23:46:14 -3.1 C 2.34 g/m*3 -3.1 C 0 km/h
2555 09-02-2010 00:11:14 -3.3 C 2.31 g/m*3 -3.3 C 0 km/h
2556 09-02-2010 00:36:14 -3.4 C 2.33 g/m*3 -3.4 C 0 km/h
2557 09-02-2010 01:01:14 -3.3 C 2.38 g/m*3 -3.3 C 0 km/h
2558 09-02-2010 01:26:14 -3.2 C 2.36 g/m*3 -3.2 C 0 km/h
2559 09-02-2010 01:51:14 -3.3 C 2.35 g/m*3 -3.3 C 0 km/h
2560 09-02-2010 02:16:14 -3.2 C 2.36 g/m*3 -3.2 C 0 km/h
2561 09-02-2010 02:41:15 -3.2 C 2.32 g/m*3 -3.2 C 0 km/h
2562 09-02-2010 03:06:15 -3.2 C 2.32 g/m*3 -3.2 C 0 km/h
2563 09-02-2010 03:31:15 -3.4 C 2.29 g/m*3 -3.4 C 0 km/h
2564 09-02-2010 03:56:15 -3.4 C 2.29 g/m*3 -3.4 C 0 km/h
2565 09-02-2010 04:21:15 -3.4 C 2.29 g/m*3 -3.4 C 0 km/h
2566 09-02-2010 04:46:15 -3.5 C 2.27 g/m*3 -3.5 C 0 km/h
2567 09-02-2010 05:11:15 -3.5 C 2.27 g/m*3 -3.5 C 0 km/h
2568 09-02-2010 05:36:15 -3.5 C 2.27 g/m*3 -3.5 C 0 km/h
2569 09-02-2010 06:01:15 -3.7 C 2.28 g/m*3 -3.7 C 0 km/h
2570 09-02-2010 06:26:15 -3.7 C 2.32 g/m*3 -3.7 C 0 km/h
2571 09-02-2010 06:51:15 -3.7 C 2.32 g/m*3 -3.7 C 0 km/h
2572 09-02-2010 07:16:15 -3.8 C 2.26 g/m*3 -3.8 C 0 km/h
2573 09-02-2010 07:41:15 -3.8 C 2.3 g/m*3 -3.8 C 0 km/h
2574 09-02-2010 08:06:15 -3.9 C 2.28 g/m*3 -3.9 C 0 km/h
2575 09-02-2010 08:31:15 -3.9 C 2.28 g/m*3 -3.9 C 0 km/h
Sensor: Nr:Datum:Temp:Abs-Feuchte:Windchill:Wind:
Aussen-T/F 2576 09-02-2010 08:56:15 -4.1 C 2.25 g/m*3 -4.1 C 0 km/h
2577 09-02-2010 09:21:15 -4 C 2.27 g/m*3 -4 C 0 km/h
2578 09-02-2010 09:46:15 -3.9 C 2.32 g/m*3 -3.9 C 0 km/h
2579 09-02-2010 10:11:15 -4 C 2.38 g/m*3 -4 C 0 km/h
2580 09-02-2010 10:36:15 -3.6 C 2.52 g/m*3 -3.6 C 0 km/h
2581 09-02-2010 11:01:15 -3.2 C 2.56 g/m*3 -3.2 C 0 km/h
2582 09-02-2010 11:26:15 -3.4 C 2.37 g/m*3 -3.4 C 0 km/h
2583 09-02-2010 11:51:16 -3.5 C 2.35 g/m*3 -3.5 C 0 km/h
2584 09-02-2010 12:16:16 -3.4 C 2.25 g/m*3 -3.4 C 0 km/h
2585 09-02-2010 12:41:16 -3.1 C 2.18 g/m*3 -3.1 C 0 km/h
2586 09-02-2010 13:06:16 -2.8 C 2.23 g/m*3 -2.8 C 0 km/h
2587 09-02-2010 13:31:16 -2.8 C 2.11 g/m*3 -2.8 C 0 km/h
2588 09-02-2010 13:56:16 -3 C 2.04 g/m*3 -3 C 0 km/h
2589 09-02-2010 14:21:16 -3.4 C 2.02 g/m*3 -3.4 C 0 km/h
2590 09-02-2010 14:46:16 -3.5 C 2.01 g/m*3 -3.5 C 0 km/h
2591 09-02-2010 15:11:16 -3.5 C 1.97 g/m*3 -3.5 C 0 km/h
2592 09-02-2010 15:36:16 -3.6 C 2 g/m*3 -3.6 C 0 km/h
2593 09-02-2010 16:01:16 -3.8 C 1.97 g/m*3 -3.8 C 0 km/h
2594 09-02-2010 16:26:16 -3.6 C 2 g/m*3 -3.6 C 0 km/h
2595 09-02-2010 16:51:16 -3.5 C 1.97 g/m*3 -3.5 C 0 km/h
2596 09-02-2010 17:16:16 -3.9 C 2.03 g/m*3 -3.9 C 0 km/h
2597 09-02-2010 17:41:16 -4 C 2.09 g/m*3 -4 C 0 km/h
2598 09-02-2010 18:06:16 -4.1 C 2.14 g/m*3 -4.1 C 0 km/h
2599 09-02-2010 18:31:16 -4.1 C 2.14 g/m*3 -4.1 C 0 km/h
2600 09-02-2010 18:56:16 -4.2 C 2.09 g/m*3 -4.2 C 0 km/h
Sensor: Nr:Datum:Temp:Abs-Feuchte:Windchill:Wind:
Aussen-T/F 2601 09-02-2010 19:21:16 -4.1 C 2.18 g/m*3 -4.1 C 0 km/h
2602 09-02-2010 19:46:16 -4.1 C 2.18 g/m*3 -4.1 C 0 km/h
2603 09-02-2010 20:11:16 -4.5 C 2.08 g/m*3 -4.5 C 0 km/h
2604 09-02-2010 20:36:16 -4.6 C 2.1 g/m*3 -4.6 C 0 km/h
2605 09-02-2010 21:01:17 -4.6 C 1.93 g/m*3 -4.6 C 0 km/h
2606 09-02-2010 21:26:17 -4.6 C 1.75 g/m*3 -4.6 C 0 km/h
2607 09-02-2010 21:51:17 -4.7 C 1.77 g/m*3 -4.7 C 0 km/h
2608 09-02-2010 22:16:17 -4.6 C 1.82 g/m*3 -4.6 C 0 km/h
2609 09-02-2010 22:41:17 -4.5 C 1.87 g/m*3 -4.5 C 0 km/h
2610 09-02-2010 23:06:17 -4.6 C 1.93 g/m*3 -4.6 C 0 km/h
2611 09-02-2010 23:31:17 -4.5 C 1.94 g/m*3 -4.5 C 0 km/h
2612 09-02-2010 23:56:17 -4.5 C 1.94 g/m*3 -4.5 C 0 km/h
2613 10-02-2010 00:21:17 -4.6 C 2.07 g/m*3 -4.6 C 0 km/h
2614 10-02-2010 00:46:17 -4.7 C 2.12 g/m*3 -4.7 C 0 km/h
2615 10-02-2010 01:11:17 -4.7 C 2.12 g/m*3 -4.7 C 0 km/h
2616 10-02-2010 01:36:17 -4.7 C 2.16 g/m*3 -4.7 C 0 km/h
2617 10-02-2010 02:01:17 -4.7 C 2.23 g/m*3 -4.7 C 0 km/h
2618 10-02-2010 02:26:17 -4.6 C 2.28 g/m*3 -4.6 C 0 km/h
2619 10-02-2010 02:51:17 -4.7 C 2.3 g/m*3 -4.7 C 0 km/h
2620 10-02-2010 03:16:17 -4.7 C 2.33 g/m*3 -4.7 C 0 km/h
2621 10-02-2010 03:41:17 -4.9 C 2.33 g/m*3 -4.9 C 0 km/h
2622 10-02-2010 04:06:17 -4.9 C 2.3 g/m*3 -4.9 C 0 km/h
2623 10-02-2010 04:31:17 -5 C 2.32 g/m*3 -5 C 0 km/h
2624 10-02-2010 04:56:17 -5 C 2.35 g/m*3 -5 C 0 km/h
2625 10-02-2010 05:21:17 -5 C 2.38 g/m*3 -5 C 0 km/h
Sensor: Nr:Datum:Temp:Abs-Feuchte:Windchill:Wind:
Aussen-T/F 2626 10-02-2010 05:46:17 -5 C 2.35 g/m*3 -5 C 0 km/h
2627 10-02-2010 06:11:18 -5 C 2.35 g/m*3 -5 C 0 km/h
2628 10-02-2010 06:36:18 -5.2 C 2.32 g/m*3 -5.2 C 0 km/h
2629 10-02-2010 07:01:18 -5.4 C 2.28 g/m*3 -5.4 C 0 km/h
2630 10-02-2010 07:26:18 -5.6 C 2.31 g/m*3 -5.6 C 0 km/h
2631 10-02-2010 07:51:18 -5.4 C 2.38 g/m*3 -5.4 C 0 km/h
2632 10-02-2010 08:16:18 -5.5 C 2.36 g/m*3 -5.5 C 0 km/h
2633 10-02-2010 08:41:18 -5.3 C 2.33 g/m*3 -5.3 C 0 km/h
2634 10-02-2010 09:06:18 -5 C 2.42 g/m*3 -5 C 0 km/h
2635 10-02-2010 09:31:18 -4.7 C 2.4 g/m*3 -4.7 C 0 km/h
2636 10-02-2010 09:56:18 -4.7 C 2.4 g/m*3 -4.7 C 0 km/h
2637 10-02-2010 10:21:18 -4.4 C 2.45 g/m*3 -4.4 C 0 km/h
2638 10-02-2010 10:46:18 -4.4 C 2.35 g/m*3 -4.4 C 0 km/h
2639 10-02-2010 11:11:18 -4 C 2.41 g/m*3 -4 C 0 km/h
2640 10-02-2010 11:36:18 -3.7 C 2.35 g/m*3 -3.7 C 0 km/h
2641 10-02-2010 12:01:18 -3.7 C 2.39 g/m*3 -3.7 C 0 km/h
2642 10-02-2010 12:26:18 -3.2 C 2.32 g/m*3 -3.2 C 0 km/h
2643 10-02-2010 12:51:18 -3.4 C 2.37 g/m*3 -3.4 C 0 km/h
2644 10-02-2010 13:16:18 -3.2 C 2.52 g/m*3 -3.2 C 0 km/h
2645 10-02-2010 13:41:18 -2.6 C 2.26 g/m*3 -2.6 C 0 km/h
2646 10-02-2010 14:06:18 -3.2 C 2.21 g/m*3 -3.2 C 0 km/h
2647 10-02-2010 14:31:18 -3.3 C 2.27 g/m*3 -3.3 C 0 km/h
2648 10-02-2010 14:56:18 -3.2 C 2.25 g/m*3 -3.2 C 0 km/h
2649 10-02-2010 15:21:18 -3.3 C 2.42 g/m*3 -3.3 C 0 km/h
2650 10-02-2010 15:46:19 -3 C 2.24 g/m*3 -3 C 0 km/h
Sensor: Nr:Datum:Temp:Abs-Feuchte:Windchill:Wind:
Aussen-T/F 2651 10-02-2010 16:11:19 -3.4 C 2.29 g/m*3 -3.4 C 0 km/h
2652 10-02-2010 16:36:19 -3.5 C 2.27 g/m*3 -3.5 C 0 km/h
2653 10-02-2010 17:01:19 -3.4 C 2.29 g/m*3 -3.4 C 0 km/h
2654 10-02-2010 17:26:19 -3.8 C 2.3 g/m*3 -3.8 C 0 km/h
2655 10-02-2010 17:51:19 -4.4 C 2.42 g/m*3 -4.4 C 0 km/h
2656 10-02-2010 18:16:19 -5.2 C 2.32 g/m*3 -5.2 C 0 km/h
2657 10-02-2010 18:41:19 -5.2 C 2.45 g/m*3 -5.2 C 0 km/h
2658 10-02-2010 19:06:19 -5.3 C 2.37 g/m*3 -5.3 C 0 km/h
2659 10-02-2010 19:31:19 -6 C 2.28 g/m*3 -6 C 0 km/h
2660 10-02-2010 19:56:19 -6.2 C 2.31 g/m*3 -6.2 C 0 km/h
2661 10-02-2010 20:21:19 -6.5 C 2.29 g/m*3 -6.5 C 0 km/h
2662 10-02-2010 20:46:19 -6.3 C 2.35 g/m*3 -6.3 C 0 km/h
2663 10-02-2010 21:11:19 -6.1 C 2.39 g/m*3 -6.1 C 0 km/h
2664 10-02-2010 21:36:19 -6.6 C 2.27 g/m*3 -6.6 C 0 km/h
2665 10-02-2010 22:01:19 -6.3 C 2.35 g/m*3 -6.3 C 0 km/h
2666 10-02-2010 22:26:19 -6.5 C 2.26 g/m*3 -6.5 C 0 km/h
2667 10-02-2010 22:51:19 -6.9 C 2.16 g/m*3 -6.9 C 0 km/h
2668 10-02-2010 23:16:19 -7.4 C 2.09 g/m*3 -7.4 C 0 km/h
2669 10-02-2010 23:41:19 -7 C 2.18 g/m*3 -7 C 0 km/h
2670 11-02-2010 00:06:20 -6.5 C 2.29 g/m*3 -6.5 C 0 km/h
2671 11-02-2010 00:31:20 -6.5 C 2.17 g/m*3 -6.5 C 0 km/h
2672 11-02-2010 00:56:20 -6.6 C 2.12 g/m*3 -6.6 C 0 km/h
2673 11-02-2010 01:21:20 -7.5 C 1.96 g/m*3 -7.5 C 0 km/h
2674 11-02-2010 01:46:20 -8.1 C 1.9 g/m*3 -8.1 C 0 km/h
2675 11-02-2010 02:11:20 -7.7 C 2.04 g/m*3 -7.7 C 0 km/h
Sensor: Nr:Datum:Temp:Abs-Feuchte:Windchill:Wind:
Aussen-T/F 2676 11-02-2010 02:36:20 -7.4 C 2.09 g/m*3 -7.4 C 0 km/h
2677 11-02-2010 03:01:20 -7.2 C 2.12 g/m*3 -7.2 C 0 km/h
2678 11-02-2010 03:26:20 -6.9 C 2.14 g/m*3 -6.9 C 0 km/h
2679 11-02-2010 03:51:20 -6.8 C 2.12 g/m*3 -6.8 C 0 km/h
2680 11-02-2010 04:16:20 -6.8 C 2.09 g/m*3 -6.8 C 0 km/h
2681 11-02-2010 04:41:20 -6.4 C 2.18 g/m*3 -6.4 C 0 km/h
2682 11-02-2010 05:06:20 -6.2 C 2.18 g/m*3 -6.2 C 0 km/h
2683 11-02-2010 05:31:20 -6.1 C 2.23 g/m*3 -6.1 C 0 km/h
2684 11-02-2010 05:56:20 -6 C 2.31 g/m*3 -6 C 0 km/h
2685 11-02-2010 06:21:20 -5.9 C 2.36 g/m*3 -5.9 C 0 km/h
2686 11-02-2010 06:46:20 -5.8 C 2.44 g/m*3 -5.8 C 0 km/h
2687 11-02-2010 07:11:20 -5.7 C 2.46 g/m*3 -5.7 C 0 km/h
2688 11-02-2010 07:36:20 -5.6 C 2.51 g/m*3 -5.6 C 0 km/h
2689 11-02-2010 08:01:20 -5.5 C 2.56 g/m*3 -5.5 C 0 km/h
2690 11-02-2010 08:26:20 -5.4 C 2.58 g/m*3 -5.4 C 0 km/h
2691 11-02-2010 08:51:20 -5.2 C 2.62 g/m*3 -5.2 C 0 km/h
2692 11-02-2010 09:16:20 -4.9 C 2.64 g/m*3 -4.9 C 0 km/h
2693 11-02-2010 09:41:21 -4.5 C 2.68 g/m*3 -4.5 C 0 km/h
2694 11-02-2010 10:06:21 -4 C 2.74 g/m*3 -4 C 0 km/h
2695 11-02-2010 10:31:21 -3.7 C 2.77 g/m*3 -3.7 C 0 km/h
2696 11-02-2010 10:56:21 -3.3 C 2.77 g/m*3 -3.3 C 0 km/h
2697 11-02-2010 11:21:21 -2.9 C 2.77 g/m*3 -2.9 C 0 km/h
2698 11-02-2010 11:46:21 -2.7 C 2.81 g/m*3 -2.7 C 0 km/h
2699 11-02-2010 12:11:21 -2.5 C 2.89 g/m*3 -2.5 C 0 km/h
2700 11-02-2010 12:36:21 -2 C 2.99 g/m*3 -2 C 0 km/h
Sensor: Nr:Datum:Temp:Abs-Feuchte:Windchill:Wind:
Aussen-T/F 2701 11-02-2010 13:01:21 -1.5 C 3.1 g/m*3 -1.5 C 0 km/h
2702 11-02-2010 13:26:21 -1.1 C 3.05 g/m*3 -1.1 C 0 km/h
2703 11-02-2010 13:51:21 -1.3 C 2.92 g/m*3 -1.3 C 0 km/h
2704 11-02-2010 14:16:21 -1.1 C 3.1 g/m*3 -1.1 C 0 km/h
2705 11-02-2010 14:41:21 -1.2 C 2.94 g/m*3 -1.2 C 0 km/h
2706 11-02-2010 15:06:21 -1.2 C 2.9 g/m*3 -1.2 C 0 km/h
2707 11-02-2010 15:31:21 -1.6 C 2.86 g/m*3 -1.6 C 0 km/h
2708 11-02-2010 15:56:21 -1.3 C 2.88 g/m*3 -1.3 C 0 km/h
2709 11-02-2010 16:21:21 -1.4 C 2.9 g/m*3 -1.4 C 0 km/h
2710 11-02-2010 16:46:21 -1.6 C 2.9 g/m*3 -1.6 C 0 km/h
2711 11-02-2010 17:11:21 -1.7 C 2.84 g/m*3 -1.7 C 0 km/h
2712 11-02-2010 17:36:21 -1.7 C 2.76 g/m*3 -1.7 C 0 km/h
2713 11-02-2010 18:01:21 -1.8 C 2.74 g/m*3 -1.8 C 0 km/h
2714 11-02-2010 18:26:21 -1.8 C 2.74 g/m*3 -1.8 C 0 km/h
2715 11-02-2010 18:51:22 -1.8 C 2.69 g/m*3 -1.8 C 0 km/h
2716 11-02-2010 19:16:22 -1.8 C 2.65 g/m*3 -1.8 C 0 km/h
2717 11-02-2010 19:41:22 -1.8 C 2.65 g/m*3 -1.8 C 0 km/h
2718 11-02-2010 20:06:22 -1.8 C 2.65 g/m*3 -1.8 C 0 km/h
2719 11-02-2010 20:31:22 -1.8 C 2.69 g/m*3 -1.8 C 0 km/h
2720 11-02-2010 20:56:22 -1.8 C 2.74 g/m*3 -1.8 C 0 km/h
2721 11-02-2010 21:21:22 -2.1 C 2.85 g/m*3 -2.1 C 0 km/h
2722 11-02-2010 21:46:22 -2.2 C 2.95 g/m*3 -2.2 C 0 km/h
2723 11-02-2010 22:11:22 -2.5 C 3.05 g/m*3 -2.5 C 0 km/h
2724 11-02-2010 22:36:22 -2.5 C 3.09 g/m*3 -2.5 C 0 km/h
2725 11-02-2010 23:01:22 -2.5 C 3.13 g/m*3 -2.5 C 0 km/h
Sensor: Nr:Datum:Temp:Abs-Feuchte:Windchill:Wind:
Aussen-T/F 2726 11-02-2010 23:26:22 -2.6 C 3.15 g/m*3 -2.6 C 0 km/h
2727 11-02-2010 23:51:22 -2.5 C 3.17 g/m*3 -2.5 C 0 km/h
2728 12-02-2010 00:16:22 -2.6 C 3.19 g/m*3 -2.6 C 0 km/h
2729 12-02-2010 00:41:22 -2.7 C 3.21 g/m*3 -2.7 C 0 km/h
2730 12-02-2010 01:06:22 -2.7 C 3.21 g/m*3 -2.7 C 0 km/h
2731 12-02-2010 01:31:22 -2.7 C 3.21 g/m*3 -2.7 C 0 km/h
2732 12-02-2010 01:56:22 -2.6 C 3.19 g/m*3 -2.6 C 0 km/h
2733 12-02-2010 02:21:22 -2.6 C 3.19 g/m*3 -2.6 C 0 km/h
2734 12-02-2010 02:46:22 -2.6 C 3.15 g/m*3 -2.6 C 0 km/h
2735 12-02-2010 03:11:22 -2.6 C 3.19 g/m*3 -2.6 C 0 km/h
2736 12-02-2010 03:36:22 -2.7 C 3.17 g/m*3 -2.7 C 0 km/h
2737 12-02-2010 04:01:23 -2.6 C 3.23 g/m*3 -2.6 C 0 km/h
2738 12-02-2010 04:26:23 -2.6 C 3.19 g/m*3 -2.6 C 0 km/h
2739 12-02-2010 04:51:23 -2.6 C 3.19 g/m*3 -2.6 C 0 km/h
2740 12-02-2010 05:16:23 -2.6 C 3.19 g/m*3 -2.6 C 0 km/h
2741 12-02-2010 05:41:23 -2.5 C 3.21 g/m*3 -2.5 C 0 km/h
2742 12-02-2010 06:06:23 -2.6 C 3.15 g/m*3 -2.6 C 0 km/h
2743 12-02-2010 06:31:23 -2.5 C 3.17 g/m*3 -2.5 C 0 km/h
2744 12-02-2010 06:56:23 -2.6 C 3.19 g/m*3 -2.6 C 0 km/h
2745 12-02-2010 07:21:23 -2.7 C 3.17 g/m*3 -2.7 C 0 km/h
2746 12-02-2010 07:46:23 -2.8 C 3.07 g/m*3 -2.8 C 0 km/h
2747 12-02-2010 08:11:23 -2.7 C 3.01 g/m*3 -2.7 C 0 km/h
2748 12-02-2010 08:36:23 -2.6 C 3.03 g/m*3 -2.6 C 0 km/h
2749 12-02-2010 09:01:23 -2.6 C 3.03 g/m*3 -2.6 C 0 km/h
2750 12-02-2010 09:26:23 -2.5 C 3.01 g/m*3 -2.5 C 0 km/h
Sensor: Nr:Datum:Temp:Abs-Feuchte:Windchill:Wind:
Aussen-T/F 2751 12-02-2010 09:51:23 -2.3 C 2.97 g/m*3 -2.3 C 0 km/h
2752 12-02-2010 10:16:23 -2.1 C 2.93 g/m*3 -2.1 C 0 km/h
2753 12-02-2010 10:41:23 -1.9 C 2.84 g/m*3 -1.9 C 0 km/h
2754 12-02-2010 11:06:23 -1.2 C 2.9 g/m*3 -1.2 C 0 km/h
2755 12-02-2010 11:31:23 -1.3 C 2.74 g/m*3 -1.3 C 0 km/h
2756 12-02-2010 11:56:23 -1 C 2.71 g/m*3 -1 C 0 km/h
2757 12-02-2010 12:21:23 -1.1 C 2.69 g/m*3 -1.1 C 0 km/h
2758 12-02-2010 12:46:23 -1.4 C 2.77 g/m*3 -1.4 C 0 km/h
2759 12-02-2010 13:11:24 -1.2 C 2.85 g/m*3 -1.2 C 0 km/h
2760 12-02-2010 13:36:24 -1.2 C 2.9 g/m*3 -1.2 C 0 km/h
2761 12-02-2010 14:01:24 -1.1 C 2.92 g/m*3 -1.1 C 0 km/h
2762 12-02-2010 14:26:24 -0.7 C 2.95 g/m*3 -0.7 C 0 km/h
2763 12-02-2010 14:51:24 -0.5 C 2.95 g/m*3 -0.5 C 0 km/h
2764 12-02-2010 15:16:24 -0.8 C 2.84 g/m*3 -0.8 C 0 km/h
2765 12-02-2010 15:41:24 -0.8 C 2.89 g/m*3 -0.8 C 0 km/h
2766 12-02-2010 16:06:24 -0.9 C 2.91 g/m*3 -0.9 C 0 km/h
2767 12-02-2010 16:31:24 -1.2 C 2.85 g/m*3 -1.2 C 0 km/h
2768 12-02-2010 16:56:24 -1.2 C 2.76 g/m*3 -1.2 C 0 km/h
2769 12-02-2010 17:21:24 -1.4 C 2.73 g/m*3 -1.4 C 0 km/h
2770 12-02-2010 17:46:24 -1.9 C 2.76 g/m*3 -1.9 C 0 km/h
2771 12-02-2010 18:11:24 -2.1 C 2.72 g/m*3 -2.1 C 0 km/h
2772 12-02-2010 18:36:24 -2.2 C 2.78 g/m*3 -2.2 C 0 km/h
2773 12-02-2010 19:01:24 -2.4 C 2.66 g/m*3 -2.4 C 0 km/h
2774 12-02-2010 19:26:24 -2.5 C 2.69 g/m*3 -2.5 C 0 km/h
2775 12-02-2010 19:51:24 -2.5 C 2.73 g/m*3 -2.5 C 0 km/h
Sensor: Nr:Datum:Temp:Abs-Feuchte:Windchill:Wind:
Aussen-T/F 2776 12-02-2010 20:16:24 -2.6 C 2.71 g/m*3 -2.6 C 0 km/h
2777 12-02-2010 20:41:24 -2.6 C 2.75 g/m*3 -2.6 C 0 km/h
2778 12-02-2010 21:06:24 -2.6 C 2.71 g/m*3 -2.6 C 0 km/h
2779 12-02-2010 21:31:24 -2.7 C 2.73 g/m*3 -2.7 C 0 km/h
2780 12-02-2010 21:56:25 -2.8 C 2.71 g/m*3 -2.8 C 0 km/h
2781 12-02-2010 22:21:25 -2.8 C 2.75 g/m*3 -2.8 C 0 km/h
2782 12-02-2010 22:46:25 -2.9 C 2.73 g/m*3 -2.9 C 0 km/h
2783 12-02-2010 23:11:25 -3 C 2.71 g/m*3 -3 C 0 km/h
2784 12-02-2010 23:36:25 -3.2 C 2.67 g/m*3 -3.2 C 0 km/h
2785 13-02-2010 00:01:25 -3.2 C 2.71 g/m*3 -3.2 C 0 km/h
2786 13-02-2010 00:26:25 -3.4 C 2.75 g/m*3 -3.4 C 0 km/h
2787 13-02-2010 00:51:25 -3.7 C 2.73 g/m*3 -3.7 C 0 km/h
2788 13-02-2010 01:16:25 -3.9 C 2.76 g/m*3 -3.9 C 0 km/h
2789 13-02-2010 01:41:25 -4 C 2.78 g/m*3 -4 C 0 km/h
2790 13-02-2010 02:06:25 -3.9 C 2.8 g/m*3 -3.9 C 0 km/h
2791 13-02-2010 02:31:25 -4 C 2.74 g/m*3 -4 C 0 km/h
2792 13-02-2010 02:56:25 -4.1 C 2.69 g/m*3 -4.1 C 0 km/h
2793 13-02-2010 03:21:25 -4.2 C 2.7 g/m*3 -4.2 C 0 km/h
2794 13-02-2010 03:46:25 -4.2 C 2.74 g/m*3 -4.2 C 0 km/h
2795 13-02-2010 04:11:25 -4.2 C 2.74 g/m*3 -4.2 C 0 km/h
2796 13-02-2010 04:36:25 -4.1 C 2.8 g/m*3 -4.1 C 0 km/h
2797 13-02-2010 05:01:25 -4.1 C 2.8 g/m*3 -4.1 C 0 km/h
2798 13-02-2010 05:26:25 -4 C 2.82 g/m*3 -4 C 0 km/h
2799 13-02-2010 05:51:25 -3.8 C 2.86 g/m*3 -3.8 C 0 km/h
2800 13-02-2010 06:16:26 -3.9 C 2.84 g/m*3 -3.9 C 0 km/h
Sensor: Nr:Datum:Temp:Abs-Feuchte:Windchill:Wind:
Aussen-T/F 2801 13-02-2010 06:41:26 -3.8 C 2.86 g/m*3 -3.8 C 0 km/h
2802 13-02-2010 07:06:26 -3.7 C 2.84 g/m*3 -3.7 C 0 km/h
2803 13-02-2010 07:31:26 -3.8 C 2.78 g/m*3 -3.8 C 0 km/h
2804 13-02-2010 07:56:26 -3.8 C 2.82 g/m*3 -3.8 C 0 km/h
2805 13-02-2010 08:21:26 -3.6 C 2.86 g/m*3 -3.6 C 0 km/h
2806 13-02-2010 08:46:26 -3.2 C 2.9 g/m*3 -3.2 C 0 km/h
2807 13-02-2010 09:11:26 -2.9 C 2.89 g/m*3 -2.9 C 0 km/h
2808 13-02-2010 09:36:26 -2.6 C 2.91 g/m*3 -2.6 C 0 km/h
2809 13-02-2010 10:01:26 -2.7 C 2.73 g/m*3 -2.7 C 0 km/h
2810 13-02-2010 10:26:26 -2.4 C 2.7 g/m*3 -2.4 C 0 km/h
2811 13-02-2010 10:51:26 -2.3 C 2.64 g/m*3 -2.3 C 0 km/h
2812 13-02-2010 11:16:26 -1.9 C 2.76 g/m*3 -1.9 C 0 km/h
2813 13-02-2010 11:41:26 -1.5 C 2.66 g/m*3 -1.5 C 0 km/h
2814 13-02-2010 12:06:26 -1.3 C 2.7 g/m*3 -1.3 C 0 km/h
2815 13-02-2010 12:31:26 -0.5 C 2.86 g/m*3 -0.5 C 0 km/h
2816 13-02-2010 12:56:26 -1.2 C 2.67 g/m*3 -1.2 C 0 km/h
2817 13-02-2010 13:21:26 -1.4 C 2.73 g/m*3 -1.4 C 0 km/h
2818 13-02-2010 13:46:26 -1 C 2.76 g/m*3 -1 C 0 km/h
2819 13-02-2010 14:11:26 -1.1 C 2.51 g/m*3 -1.1 C 0 km/h
2820 13-02-2010 14:36:26 0 C 2.76 g/m*3 0 C 0 km/h
2821 13-02-2010 15:01:27 -0.3 C 2.56 g/m*3 -0.3 C 0 km/h
2822 13-02-2010 15:26:27 -0.5 C 2.57 g/m*3 -0.5 C 0 km/h
2823 13-02-2010 15:51:27 -0.7 C 2.54 g/m*3 -0.7 C 0 km/h
2824 13-02-2010 16:16:27 -0.9 C 2.55 g/m*3 -0.9 C 0 km/h
2825 13-02-2010 16:41:27 -1 C 2.58 g/m*3 -1 C 0 km/h
Sensor: Nr:Datum:Temp:Abs-Feuchte:Windchill:Wind:
Aussen-T/F 2826 13-02-2010 17:06:27 -1.4 C 2.68 g/m*3 -1.4 C 0 km/h
2827 13-02-2010 17:31:27 -1.9 C 2.8 g/m*3 -1.9 C 0 km/h
2828 13-02-2010 17:56:27 -2 C 2.91 g/m*3 -2 C 0 km/h
2829 13-02-2010 18:21:27 -2 C 2.95 g/m*3 -2 C 0 km/h
2830 13-02-2010 18:46:27 -2.1 C 2.97 g/m*3 -2.1 C 0 km/h
2831 13-02-2010 19:11:27 -2.2 C 2.99 g/m*3 -2.2 C 0 km/h
2832 13-02-2010 19:36:27 -2.1 C 3.01 g/m*3 -2.1 C 0 km/h
2833 13-02-2010 20:01:27 -2.2 C 2.99 g/m*3 -2.2 C 0 km/h
2834 13-02-2010 20:26:27 -2.3 C 3.01 g/m*3 -2.3 C 0 km/h
2835 13-02-2010 20:51:27 -2.4 C 2.99 g/m*3 -2.4 C 0 km/h
2836 13-02-2010 21:16:27 -2.4 C 2.99 g/m*3 -2.4 C 0 km/h
2837 13-02-2010 21:41:27 -2.4 C 2.99 g/m*3 -2.4 C 0 km/h
2838 13-02-2010 22:06:27 -2.5 C 2.97 g/m*3 -2.5 C 0 km/h
2839 13-02-2010 22:31:27 -2.6 C 2.99 g/m*3 -2.6 C 0 km/h
2840 13-02-2010 22:56:27 -2.5 C 3.05 g/m*3 -2.5 C 0 km/h
2841 13-02-2010 23:21:28 -2.7 C 3.05 g/m*3 -2.7 C 0 km/h
2842 13-02-2010 23:46:28 -2.8 C 3.03 g/m*3 -2.8 C 0 km/h
2843 14-02-2010 00:11:28 -2.9 C 3.01 g/m*3 -2.9 C 0 km/h
2844 14-02-2010 00:36:28 -3.1 C 3 g/m*3 -3.1 C 0 km/h
2845 14-02-2010 01:01:28 -3.2 C 2.98 g/m*3 -3.2 C 0 km/h
2846 14-02-2010 01:26:28 -3.3 C 2.96 g/m*3 -3.3 C 0 km/h
2847 14-02-2010 01:51:28 -3.4 C 2.94 g/m*3 -3.4 C 0 km/h
2848 14-02-2010 02:16:28 -3.4 C 2.98 g/m*3 -3.4 C 0 km/h
2849 14-02-2010 02:41:28 -3.4 C 2.98 g/m*3 -3.4 C 0 km/h
2850 14-02-2010 03:06:28 -3.4 C 3.02 g/m*3 -3.4 C 0 km/h
Sensor: Nr:Datum:Temp:Abs-Feuchte:Windchill:Wind:
Aussen-T/F 2851 14-02-2010 03:31:28 -3.4 C 3.02 g/m*3 -3.4 C 0 km/h
2852 14-02-2010 03:56:28 -3.6 C 2.97 g/m*3 -3.6 C 0 km/h
2853 14-02-2010 04:21:28 -3.5 C 2.99 g/m*3 -3.5 C 0 km/h
2854 14-02-2010 04:46:28 -3.6 C 2.97 g/m*3 -3.6 C 0 km/h
2855 14-02-2010 05:11:28 -3.7 C 2.95 g/m*3 -3.7 C 0 km/h
2856 14-02-2010 05:36:28 -3.6 C 3.01 g/m*3 -3.6 C 0 km/h
2857 14-02-2010 06:01:28 -3.7 C 2.99 g/m*3 -3.7 C 0 km/h
2858 14-02-2010 06:26:28 -3.7 C 2.99 g/m*3 -3.7 C 0 km/h
2859 14-02-2010 06:51:28 -3.7 C 2.99 g/m*3 -3.7 C 0 km/h
2860 14-02-2010 07:16:28 -3.4 C 3.05 g/m*3 -3.4 C 0 km/h
2861 14-02-2010 07:41:28 -3.6 C 3.01 g/m*3 -3.6 C 0 km/h
2862 14-02-2010 08:06:29 -3.5 C 3.03 g/m*3 -3.5 C 0 km/h
2863 14-02-2010 08:31:29 -3.5 C 3.03 g/m*3 -3.5 C 0 km/h
2864 14-02-2010 08:56:29 -3.3 C 3.08 g/m*3 -3.3 C 0 km/h
2865 14-02-2010 09:21:29 -3.2 C 3.1 g/m*3 -3.2 C 0 km/h
2866 14-02-2010 09:46:29 -3.1 C 3.12 g/m*3 -3.1 C 0 km/h
2867 14-02-2010 10:11:29 -2.8 C 3.19 g/m*3 -2.8 C 0 km/h
2868 14-02-2010 10:36:29 -2.4 C 3.24 g/m*3 -2.4 C 0 km/h
2869 14-02-2010 11:01:29 -2.1 C 3.22 g/m*3 -2.1 C 0 km/h
2870 14-02-2010 11:26:29 -1.9 C 3.23 g/m*3 -1.9 C 0 km/h
2871 14-02-2010 11:51:29 -1.5 C 3.23 g/m*3 -1.5 C 0 km/h
2872 14-02-2010 12:16:29 -1.1 C 3.19 g/m*3 -1.1 C 0 km/h
2873 14-02-2010 12:41:29 -0.6 C 3.07 g/m*3 -0.6 C 0 km/h
2874 14-02-2010 13:06:29 0.2 C 3.14 g/m*3 0.2 C 0 km/h
2875 14-02-2010 13:31:29 0.6 C 3.03 g/m*3 0.6 C 0 km/h
Sensor: Nr:Datum:Temp:Abs-Feuchte:Windchill:Wind:
Aussen-T/F 2876 14-02-2010 13:56:29 1 C 3.01 g/m*3 1 C 0 km/h
2877 14-02-2010 14:21:29 1.4 C 3.09 g/m*3 1.4 C 0 km/h
2878 14-02-2010 14:46:29 1.4 C 3.04 g/m*3 1.4 C 0 km/h
2879 14-02-2010 15:11:29 0.8 C 2.92 g/m*3 0.8 C 0 km/h
2880 14-02-2010 15:36:29 0.7 C 3 g/m*3 0.7 C 0 km/h
2881 14-02-2010 16:01:29 0.1 C 2.98 g/m*3 0.1 C 0 km/h
2882 14-02-2010 16:26:30 -0.3 C 2.99 g/m*3 -0.3 C 0 km/h
2883 14-02-2010 16:51:30 -0.5 C 3.09 g/m*3 -0.5 C 0 km/h
2884 14-02-2010 17:16:30 -0.7 C 3.14 g/m*3 -0.7 C 0 km/h
2885 14-02-2010 17:41:30 -0.9 C 3.19 g/m*3 -0.9 C 0 km/h
2886 14-02-2010 18:06:30 -1.1 C 3.23 g/m*3 -1.1 C 0 km/h
2887 14-02-2010 18:31:30 -1.3 C 3.23 g/m*3 -1.3 C 0 km/h
2888 14-02-2010 18:56:30 -1.5 C 3.27 g/m*3 -1.5 C 0 km/h
2889 14-02-2010 19:21:30 -1.7 C 3.27 g/m*3 -1.7 C 0 km/h
2890 14-02-2010 19:46:30 -1.8 C 3.29 g/m*3 -1.8 C 0 km/h
2891 14-02-2010 20:11:30 -1.7 C 3.36 g/m*3 -1.7 C 0 km/h
2892 14-02-2010 20:36:30 -1.9 C 3.31 g/m*3 -1.9 C 0 km/h
2893 14-02-2010 21:01:30 -2.2 C 3.24 g/m*3 -2.2 C 0 km/h
2894 14-02-2010 21:26:30 -2.4 C 3.16 g/m*3 -2.4 C 0 km/h
2895 14-02-2010 21:51:30 -2.6 C 3.11 g/m*3 -2.6 C 0 km/h
2896 14-02-2010 22:16:30 -2.9 C 3.01 g/m*3 -2.9 C 0 km/h
2897 14-02-2010 22:41:30 -3 C 3.02 g/m*3 -3 C 0 km/h
2898 14-02-2010 23:06:30 -3 C 2.99 g/m*3 -3 C 0 km/h
2899 14-02-2010 23:31:30 -3 C 2.99 g/m*3 -3 C 0 km/h
2900 14-02-2010 23:56:30 -3 C 2.99 g/m*3 -3 C 0 km/h
Sensor: Nr:Datum:Temp:Abs-Feuchte:Windchill:Wind:
Aussen-T/F 2901 15-02-2010 00:21:30 -3 C 2.99 g/m*3 -3 C 0 km/h
2902 15-02-2010 00:46:30 -3 C 2.99 g/m*3 -3 C 0 km/h
2903 15-02-2010 01:11:31 -3 C 2.99 g/m*3 -3 C 0 km/h
2904 15-02-2010 01:36:31 -2.9 C 2.97 g/m*3 -2.9 C 0 km/h
2905 15-02-2010 02:01:31 -2.8 C 2.99 g/m*3 -2.8 C 0 km/h
2906 15-02-2010 02:26:31 -2.7 C 3.01 g/m*3 -2.7 C 0 km/h
2907 15-02-2010 02:51:31 -2.6 C 3.03 g/m*3 -2.6 C 0 km/h
2908 15-02-2010 03:16:31 -2.6 C 2.99 g/m*3 -2.6 C 0 km/h
2909 15-02-2010 03:41:31 -2.6 C 2.99 g/m*3 -2.6 C 0 km/h
2910 15-02-2010 04:06:31 -2.6 C 2.99 g/m*3 -2.6 C 0 km/h
2911 15-02-2010 04:31:31 -2.6 C 3.03 g/m*3 -2.6 C 0 km/h
2912 15-02-2010 04:56:31 -2.6 C 3.03 g/m*3 -2.6 C 0 km/h
2913 15-02-2010 05:21:31 -2.6 C 3.07 g/m*3 -2.6 C 0 km/h
2914 15-02-2010 05:46:31 -2.6 C 3.11 g/m*3 -2.6 C 0 km/h
2915 15-02-2010 06:11:31 -2.7 C 3.05 g/m*3 -2.7 C 0 km/h
2916 15-02-2010 06:36:31 -2.8 C 3.03 g/m*3 -2.8 C 0 km/h
2917 15-02-2010 07:01:31 -2.9 C 3.01 g/m*3 -2.9 C 0 km/h
2918 15-02-2010 07:26:31 -3.2 C 2.9 g/m*3 -3.2 C 0 km/h
2919 15-02-2010 07:51:31 -3.1 C 2.96 g/m*3 -3.1 C 0 km/h
2920 15-02-2010 08:16:31 -3.1 C 2.96 g/m*3 -3.1 C 0 km/h
2921 15-02-2010 08:41:31 -3 C 2.91 g/m*3 -3 C 0 km/h
2922 15-02-2010 09:06:31 -2.7 C 2.93 g/m*3 -2.7 C 0 km/h
2923 15-02-2010 09:31:31 -2.3 C 2.97 g/m*3 -2.3 C 0 km/h
2924 15-02-2010 09:56:32 -1.8 C 3.04 g/m*3 -1.8 C 0 km/h
2925 15-02-2010 10:21:32 -1.4 C 3.03 g/m*3 -1.4 C 0 km/h
Sensor: Nr:Datum:Temp:Abs-Feuchte:Windchill:Wind:
Aussen-T/F 2926 15-02-2010 10:46:32 -0.2 C 3.11 g/m*3 -0.2 C 0 km/h
2927 15-02-2010 11:11:32 -0.3 C 3.04 g/m*3 -0.3 C 0 km/h
2928 15-02-2010 11:36:32 -0.2 C 3.11 g/m*3 -0.2 C 0 km/h
2929 15-02-2010 12:01:32 0.3 C 3.07 g/m*3 0.3 C 0 km/h
2930 15-02-2010 12:26:32 0.9 C 3.2 g/m*3 0.9 C 0 km/h
2931 15-02-2010 12:51:32 1.2 C 3.21 g/m*3 1.2 C 0 km/h
2932 15-02-2010 13:16:32 1.6 C 3.24 g/m*3 1.6 C 0 km/h
2933 15-02-2010 13:41:32 1.8 C 3.29 g/m*3 1.8 C 0 km/h
2934 15-02-2010 14:06:32 2.2 C 3.21 g/m*3 2.2 C 0 km/h
2935 15-02-2010 14:31:32 1.4 C 3.2 g/m*3 1.4 C 0 km/h
2936 15-02-2010 14:56:32 1.6 C 3.41 g/m*3 1.6 C 0 km/h
2937 15-02-2010 15:21:32 1.8 C 3.45 g/m*3 1.8 C 0 km/h
2938 15-02-2010 15:46:32 1.8 C 3.4 g/m*3 1.8 C 0 km/h
2939 15-02-2010 16:11:32 1.5 C 3.38 g/m*3 1.5 C 0 km/h
2940 15-02-2010 16:36:32 1.3 C 3.44 g/m*3 1.3 C 0 km/h
2941 15-02-2010 17:01:32 0.7 C 3.46 g/m*3 0.7 C 0 km/h
2942 15-02-2010 17:26:32 0.3 C 3.46 g/m*3 0.3 C 0 km/h
2943 15-02-2010 17:51:32 -0.2 C 3.39 g/m*3 -0.2 C 0 km/h
2944 15-02-2010 18:16:33 -0.4 C 3.44 g/m*3 -0.4 C 0 km/h
2945 15-02-2010 18:41:33 -0.6 C 3.44 g/m*3 -0.6 C 0 km/h
2946 15-02-2010 19:06:33 -0.9 C 3.46 g/m*3 -0.9 C 0 km/h
2947 15-02-2010 19:31:33 -1 C 3.44 g/m*3 -1 C 0 km/h
2948 15-02-2010 19:56:33 -1 C 3.48 g/m*3 -1 C 0 km/h
2949 15-02-2010 20:21:33 -1.2 C 3.43 g/m*3 -1.2 C 0 km/h
2950 15-02-2010 20:46:33 -1.3 C 3.41 g/m*3 -1.3 C 0 km/h
Sensor: Nr:Datum:Temp:Abs-Feuchte:Windchill:Wind:
Aussen-T/F 2951 15-02-2010 21:11:33 -1.2 C 3.43 g/m*3 -1.2 C 0 km/h
2952 15-02-2010 21:36:33 -1.2 C 3.48 g/m*3 -1.2 C 0 km/h
2953 15-02-2010 22:01:33 -1 C 3.57 g/m*3 -1 C 0 km/h
2954 15-02-2010 22:26:33 -1 C 3.53 g/m*3 -1 C 0 km/h
2955 15-02-2010 22:51:33 -1.2 C 3.48 g/m*3 -1.2 C 0 km/h
2956 15-02-2010 23:16:33 -1.2 C 3.48 g/m*3 -1.2 C 0 km/h
2957 15-02-2010 23:41:33 -1.3 C 3.45 g/m*3 -1.3 C 0 km/h
2958 16-02-2010 00:06:33 -1.4 C 3.43 g/m*3 -1.4 C 0 km/h
2959 16-02-2010 00:31:33 -2.1 C 3.22 g/m*3 -2.1 C 0 km/h
2960 16-02-2010 00:56:33 -2.7 C 3.13 g/m*3 -2.7 C 0 km/h
2961 16-02-2010 01:21:33 -2.9 C 3.13 g/m*3 -2.9 C 0 km/h
2962 16-02-2010 01:46:33 -2.9 C 3.16 g/m*3 -2.9 C 0 km/h
2963 16-02-2010 02:11:33 -2.9 C 3.16 g/m*3 -2.9 C 0 km/h
2964 16-02-2010 02:36:33 -3.2 C 3.1 g/m*3 -3.2 C 0 km/h
2965 16-02-2010 03:01:34 -3.3 C 3.08 g/m*3 -3.3 C 0 km/h
2966 16-02-2010 03:26:34 -3.4 C 3.09 g/m*3 -3.4 C 0 km/h
2967 16-02-2010 03:51:34 -3.1 C 3.16 g/m*3 -3.1 C 0 km/h
2968 16-02-2010 04:16:34 -2.9 C 3.2 g/m*3 -2.9 C 0 km/h
2969 16-02-2010 04:41:34 -2.7 C 3.29 g/m*3 -2.7 C 0 km/h
2970 16-02-2010 05:06:34 -2.7 C 3.25 g/m*3 -2.7 C 0 km/h
2971 16-02-2010 05:31:34 -2.7 C 3.25 g/m*3 -2.7 C 0 km/h
2972 16-02-2010 05:56:34 -2.6 C 3.27 g/m*3 -2.6 C 0 km/h
2973 16-02-2010 06:21:34 -2.3 C 3.34 g/m*3 -2.3 C 0 km/h
2974 16-02-2010 06:46:34 -2.3 C 3.3 g/m*3 -2.3 C 0 km/h
2975 16-02-2010 07:11:34 -2.5 C 3.26 g/m*3 -2.5 C 0 km/h
Sensor: Nr:Datum:Temp:Abs-Feuchte:Windchill:Wind:
Aussen-T/F 2976 16-02-2010 07:36:34 -2.8 C 3.19 g/m*3 -2.8 C 0 km/h
2977 16-02-2010 08:01:34 -2.8 C 3.19 g/m*3 -2.8 C 0 km/h
2978 16-02-2010 08:26:34 -2.5 C 3.3 g/m*3 -2.5 C 0 km/h
2979 16-02-2010 08:51:34 -1.9 C 3.4 g/m*3 -1.9 C 0 km/h
2980 16-02-2010 09:16:34 -1.4 C 3.47 g/m*3 -1.4 C 0 km/h
2981 16-02-2010 09:41:34 -0.7 C 3.51 g/m*3 -0.7 C 0 km/h
2982 16-02-2010 10:06:34 -0.6 C 3.35 g/m*3 -0.6 C 0 km/h
2983 16-02-2010 10:31:34 0.1 C 3.42 g/m*3 0.1 C 0 km/h
2984 16-02-2010 10:56:34 -0.1 C 3.27 g/m*3 -0.1 C 0 km/h
2985 16-02-2010 11:21:34 0.3 C 3.31 g/m*3 0.3 C 0 km/h
2986 16-02-2010 11:46:35 0.4 C 3.19 g/m*3 0.4 C 0 km/h
2987 16-02-2010 12:11:35 1.2 C 3.31 g/m*3 1.2 C 0 km/h
2988 16-02-2010 12:36:35 2.4 C 2.91 g/m*3 2.4 C 0 km/h
2989 16-02-2010 13:01:35 2.8 C 2.76 g/m*3 2.8 C 0 km/h
2990 16-02-2010 13:26:35 2.9 C 2.6 g/m*3 2.9 C 0 km/h
2991 16-02-2010 13:51:35 2.8 C 2.7 g/m*3 2.8 C 0 km/h
2992 16-02-2010 14:16:35 3.5 C 2.64 g/m*3 3.5 C 0 km/h
2993 16-02-2010 14:41:35 3.4 C 2.57 g/m*3 3.4 C 0 km/h
2994 16-02-2010 15:06:35 3.2 C 2.53 g/m*3 3.2 C 0 km/h
2995 16-02-2010 15:31:35 3.9 C 2.4 g/m*3 3.9 C 0 km/h
2996 16-02-2010 15:56:35 4.5 C 2.43 g/m*3 4.5 C 0 km/h
2997 16-02-2010 16:21:35 4.4 C 2.42 g/m*3 4.4 C 0 km/h
2998 16-02-2010 16:46:35 4.1 C 2.43 g/m*3 4.1 C 0 km/h
2999 16-02-2010 17:11:35 2.8 C 2.58 g/m*3 2.8 C 0 km/h
3000 16-02-2010 17:36:35 1.1 C 2.61 g/m*3 1.1 C 0 km/h
Sensor: Nr:Datum:Temp:Abs-Feuchte:Windchill:Wind:
Aussen-T/F 3001 16-02-2010 18:01:35 -0.2 C 2.63 g/m*3 -0.2 C 0 km/h
3002 16-02-2010 18:26:35 -1.4 C 2.73 g/m*3 -1.4 C 0 km/h
3003 16-02-2010 18:51:35 -2 C 2.74 g/m*3 -2 C 0 km/h
3004 16-02-2010 19:16:35 -2.5 C 2.73 g/m*3 -2.5 C 0 km/h
3005 16-02-2010 19:41:35 -2.7 C 2.77 g/m*3 -2.7 C 0 km/h
3006 16-02-2010 20:06:36 -3 C 2.75 g/m*3 -3 C 0 km/h
3007 16-02-2010 20:31:36 -3.2 C 2.75 g/m*3 -3.2 C 0 km/h
3008 16-02-2010 20:56:36 -3.6 C 2.67 g/m*3 -3.6 C 0 km/h
3009 16-02-2010 21:21:36 -3.8 C 2.67 g/m*3 -3.8 C 0 km/h
3010 16-02-2010 21:46:36 -4.1 C 2.62 g/m*3 -4.1 C 0 km/h
3011 16-02-2010 22:11:36 -4.2 C 2.63 g/m*3 -4.2 C 0 km/h
3012 16-02-2010 22:36:36 -4.5 C 2.58 g/m*3 -4.5 C 0 km/h
3013 16-02-2010 23:01:36 -4.7 C 2.54 g/m*3 -4.7 C 0 km/h
3014 16-02-2010 23:26:36 -4.9 C 2.5 g/m*3 -4.9 C 0 km/h
3015 16-02-2010 23:51:36 -5.1 C 2.47 g/m*3 -5.1 C 0 km/h
3016 17-02-2010 00:16:36 -5.4 C 2.41 g/m*3 -5.4 C 0 km/h
3017 17-02-2010 00:41:36 -5.7 C 2.36 g/m*3 -5.7 C 0 km/h
3018 17-02-2010 01:06:36 -6 C 2.34 g/m*3 -6 C 0 km/h
3019 17-02-2010 01:31:36 -6.2 C 2.31 g/m*3 -6.2 C 0 km/h
3020 17-02-2010 01:56:36 -6.5 C 2.26 g/m*3 -6.5 C 0 km/h
3021 17-02-2010 02:21:36 -6.6 C 2.27 g/m*3 -6.6 C 0 km/h
3022 17-02-2010 02:46:36 -6.8 C 2.24 g/m*3 -6.8 C 0 km/h
3023 17-02-2010 03:11:36 -6.9 C 2.22 g/m*3 -6.9 C 0 km/h
3024 17-02-2010 03:36:36 -6.2 C 2.37 g/m*3 -6.2 C 0 km/h
3025 17-02-2010 04:01:36 -5.8 C 2.44 g/m*3 -5.8 C 0 km/h
Sensor: Nr:Datum:Temp:Abs-Feuchte:Windchill:Wind:
Aussen-T/F 3026 17-02-2010 04:26:36 -5.5 C 2.5 g/m*3 -5.5 C 0 km/h
3027 17-02-2010 04:51:37 -5.3 C 2.5 g/m*3 -5.3 C 0 km/h
3028 17-02-2010 05:16:37 -5.2 C 2.48 g/m*3 -5.2 C 0 km/h
3029 17-02-2010 05:41:37 -4.9 C 2.54 g/m*3 -4.9 C 0 km/h
3030 17-02-2010 06:06:37 -4.9 C 2.54 g/m*3 -4.9 C 0 km/h
3031 17-02-2010 06:31:37 -4.7 C 2.57 g/m*3 -4.7 C 0 km/h
3032 17-02-2010 06:56:37 -4.5 C 2.61 g/m*3 -4.5 C 0 km/h
3033 17-02-2010 07:21:37 -4.4 C 2.6 g/m*3 -4.4 C 0 km/h
3034 17-02-2010 07:46:37 -4.1 C 2.62 g/m*3 -4.1 C 0 km/h
3035 17-02-2010 08:11:37 -3.8 C 2.67 g/m*3 -3.8 C 0 km/h
3036 17-02-2010 08:36:37 -3.4 C 2.71 g/m*3 -3.4 C 0 km/h
3037 17-02-2010 09:01:37 -3.1 C 2.65 g/m*3 -3.1 C 0 km/h
3038 17-02-2010 09:26:37 -2.9 C 2.49 g/m*3 -2.9 C 0 km/h
3039 17-02-2010 09:51:37 -2.7 C 2.53 g/m*3 -2.7 C 0 km/h
3040 17-02-2010 10:16:37 -2.7 C 2.53 g/m*3 -2.7 C 0 km/h
3041 17-02-2010 10:41:37 -2.2 C 2.54 g/m*3 -2.2 C 0 km/h
3042 17-02-2010 11:06:37 -1.4 C 2.73 g/m*3 -1.4 C 0 km/h
3043 17-02-2010 11:31:37 -0.6 C 2.79 g/m*3 -0.6 C 0 km/h
3044 17-02-2010 11:56:37 1 C 2.91 g/m*3 1 C 0 km/h
3045 17-02-2010 12:21:37 2.7 C 2.8 g/m*3 2.7 C 0 km/h
3046 17-02-2010 12:46:37 3.5 C 2.71 g/m*3 3.5 C 0 km/h
3047 17-02-2010 13:11:38 2.9 C 2.72 g/m*3 2.9 C 0 km/h
3048 17-02-2010 13:36:38 2.8 C 2.7 g/m*3 2.8 C 0 km/h
3049 17-02-2010 14:01:38 2.7 C 2.97 g/m*3 2.7 C 0 km/h
3050 17-02-2010 14:26:38 2.1 C 3.3 g/m*3 2.1 C 0 km/h
Sensor: Nr:Datum:Temp:Abs-Feuchte:Windchill:Wind:
Aussen-T/F 3051 17-02-2010 14:51:38 2.1 C 3.58 g/m*3 2.1 C 0 km/h
3052 17-02-2010 15:16:38 1.3 C 3.81 g/m*3 1.3 C 0 km/h
3053 17-02-2010 15:41:38 1.2 C 4 g/m*3 1.2 C 0 km/h
3054 17-02-2010 16:06:38 1.3 C 4.13 g/m*3 1.3 C 0 km/h
3055 17-02-2010 16:31:38 1 C 4.15 g/m*3 1 C 0 km/h
3056 17-02-2010 16:56:38 0.9 C 4.23 g/m*3 0.9 C 0 km/h
3057 17-02-2010 17:21:38 0.7 C 4.17 g/m*3 0.7 C 0 km/h
3058 17-02-2010 17:46:38 0.6 C 4.19 g/m*3 0.6 C 0 km/h
3059 17-02-2010 18:11:38 0.5 C 4.21 g/m*3 0.5 C 0 km/h
3060 17-02-2010 18:36:38 0.5 C 4.31 g/m*3 0.5 C 0 km/h
3061 17-02-2010 19:01:38 0.5 C 4.36 g/m*3 0.5 C 0 km/h
3062 17-02-2010 19:26:38 0.5 C 4.36 g/m*3 0.5 C 0 km/h
3063 17-02-2010 19:51:38 0.5 C 4.41 g/m*3 0.5 C 0 km/h
3064 17-02-2010 20:16:38 0.7 C 4.53 g/m*3 0.7 C 0 km/h
3065 17-02-2010 20:41:38 0.7 C 4.53 g/m*3 0.7 C 0 km/h
3066 17-02-2010 21:06:38 0.7 C 4.53 g/m*3 0.7 C 0 km/h
3067 17-02-2010 21:31:38 0.8 C 4.51 g/m*3 0.8 C 0 km/h
3068 17-02-2010 21:56:39 0.8 C 4.56 g/m*3 0.8 C 0 km/h
3069 17-02-2010 22:21:39 0.8 C 4.51 g/m*3 0.8 C 0 km/h
3070 17-02-2010 22:46:39 0.8 C 4.51 g/m*3 0.8 C 0 km/h
3071 17-02-2010 23:11:39 0.8 C 4.51 g/m*3 0.8 C 0 km/h
3072 17-02-2010 23:36:39 0.8 C 4.51 g/m*3 0.8 C 0 km/h
3073 18-02-2010 00:01:39 0.8 C 4.51 g/m*3 0.8 C 0 km/h
3074 18-02-2010 00:26:39 0.9 C 4.54 g/m*3 0.9 C 0 km/h
3075 18-02-2010 00:51:39 0.9 C 4.54 g/m*3 0.9 C 0 km/h
Sensor: Nr:Datum:Temp:Abs-Feuchte:Windchill:Wind:
Aussen-T/F 3076 18-02-2010 01:16:39 1 C 4.57 g/m*3 1 C 0 km/h
3077 18-02-2010 01:41:39 1 C 4.57 g/m*3 1 C 0 km/h
3078 18-02-2010 02:06:39 1 C 4.57 g/m*3 1 C 0 km/h
3079 18-02-2010 02:31:39 1.2 C 4.63 g/m*3 1.2 C 0 km/h
3080 18-02-2010 02:56:39 1 C 4.57 g/m*3 1 C 0 km/h
3081 18-02-2010 03:21:39 1.2 C 4.63 g/m*3 1.2 C 0 km/h
3082 18-02-2010 03:46:39 1 C 4.57 g/m*3 1 C 0 km/h
3083 18-02-2010 04:11:39 1 C 4.62 g/m*3 1 C 0 km/h
3084 18-02-2010 04:36:39 1 C 4.62 g/m*3 1 C 0 km/h
3085 18-02-2010 05:01:39 1.2 C 4.68 g/m*3 1.2 C 0 km/h
3086 18-02-2010 05:26:39 1 C 4.62 g/m*3 1 C 0 km/h
3087 18-02-2010 05:51:39 1.1 C 4.65 g/m*3 1.1 C 0 km/h
3088 18-02-2010 06:16:40 1.1 C 4.65 g/m*3 1.1 C 0 km/h
3089 18-02-2010 06:41:40 1.2 C 4.74 g/m*3 1.2 C 0 km/h
3090 18-02-2010 07:06:40 1.1 C 4.7 g/m*3 1.1 C 0 km/h
3091 18-02-2010 07:31:40 1.1 C 4.7 g/m*3 1.1 C 0 km/h
3092 18-02-2010 07:56:40 1.1 C 4.7 g/m*3 1.1 C 0 km/h
3093 18-02-2010 08:21:40 1.1 C 4.76 g/m*3 1.1 C 0 km/h
3094 18-02-2010 08:46:40 1.4 C 4.85 g/m*3 1.4 C 0 km/h
3095 18-02-2010 09:11:40 1.7 C 5.01 g/m*3 1.7 C 0 km/h
3096 18-02-2010 09:36:40 2 C 5.06 g/m*3 2 C 0 km/h
3097 18-02-2010 10:01:40 2.6 C 5.32 g/m*3 2.6 C 0 km/h
3098 18-02-2010 10:26:40 3.6 C 5.63 g/m*3 3.6 C 0 km/h
3099 18-02-2010 10:51:40 3.8 C 5.58 g/m*3 3.8 C 0 km/h
3100 18-02-2010 11:16:40 4.1 C 5.25 g/m*3 4.1 C 0 km/h
Sensor: Nr:Datum:Temp:Abs-Feuchte:Windchill:Wind:
Aussen-T/F 3101 18-02-2010 11:41:40 4.4 C 5.03 g/m*3 4.4 C 0 km/h
3102 18-02-2010 12:06:40 4.7 C 4.86 g/m*3 4.7 C 0 km/h
3103 18-02-2010 12:31:40 5.1 C 4.65 g/m*3 5.1 C 0 km/h
3104 18-02-2010 12:56:40 5.8 C 4.58 g/m*3 5.8 C 0 km/h
3105 18-02-2010 13:21:40 6.8 C 4.36 g/m*3 6.8 C 0 km/h
3106 18-02-2010 13:46:40 7.4 C 4.14 g/m*3 7.4 C 0 km/h
3107 18-02-2010 14:11:40 8 C 4.13 g/m*3 8 C 0 km/h
3108 18-02-2010 14:36:41 8.5 C 4.1 g/m*3 8.5 C 0 km/h
3109 18-02-2010 15:01:41 9.1 C 3.73 g/m*3 9.1 C 0 km/h
3110 18-02-2010 15:26:41 9.5 C 3.64 g/m*3 9.5 C 0 km/h
3111 18-02-2010 15:51:41 10.1 C 3.59 g/m*3 10.1 C 0 km/h
3112 18-02-2010 16:16:41 9.6 C 3.57 g/m*3 9.6 C 0 km/h
3113 18-02-2010 16:41:41 9.3 C 3.59 g/m*3 9.3 C 0 km/h
3114 18-02-2010 17:06:41 7.5 C 3.36 g/m*3 7.5 C 0 km/h
3115 18-02-2010 17:31:41 6.3 C 3.55 g/m*3 6.3 C 0 km/h
3116 18-02-2010 17:56:41 5.6 C 3.68 g/m*3 5.6 C 0 km/h
3117 18-02-2010 18:21:41 4 C 3.88 g/m*3 4 C 0 km/h
3118 18-02-2010 18:46:41 3.2 C 3.98 g/m*3 3.2 C 0 km/h
3119 18-02-2010 19:11:41 2.6 C 4.11 g/m*3 2.6 C 0 km/h
3120 18-02-2010 19:36:41 2.5 C 4.2 g/m*3 2.5 C 0 km/h
3121 18-02-2010 20:01:41 2.1 C 4.08 g/m*3 2.1 C 0 km/h
3122 18-02-2010 20:26:41 2 C 4.17 g/m*3 2 C 0 km/h
3123 18-02-2010 20:51:41 1.6 C 4.16 g/m*3 1.6 C 0 km/h
3124 18-02-2010 21:16:41 1.4 C 4.21 g/m*3 1.4 C 0 km/h
3125 18-02-2010 21:41:41 1.4 C 4.21 g/m*3 1.4 C 0 km/h
Sensor: Nr:Datum:Temp:Abs-Feuchte:Windchill:Wind:
Aussen-T/F 3126 18-02-2010 22:06:41 1.7 C 4.3 g/m*3 1.7 C 0 km/h
3127 18-02-2010 22:31:41 2 C 4.33 g/m*3 2 C 0 km/h
3128 18-02-2010 22:56:42 1.9 C 4.36 g/m*3 1.9 C 0 km/h
3129 18-02-2010 23:21:42 1.7 C 4.3 g/m*3 1.7 C 0 km/h
3130 18-02-2010 23:46:42 1.9 C 4.53 g/m*3 1.9 C 0 km/h
3131 19-02-2010 00:11:42 2.1 C 4.59 g/m*3 2.1 C 0 km/h
3132 19-02-2010 00:36:42 1.8 C 4.55 g/m*3 1.8 C 0 km/h
3133 19-02-2010 01:01:42 2 C 4.67 g/m*3 2 C 0 km/h
3134 19-02-2010 01:26:42 2 C 4.67 g/m*3 2 C 0 km/h
3135 19-02-2010 01:51:42 2.1 C 4.76 g/m*3 2.1 C 0 km/h
3136 19-02-2010 02:16:42 2.1 C 4.7 g/m*3 2.1 C 0 km/h
3137 19-02-2010 02:41:42 2 C 4.67 g/m*3 2 C 0 km/h
3138 19-02-2010 03:06:42 1.8 C 4.66 g/m*3 1.8 C 0 km/h
3139 19-02-2010 03:31:42 1.8 C 4.71 g/m*3 1.8 C 0 km/h
3140 19-02-2010 03:56:42 1.6 C 4.7 g/m*3 1.6 C 0 km/h
3141 19-02-2010 04:21:42 1.6 C 4.7 g/m*3 1.6 C 0 km/h
3142 19-02-2010 04:46:42 1.6 C 4.7 g/m*3 1.6 C 0 km/h
3143 19-02-2010 05:11:42 1.7 C 4.79 g/m*3 1.7 C 0 km/h
3144 19-02-2010 05:36:42 1.8 C 4.77 g/m*3 1.8 C 0 km/h
3145 19-02-2010 06:01:42 1.9 C 4.8 g/m*3 1.9 C 0 km/h
3146 19-02-2010 06:26:42 2.1 C 4.76 g/m*3 2.1 C 0 km/h
3147 19-02-2010 06:51:42 2 C 4.67 g/m*3 2 C 0 km/h
3148 19-02-2010 07:16:42 1.7 C 4.63 g/m*3 1.7 C 0 km/h
3149 19-02-2010 07:41:43 1.5 C 4.57 g/m*3 1.5 C 0 km/h
3150 19-02-2010 08:06:43 1.5 C 4.62 g/m*3 1.5 C 0 km/h
Sensor: Nr:Datum:Temp:Abs-Feuchte:Windchill:Wind:
Aussen-T/F 3151 19-02-2010 08:31:43 1.6 C 4.65 g/m*3 1.6 C 0 km/h
3152 19-02-2010 08:56:43 2.1 C 4.81 g/m*3 2.1 C 0 km/h
3153 19-02-2010 09:21:43 2.5 C 4.83 g/m*3 2.5 C 0 km/h
3154 19-02-2010 09:46:43 3.1 C 4.91 g/m*3 3.1 C 0 km/h
3155 19-02-2010 10:11:43 3.7 C 5.05 g/m*3 3.7 C 0 km/h
3156 19-02-2010 10:36:02 4.6 C 5.1 g/m*3 4.6 C 0 km/h
3157 19-02-2010 11:01:02 5.3 C 5.06 g/m*3 5.3 C 0 km/h
3158 19-02-2010 11:26:01 6 C 4.79 g/m*3 6 C 0 km/h
3159 19-02-2010 11:51:02 6.5 C 4.72 g/m*3 6.5 C 0 km/h
3160 19-02-2010 12:16:02 7 C 4.49 g/m*3 7 C 0 km/h
3161 19-02-2010 12:41:02 7.6 C 4.27 g/m*3 7.6 C 0 km/h
3162 19-02-2010 13:06:02 7.6 C 4.11 g/m*3 7.6 C 0 km/h
3163 19-02-2010 13:31:02 7.7 C 4.05 g/m*3 7.7 C 0 km/h
3164 19-02-2010 13:56:02 7.6 C 3.95 g/m*3 7.6 C 0 km/h
3165 19-02-2010 14:21:01 7.5 C 4 g/m*3 7.5 C 0 km/h
3166 19-02-2010 14:46:02 7.5 C 3.92 g/m*3 7.5 C 0 km/h
3167 19-02-2010 15:11:03 7.8 C 3.67 g/m*3 7.8 C 0 km/h
3168 19-02-2010 15:36:02 7.2 C 3.53 g/m*3 7.2 C 0 km/h
3169 19-02-2010 16:01:02 6.3 C 3.33 g/m*3 6.3 C 0 km/h
3170 19-02-2010 16:26:01 6.1 C 3.29 g/m*3 6.1 C 0 km/h
3171 19-02-2010 16:51:01 5.5 C 3.23 g/m*3 5.5 C 0 km/h
3172 19-02-2010 17:16:02 5 C 3.06 g/m*3 5 C 0 km/h
3173 19-02-2010 17:41:02 5.1 C 3.01 g/m*3 5.1 C 0 km/h
3174 19-02-2010 18:06:02 4.5 C 3.02 g/m*3 4.5 C 0 km/h
3175 19-02-2010 18:31:02 4.1 C 3.07 g/m*3 4.1 C 0 km/h
Sensor: Nr:Datum:Temp:Abs-Feuchte:Windchill:Wind:
Aussen-T/F 3176 19-02-2010 18:56:01 3.7 C 3.18 g/m*3 3.7 C 0 km/h
3177 19-02-2010 19:21:01 3.6 C 3.22 g/m*3 3.6 C 0 km/h
3178 19-02-2010 19:46:02 3.6 C 3.28 g/m*3 3.6 C 0 km/h
3179 19-02-2010 20:11:02 3.3 C 3.34 g/m*3 3.3 C 0 km/h
3180 19-02-2010 20:36:02 3.3 C 3.46 g/m*3 3.3 C 0 km/h
3181 19-02-2010 21:14:02 3.3 C 3.52 g/m*3 3.3 C 0 km/h
3182 19-02-2010 21:26:02 3.2 C 3.56 g/m*3 3.2 C 0 km/h
3183 19-02-2010 21:38:01 3.2 C 3.5 g/m*3 3.2 C 0 km/h
3184 19-02-2010 21:50:01 3.1 C 3.53 g/m*3 3.1 C 0 km/h
3185 19-02-2010 22:02:02 2.8 C 3.52 g/m*3 2.8 C 0 km/h
3186 19-02-2010 22:14:02 2.6 C 3.53 g/m*3 2.6 C 0 km/h
3187 19-02-2010 22:26:01 2.6 C 3.47 g/m*3 2.6 C 0 km/h
3188 19-02-2010 22:38:02 2.4 C 3.43 g/m*3 2.4 C 0 km/h
3189 19-02-2010 22:50:01 2.2 C 3.38 g/m*3 2.2 C 0 km/h
3190 19-02-2010 23:02:02 2.1 C 3.36 g/m*3 2.1 C 0 km/h
3191 19-02-2010 23:14:02 2.5 C 3.22 g/m*3 2.5 C 0 km/h
3192 19-02-2010 23:26:01 2.5 C 3.16 g/m*3 2.5 C 0 km/h
3193 19-02-2010 23:38:02 2.2 C 3.21 g/m*3 2.2 C 0 km/h
3194 19-02-2010 23:50:01 1.6 C 3.24 g/m*3 1.6 C 0 km/h
3195 20-02-2010 00:02:02 1.5 C 3.33 g/m*3 1.5 C 0 km/h
3196 20-02-2010 00:14:02 1.4 C 3.31 g/m*3 1.4 C 0 km/h
3197 20-02-2010 00:26:02 1.2 C 3.37 g/m*3 1.2 C 0 km/h
3198 20-02-2010 00:38:01 1.1 C 3.4 g/m*3 1.1 C 0 km/h
3199 20-02-2010 00:50:02 0.7 C 3.41 g/m*3 0.7 C 0 km/h
3200 20-02-2010 01:02:01 0.4 C 3.39 g/m*3 0.4 C 0 km/h
Sensor: Nr:Datum:Temp:Abs-Feuchte:Windchill:Wind:
Aussen-T/F 3201 20-02-2010 01:14:01 0.1 C 3.42 g/m*3 0.1 C 0 km/h
3202 20-02-2010 01:26:01 -0.1 C 3.46 g/m*3 -0.1 C 0 km/h
3203 20-02-2010 01:38:02 -0.1 C 3.51 g/m*3 -0.1 C 0 km/h
3204 20-02-2010 01:50:02 -0.1 C 3.56 g/m*3 -0.1 C 0 km/h
3205 20-02-2010 02:02:02 -0.2 C 3.58 g/m*3 -0.2 C 0 km/h
3206 20-02-2010 02:14:02 -0.3 C 3.56 g/m*3 -0.3 C 0 km/h
3207 20-02-2010 02:26:02 -0.3 C 3.61 g/m*3 -0.3 C 0 km/h
3208 20-02-2010 02:38:02 -0.4 C 3.58 g/m*3 -0.4 C 0 km/h
3209 20-02-2010 02:50:01 -0.4 C 3.58 g/m*3 -0.4 C 0 km/h
3210 20-02-2010 03:02:01 -0.4 C 3.58 g/m*3 -0.4 C 0 km/h
3211 20-02-2010 03:14:01 -0.7 C 3.46 g/m*3 -0.7 C 0 km/h
3212 20-02-2010 03:26:01 -0.7 C 3.51 g/m*3 -0.7 C 0 km/h
3213 20-02-2010 03:38:02 -0.8 C 3.48 g/m*3 -0.8 C 0 km/h
3214 20-02-2010 03:50:02 -1 C 3.44 g/m*3 -1 C 0 km/h
3215 20-02-2010 04:02:01 -0.9 C 3.51 g/m*3 -0.9 C 0 km/h
3216 20-02-2010 04:14:01 -0.7 C 3.55 g/m*3 -0.7 C 0 km/h
3217 20-02-2010 04:26:01 -0.7 C 3.51 g/m*3 -0.7 C 0 km/h
3218 20-02-2010 04:38:02 -0.4 C 3.58 g/m*3 -0.4 C 0 km/h
3219 20-02-2010 04:50:01 -0.2 C 3.58 g/m*3 -0.2 C 0 km/h
3220 20-02-2010 05:02:01 -0.1 C 3.61 g/m*3 -0.1 C 0 km/h
3221 20-02-2010 05:14:01 -0.2 C 3.54 g/m*3 -0.2 C 0 km/h
3222 20-02-2010 05:26:01 -0.2 C 3.58 g/m*3 -0.2 C 0 km/h
3223 20-02-2010 05:38:02 -0.2 C 3.58 g/m*3 -0.2 C 0 km/h
3224 20-02-2010 05:50:01 0 C 3.63 g/m*3 0 C 0 km/h
3225 20-02-2010 06:02:02 -0.2 C 3.58 g/m*3 -0.2 C 0 km/h
Sensor: Nr:Datum:Temp:Abs-Feuchte:Windchill:Wind:
Aussen-T/F 3226 20-02-2010 06:14:02 0.1 C 3.71 g/m*3 0.1 C 0 km/h
3227 20-02-2010 06:26:01 0.4 C 3.79 g/m*3 0.4 C 0 km/h
3228 20-02-2010 06:38:01 0.3 C 3.76 g/m*3 0.3 C 0 km/h
3229 20-02-2010 06:50:01 0 C 3.68 g/m*3 0 C 0 km/h
3230 20-02-2010 07:02:01 -0.2 C 3.68 g/m*3 -0.2 C 0 km/h
3231 20-02-2010 07:14:02 -0.5 C 3.65 g/m*3 -0.5 C 0 km/h
3232 20-02-2010 07:26:01 -0.6 C 3.67 g/m*3 -0.6 C 0 km/h
3233 20-02-2010 07:38:01 -0.6 C 3.72 g/m*3 -0.6 C 0 km/h
3234 20-02-2010 07:50:01 -0.6 C 3.76 g/m*3 -0.6 C 0 km/h
3235 20-02-2010 08:02:02 -0.2 C 3.92 g/m*3 -0.2 C 0 km/h
3236 20-02-2010 08:14:02 0.1 C 3.95 g/m*3 0.1 C 0 km/h
3237 20-02-2010 08:26:01 0.4 C 3.98 g/m*3 0.4 C 0 km/h
3238 20-02-2010 08:38:01 0.7 C 3.97 g/m*3